FR3233 / EI-EKX 7700 Squawk Report (25th of July, 2021)

Aircraft B738 Reg No. EI-EKX Age 11 years old
Model 737 Jet engines 2 First flight 12-03-10
Registered 23-03-10 Rollout 05-03-10 Delivered 26-03-10
Construction No. 35030 Line No. 3222 Series 8AS
ADSHEX 4CA816 Airline name Ryanair Owner N/A
Airfield based Dublin~Co Dublin~EI First tracked N/A
Time Lat Lon Altitude Heading Speed Vertical Rate
2021-07-25 21:33:12 GMT 51.383034 -2.733440 0 0 14 0
2021-07-25 21:32:51 GMT 51.382175 -2.732200 0 267 16 0
2021-07-25 21:32:46 GMT 51.382198 -2.731476 0 267 23 0
2021-07-25 21:31:58 GMT 51.383289 -2.704239 675 267 132 -640
2021-07-25 21:31:54 GMT 51.383430 -2.700272 775 267 130 -640
2021-07-25 21:31:45 GMT 51.383801 -2.691574 875 267 129 -640
2021-07-25 21:31:37 GMT 51.384064 -2.683039 1,100 267 133 -704
2021-07-25 21:31:34 GMT 51.384129 -2.680511 1,025 267 132 -832
2021-07-25 21:31:31 GMT 51.384430 -2.673464 1,050 267 133 -704
2021-07-25 21:31:26 GMT 51.384430 -2.673464 1,100 267 133 -640
2021-07-25 21:31:23 GMT 51.384567 -2.670494 1,150 267 133 -704
2021-07-25 21:31:16 GMT 51.384842 -2.663442 1,250 267 134 -704
2021-07-25 21:31:12 GMT 51.385014 -2.659531 1,275 267 134 -704
2021-07-25 21:31:09 GMT 51.385117 -2.656316 1,300 267 135 -768
2021-07-25 21:31:05 GMT 51.385246 -2.652435 1,350 267 136 -704
2021-07-25 21:31:01 GMT 51.385391 -2.648002 1,400 267 137 -704
2021-07-25 21:30:56 GMT 51.385620 -2.642138 1,475 267 140 -704
2021-07-25 21:30:53 GMT 51.385666 -2.640282 1,500 267 142 -640
2021-07-25 21:30:50 GMT 51.385803 -2.637016 1,525 267 144 -704
2021-07-25 21:30:44 GMT 51.386082 -2.631226 1,600 266 149 -832
2021-07-25 21:30:40 GMT 51.386269 -2.626343 1,650 266 153 -832
2021-07-25 21:30:34 GMT 51.386547 -2.620163 1,725 266 157 -768
2021-07-25 21:30:31 GMT 51.386875 -2.611923 1,800 267 160 -768
2021-07-25 21:30:28 GMT 51.386875 -2.611923 1,825 267 163 -832
2021-07-25 21:30:25 GMT 51.387012 -2.609406 1,875 267 163 -832
2021-07-25 21:30:22 GMT 51.387177 -2.605096 1,925 267 164 -896
2021-07-25 21:30:18 GMT 51.387341 -2.600784 1,975 267 167 -832
2021-07-25 21:30:14 GMT 51.387497 -2.596040 2,025 267 169 -832
2021-07-25 21:30:11 GMT 51.387634 -2.592477 2,050 267 171 -960
2021-07-25 21:30:08 GMT 51.387817 -2.587800 2,125 267 174 -1088
2021-07-25 21:30:05 GMT 51.388176 -2.579117 2,175 267 177 -896
2021-07-25 21:30:02 GMT 51.388275 -2.575774 2,300 267 179 -1088
2021-07-25 21:29:59 GMT 51.388275 -2.575774 2,300 267 179 -1088
2021-07-25 21:29:56 GMT 51.388412 -2.572211 2,375 267 180 -1088
2021-07-25 21:29:52 GMT 51.388641 -2.566866 2,375 267 185 -960
2021-07-25 21:29:49 GMT 51.388737 -2.563477 2,425 267 185 -960
2021-07-25 21:29:48 GMT 51.388824 -2.561670 2,425 267 185 -960
2021-07-25 21:29:45 GMT 51.388924 -2.557755 2,475 267 185 -960
2021-07-25 21:29:42 GMT 51.389099 -2.553653 2,600 267 186 -1024
2021-07-25 21:29:39 GMT 51.389294 -2.546844 2,625 268 188 -1024
2021-07-25 21:29:36 GMT 51.389339 -2.545319 2,625 268 188 -1088
2021-07-25 21:29:35 GMT 51.389465 -2.542073 2,675 268 189 -1152
2021-07-25 21:29:33 GMT 51.389481 -2.540588 2,700 268 189 -1216
2021-07-25 21:29:31 GMT 51.389572 -2.537994 2,725 268 189 -1216
2021-07-25 21:29:30 GMT 51.389622 -2.536392 2,750 268 189 -1216
2021-07-25 21:29:29 GMT 51.389713 -2.532120 2,800 268 191 -960
2021-07-25 21:29:27 GMT 51.389713 -2.532120 2,825 268 191 -960
2021-07-25 21:29:25 GMT 51.389809 -2.529831 2,850 268 192 -960
2021-07-25 21:29:23 GMT 51.389877 -2.526410 2,875 268 193 -960
2021-07-25 21:29:21 GMT 51.389969 -2.522921 2,925 268 194 -960
2021-07-25 21:29:19 GMT 51.389992 -2.521667 2,925 268 194 -960
2021-07-25 21:29:18 GMT 51.390060 -2.519432 2,950 268 194 -960
2021-07-25 21:29:16 GMT 51.390152 -2.515572 3,000 268 195 -960
2021-07-25 21:29:14 GMT 51.390224 -2.513962 3,025 268 195 -960
2021-07-25 21:29:13 GMT 51.390244 -2.512454 3,025 268 195 -960
2021-07-25 21:29:11 GMT 51.390381 -2.508446 3,100 267 196 -960
2021-07-25 21:29:08 GMT 51.390457 -2.505875 3,100 267 196 -960
2021-07-25 21:29:07 GMT 51.390564 -2.503621 3,125 266 196 -1024
2021-07-25 21:29:05 GMT 51.390656 -2.501320 3,150 266 196 -1024
2021-07-25 21:29:04 GMT 51.390785 -2.498093 3,200 266 196 -960
2021-07-25 21:29:02 GMT 51.390877 -2.496109 3,225 265 197 -896
2021-07-25 21:29:00 GMT 51.391064 -2.493134 3,250 265 197 -896
2021-07-25 21:28:58 GMT 51.391251 -2.490259 3,275 264 198 -832
2021-07-25 21:28:57 GMT 51.391342 -2.488861 3,300 264 199 -832
2021-07-25 21:28:53 GMT 51.391800 -2.482984 3,350 263 200 -896
2021-07-25 21:28:51 GMT 51.392040 -2.479935 3,375 264 201 -832
2021-07-25 21:28:50 GMT 51.392040 -2.479935 3,375 264 201 -832
2021-07-25 21:28:49 GMT 51.392120 -2.478308 3,400 265 201 -896
2021-07-25 21:28:48 GMT 51.392349 -2.475190 3,425 267 202 -896
2021-07-25 21:28:46 GMT 51.392395 -2.473780 3,450 269 202 -960
2021-07-25 21:28:45 GMT 51.392460 -2.470856 3,475 274 202 -1024
2021-07-25 21:28:43 GMT 51.392460 -2.469330 3,500 277 202 -1088
2021-07-25 21:28:41 GMT 51.392090 -2.464676 3,550 282 203 -1152
2021-07-25 21:28:39 GMT 51.391903 -2.463226 3,575 285 203 -1088
2021-07-25 21:28:36 GMT 51.390610 -2.457300 3,625 296 203 -1216
2021-07-25 21:28:33 GMT 51.389969 -2.455222 3,725 305 205 -1280
2021-07-25 21:28:31 GMT 51.388641 -2.452011 3,725 310 206 -1344
2021-07-25 21:28:28 GMT 51.387108 -2.449036 3,800 315 206 -1408
2021-07-25 21:28:27 GMT 51.386501 -2.448044 3,825 318 206 -1408
2021-07-25 21:28:26 GMT 51.385525 -2.446594 3,875 324 207 -1472
2021-07-25 21:28:24 GMT 51.384384 -2.445200 3,875 326 208 -1408
2021-07-25 21:28:23 GMT 51.383614 -2.444382 3,900 329 207 -1408
2021-07-25 21:28:22 GMT 51.382030 -2.442780 3,950 334 208 -1280
2021-07-25 21:28:20 GMT 51.381054 -2.442017 3,975 337 208 -1280
2021-07-25 21:28:19 GMT 51.379147 -2.440720 4,025 342 209 -1344
2021-07-25 21:28:17 GMT 51.378204 -2.440227 4,050 345 209 -1344
2021-07-25 21:28:16 GMT 51.375935 -2.439346 4,075 350 210 -1344
2021-07-25 21:28:15 GMT 51.375935 -2.439346 4,100 353 210 -1344
2021-07-25 21:28:14 GMT 51.374863 -2.439113 4,125 353 210 -1344
2021-07-25 21:28:13 GMT 51.372723 -2.438812 4,175 358 211 -1344
2021-07-25 21:28:11 GMT 51.371742 -2.438812 4,200 0 211 -1344
2021-07-25 21:28:09 GMT 51.370163 -2.438965 4,225 8 213 -1280
2021-07-25 21:28:08 GMT 51.368774 -2.439188 4,250 10 213 -1216
2021-07-25 21:28:06 GMT 51.367416 -2.439575 4,275 15 214 -1088
2021-07-25 21:28:04 GMT 51.365021 -2.440598 4,325 20 216 -832
2021-07-25 21:28:03 GMT 51.364105 -2.441043 4,325 22 217 -768
2021-07-25 21:28:01 GMT 51.362274 -2.442231 4,350 24 218 -896
2021-07-25 21:28:00 GMT 51.361496 -2.442825 4,375 25 219 -832
2021-07-25 21:27:58 GMT 51.359734 -2.444153 4,400 26 219 -1152
2021-07-25 21:27:56 GMT 51.356941 -2.446442 4,475 27 220 -1280
2021-07-25 21:27:54 GMT 51.356140 -2.447130 4,500 27 220 -1280
2021-07-25 21:27:53 GMT 51.355217 -2.447891 4,525 27 220 -1344
2021-07-25 21:27:52 GMT 51.353916 -2.448959 4,550 27 220 -1280
2021-07-25 21:27:50 GMT 51.352146 -2.450409 4,575 27 221 -1280
2021-07-25 21:27:49 GMT 51.351261 -2.451172 4,600 27 221 -1344
2021-07-25 21:27:48 GMT 51.348843 -2.453232 4,650 27 221 -1216
2021-07-25 21:27:46 GMT 51.348843 -2.453232 4,650 27 221 -1152
2021-07-25 21:27:45 GMT 51.346977 -2.454758 4,700 27 222 -960
2021-07-25 21:27:43 GMT 51.346069 -2.455593 4,725 27 223 -896
2021-07-25 21:27:42 GMT 51.345070 -2.456360 4,725 27 224 -896
2021-07-25 21:27:41 GMT 51.343254 -2.457962 4,750 27 225 -832
2021-07-25 21:27:39 GMT 51.342361 -2.458711 4,775 27 225 -768
2021-07-25 21:27:38 GMT 51.340553 -2.460251 4,800 27 225 -832
2021-07-25 21:27:36 GMT 51.339344 -2.461243 4,825 27 225 -896
2021-07-25 21:27:35 GMT 51.338413 -2.462006 4,825 27 225 -960
2021-07-25 21:27:34 GMT 51.336643 -2.463531 4,875 27 225 -1088
2021-07-25 21:27:32 GMT 51.335632 -2.464352 4,875 27 225 -1152
2021-07-25 21:27:31 GMT 51.334763 -2.465094 4,900 27 225 -1152
2021-07-25 21:27:30 GMT 51.333851 -2.465897 4,925 27 225 -1152
2021-07-25 21:27:29 GMT 51.331238 -2.468064 4,975 27 225 -1152
2021-07-25 21:27:27 GMT 51.331238 -2.468064 4,975 28 225 -1152
2021-07-25 21:27:26 GMT 51.329407 -2.469548 5,025 27 225 -1216
2021-07-25 21:27:24 GMT 51.328537 -2.470291 5,025 27 225 -1216
2021-07-25 21:27:23 GMT 51.327438 -2.471256 5,050 27 225 -1216
2021-07-25 21:27:21 GMT 51.325607 -2.472815 5,100 27 225 -1152
2021-07-25 21:27:20 GMT 51.324680 -2.473602 5,125 27 225 -1088
2021-07-25 21:27:19 GMT 51.323593 -2.474522 5,125 27 225 -1088
2021-07-25 21:27:18 GMT 51.321609 -2.476196 5,175 28 225 -896
2021-07-25 21:27:16 GMT 51.320816 -2.476807 5,175 27 226 -832
2021-07-25 21:27:15 GMT 51.318909 -2.478485 5,200 27 226 -640
2021-07-25 21:27:13 GMT 51.317963 -2.479273 5,225 27 226 -512
2021-07-25 21:27:12 GMT 51.315231 -2.481537 5,225 28 227 -448
2021-07-25 21:27:10 GMT 51.315231 -2.481537 5,225 27 228 -448
2021-07-25 21:27:08 GMT 51.313416 -2.483139 5,250 27 229 -512
2021-07-25 21:27:07 GMT 51.312332 -2.484024 5,250 27 229 -512
2021-07-25 21:27:05 GMT 51.310760 -2.485352 5,275 27 230 -512
2021-07-25 21:27:03 GMT 51.308712 -2.487106 5,300 27 231 -512
2021-07-25 21:27:02 GMT 51.306793 -2.488700 5,300 27 232 -512
2021-07-25 21:27:00 GMT 51.306244 -2.489166 5,325 27 233 -512
2021-07-25 21:26:59 GMT 51.304871 -2.490333 5,325 27 233 -512
2021-07-25 21:26:57 GMT 51.302940 -2.491913 5,350 27 234 -512
2021-07-25 21:26:56 GMT 51.302353 -2.492412 5,350 27 235 -512
2021-07-25 21:26:55 GMT 51.300194 -2.494202 5,375 27 235 -512
2021-07-25 21:26:53 GMT 51.299332 -2.494936 5,375 27 236 -512
2021-07-25 21:26:51 GMT 51.297073 -2.496796 5,400 27 237 -512
2021-07-25 21:26:50 GMT 51.295486 -2.498128 5,400 27 238 -512
2021-07-25 21:26:48 GMT 51.294468 -2.498932 5,425 27 238 -512
2021-07-25 21:26:46 GMT 51.292511 -2.500577 5,425 27 239 -512
2021-07-25 21:26:45 GMT 51.291443 -2.501450 5,450 27 240 -512
2021-07-25 21:26:44 GMT 51.290462 -2.502289 5,450 27 241 -512
2021-07-25 21:26:43 GMT 51.288555 -2.503815 5,475 27 242 -512
2021-07-25 21:26:41 GMT 51.287670 -2.504578 5,475 27 242 -512
2021-07-25 21:26:39 GMT 51.284691 -2.507095 5,500 27 243 -512
2021-07-25 21:26:38 GMT 51.284691 -2.507095 5,500 27 244 -512
2021-07-25 21:26:36 GMT 51.281342 -2.509842 5,525 27 246 -512
2021-07-25 21:26:34 GMT 51.280361 -2.510681 5,550 27 246 -576
2021-07-25 21:26:32 GMT 51.276264 -2.514114 5,575 27 247 -576
2021-07-25 21:26:30 GMT 51.276264 -2.514114 5,575 27 248 -576
2021-07-25 21:26:29 GMT 51.273468 -2.516463 5,600 27 249 -512
2021-07-25 21:26:27 GMT 51.273468 -2.516463 5,600 27 249 -512
2021-07-25 21:26:25 GMT 51.269806 -2.519507 5,625 27 250 -512
2021-07-25 21:26:22 GMT 51.268799 -2.520323 5,650 27 251 -576
2021-07-25 21:26:21 GMT 51.267372 -2.521591 5,650 27 253 -576
2021-07-25 21:26:20 GMT 51.266212 -2.522507 5,675 27 253 -576
2021-07-25 21:26:19 GMT 51.265228 -2.523367 5,675 27 254 -576
2021-07-25 21:26:18 GMT 51.262997 -2.525177 5,700 27 255 -576
2021-07-25 21:26:16 GMT 51.261932 -2.526113 5,700 27 255 -576
2021-07-25 21:26:15 GMT 51.260880 -2.527004 5,725 27 256 -576
2021-07-25 21:26:13 GMT 51.258911 -2.528637 5,725 27 257 -576
2021-07-25 21:26:12 GMT 51.257923 -2.529449 5,750 27 257 -576
2021-07-25 21:26:11 GMT 51.254745 -2.532126 5,775 27 258 -576
2021-07-25 21:26:09 GMT 51.254745 -2.532126 5,775 27 259 -576
2021-07-25 21:26:08 GMT 51.253647 -2.533017 5,775 27 259 -576
2021-07-25 21:26:07 GMT 51.250168 -2.535912 5,800 27 260 -640
2021-07-25 21:26:05 GMT 51.250168 -2.535912 5,825 27 262 -640
2021-07-25 21:26:03 GMT 51.248566 -2.537308 5,825 27 263 -704
2021-07-25 21:26:02 GMT 51.246937 -2.538605 5,850 27 263 -704
2021-07-25 21:26:00 GMT 51.245262 -2.540054 5,875 27 264 -704
2021-07-25 21:25:59 GMT 51.243713 -2.541331 5,875 27 264 -704
2021-07-25 21:25:58 GMT 51.240791 -2.543793 5,900 27 265 -640
2021-07-25 21:25:56 GMT 51.240791 -2.543793 5,900 28 266 -640
2021-07-25 21:25:53 GMT 51.237579 -2.546539 5,925 27 268 -512
2021-07-25 21:25:52 GMT 51.234055 -2.549496 5,950 28 269 -448
2021-07-25 21:25:50 GMT 51.234055 -2.549496 5,950 28 270 -448
2021-07-25 21:25:49 GMT 51.233093 -2.550313 5,975 28 271 -448
2021-07-25 21:25:48 GMT 51.230896 -2.552243 5,975 28 272 -448
2021-07-25 21:25:46 GMT 51.229797 -2.553134 6,000 28 273 -448
2021-07-25 21:25:45 GMT 51.228378 -2.554396 6,000 28 273 -448
2021-07-25 21:25:42 GMT 51.225540 -2.556771 6,025 28 275 -448
2021-07-25 21:25:41 GMT 51.224407 -2.557755 6,025 28 276 -448
2021-07-25 21:25:39 GMT 51.221970 -2.559814 6,025 28 278 -448
2021-07-25 21:25:38 GMT 51.220825 -2.560854 6,050 28 280 -448
2021-07-25 21:25:37 GMT 51.219635 -2.561819 6,050 28 280 -384
2021-07-25 21:25:35 GMT 51.217518 -2.563629 6,075 28 282 -384
2021-07-25 21:25:34 GMT 51.216293 -2.564714 6,075 28 283 -384
2021-07-25 21:25:33 GMT 51.215050 -2.565765 6,075 28 283 -448
2021-07-25 21:25:31 GMT 51.212860 -2.567609 6,100 28 285 -448
2021-07-25 21:25:30 GMT 51.211838 -2.568436 6,100 27 286 -512
2021-07-25 21:25:28 GMT 51.208237 -2.571469 6,125 27 287 -512
2021-07-25 21:25:27 GMT 51.208237 -2.571469 6,125 27 288 -512
2021-07-25 21:25:26 GMT 51.204857 -2.574310 6,150 27 290 -448
2021-07-25 21:25:24 GMT 51.204857 -2.574310 6,150 27 291 -448
2021-07-25 21:25:22 GMT 51.200108 -2.578278 6,175 27 293 -512
2021-07-25 21:25:20 GMT 51.200108 -2.578278 6,200 27 295 -512
2021-07-25 21:25:18 GMT 51.197571 -2.580451 6,200 27 295 -512
2021-07-25 21:25:17 GMT 51.196430 -2.581329 6,225 27 297 -512
2021-07-25 21:25:15 GMT 51.193954 -2.583420 6,225 27 300 -512
2021-07-25 21:25:14 GMT 51.190098 -2.586670 6,250 27 300 -512
2021-07-25 21:25:12 GMT 51.190098 -2.586670 6,250 27 301 -512
2021-07-25 21:25:10 GMT 51.187630 -2.588654 6,275 27 302 -512
2021-07-25 21:25:08 GMT 51.185581 -2.590408 6,275 27 303 -512
2021-07-25 21:25:06 GMT 51.182968 -2.592551 6,300 27 306 -512
2021-07-25 21:25:05 GMT 51.181641 -2.593664 6,325 27 306 -512
2021-07-25 21:25:04 GMT 51.180275 -2.594757 6,325 27 307 -512
2021-07-25 21:25:03 GMT 51.177341 -2.597198 6,325 27 309 -512
2021-07-25 21:25:01 GMT 51.176086 -2.598267 6,350 27 311 -512
2021-07-25 21:25:00 GMT 51.174736 -2.599335 6,350 27 312 -512
2021-07-25 21:24:59 GMT 51.173386 -2.600479 6,375 27 313 -512
2021-07-25 21:24:57 GMT 51.171249 -2.602275 6,375 27 314 -512
2021-07-25 21:24:56 GMT 51.170105 -2.603240 6,375 27 315 -512
2021-07-25 21:24:54 GMT 51.167633 -2.605244 6,400 27 316 -576
2021-07-25 21:24:53 GMT 51.166397 -2.606284 6,400 27 318 -576
2021-07-25 21:24:52 GMT 51.165161 -2.607323 6,425 27 318 -640
2021-07-25 21:24:50 GMT 51.162540 -2.609482 6,450 27 321 -640
2021-07-25 21:24:48 GMT 51.159279 -2.612152 6,450 27 322 -640
2021-07-25 21:24:46 GMT 51.157059 -2.614004 6,475 27 324 -640
2021-07-25 21:24:45 GMT 51.156345 -2.614594 6,500 27 326 -640
2021-07-25 21:24:44 GMT 51.152664 -2.617641 6,500 27 327 -576
2021-07-25 21:24:43 GMT 51.152664 -2.617641 6,525 27 329 -576
2021-07-25 21:24:41 GMT 51.150528 -2.619400 6,525 27 329 -576
2021-07-25 21:24:40 GMT 51.149040 -2.620697 6,550 27 331 -576
2021-07-25 21:24:39 GMT 51.147537 -2.621872 6,550 27 332 -512
2021-07-25 21:24:37 GMT 51.144836 -2.624099 6,575 27 333 -512
2021-07-25 21:24:36 GMT 51.143372 -2.625361 6,575 27 335 -448
2021-07-25 21:24:35 GMT 51.142056 -2.626419 6,575 27 337 -448
2021-07-25 21:24:34 GMT 51.139355 -2.628708 6,600 27 338 -448
2021-07-25 21:24:32 GMT 51.138062 -2.629741 6,625 27 340 -448
2021-07-25 21:24:31 GMT 51.135406 -2.631968 6,625 27 342 -448
2021-07-25 21:24:28 GMT 51.132278 -2.634583 6,650 27 346 -640
2021-07-25 21:24:26 GMT 51.129395 -2.636948 6,675 27 347 -960
2021-07-25 21:24:25 GMT 51.128136 -2.638016 6,675 27 348 -1024
2021-07-25 21:24:23 GMT 51.125336 -2.640356 6,725 27 349 -1408
2021-07-25 21:24:22 GMT 51.123993 -2.641449 6,750 27 350 -1536
2021-07-25 21:24:20 GMT 51.121674 -2.643400 6,775 27 350 -1664
2021-07-25 21:24:19 GMT 51.119339 -2.645340 6,825 27 351 -2112
2021-07-25 21:24:18 GMT 51.117802 -2.646637 6,875 27 350 -2368
2021-07-25 21:24:17 GMT 51.116180 -2.647928 6,950 27 351 -2624
2021-07-25 21:24:15 GMT 51.114120 -2.649709 6,950 27 351 -2624
2021-07-25 21:24:14 GMT 51.112637 -2.650909 7,025 27 351 -2816
2021-07-25 21:24:13 GMT 51.111332 -2.651978 7,100 27 351 -2880
2021-07-25 21:24:11 GMT 51.108444 -2.654312 7,175 27 351 -2816
2021-07-25 21:24:09 GMT 51.105011 -2.657133 7,300 27 351 -2752
2021-07-25 21:24:07 GMT 51.101212 -2.660250 7,375 27 351 -2688
2021-07-25 21:24:06 GMT 51.101212 -2.660250 7,400 27 351 -2688
2021-07-25 21:24:05 GMT 51.099701 -2.661512 7,500 27 351 -2688
2021-07-25 21:24:03 GMT 51.096817 -2.663813 7,550 27 351 -2688
2021-07-25 21:24:02 GMT 51.095364 -2.665024 7,600 27 351 -2688
2021-07-25 21:24:01 GMT 51.093922 -2.666245 7,700 27 351 -2688
2021-07-25 21:23:59 GMT 51.090942 -2.668610 7,725 27 351 -2688
2021-07-25 21:23:57 GMT 51.088989 -2.670272 7,800 27 353 -2688
2021-07-25 21:23:56 GMT 51.086609 -2.672202 7,875 27 353 -2688
2021-07-25 21:23:55 GMT 51.085098 -2.673389 7,925 27 353 -2688
2021-07-25 21:23:54 GMT 51.083633 -2.674637 8,050 27 353 -2688
2021-07-25 21:23:52 GMT 51.080612 -2.677101 8,050 27 353 -2688
2021-07-25 21:23:51 GMT 51.079147 -2.678289 8,125 27 353 -2688
2021-07-25 21:23:50 GMT 51.077766 -2.679443 8,125 27 353 -2688
2021-07-25 21:23:48 GMT 51.073425 -2.683039 8,275 27 353 -2688
2021-07-25 21:23:46 GMT 51.071438 -2.684631 8,325 27 353 -2688
2021-07-25 21:23:44 GMT 51.068504 -2.687073 8,400 27 353 -2688
2021-07-25 21:23:42 GMT 51.065708 -2.689285 8,500 27 354 -2752
2021-07-25 21:23:40 GMT 51.062962 -2.691574 8,600 27 354 -2752
2021-07-25 21:23:38 GMT 51.059738 -2.694174 8,700 26 354 -2752
2021-07-25 21:23:37 GMT 51.058136 -2.695510 8,750 26 354 -2752
2021-07-25 21:23:35 GMT 51.055840 -2.697372 8,825 26 354 -2752
2021-07-25 21:23:33 GMT 51.053001 -2.699661 8,900 26 354 -2752
2021-07-25 21:23:32 GMT 51.050812 -2.701416 8,975 26 355 -2752
2021-07-25 21:23:30 GMT 51.048615 -2.703231 9,075 26 355 -2752
2021-07-25 21:23:28 GMT 51.044037 -2.706868 9,200 26 355 -2752
2021-07-25 21:23:26 GMT 51.042667 -2.707977 9,225 26 355 -2752
2021-07-25 21:23:25 GMT 51.040993 -2.709274 9,300 26 355 -2752
2021-07-25 21:23:24 GMT 51.038242 -2.711487 9,375 26 355 -2752
2021-07-25 21:23:22 GMT 51.036659 -2.712784 9,425 26 355 -2688
2021-07-25 21:23:21 GMT 51.035202 -2.713994 9,475 26 356 -2688
2021-07-25 21:23:20 GMT 51.032272 -2.716295 9,550 26 356 -2688
2021-07-25 21:23:17 GMT 51.028839 -2.719116 9,675 26 356 -2688
2021-07-25 21:23:16 GMT 51.025864 -2.721492 9,750 26 356 -2688
2021-07-25 21:23:14 GMT 51.024536 -2.722605 9,800 26 356 -2688
2021-07-25 21:23:13 GMT 51.022934 -2.723867 9,850 26 356 -2688
2021-07-25 21:23:11 GMT 51.019958 -2.726242 9,950 27 357 -2688
2021-07-25 21:23:09 GMT 51.018414 -2.727509 9,975 27 357 -2688
2021-07-25 21:23:08 GMT 51.016022 -2.729434 10,050 27 357 -2688
2021-07-25 21:23:07 GMT 51.014641 -2.730560 10,100 27 357 -2688
2021-07-25 21:23:05 GMT 51.011616 -2.733002 10,200 27 357 -2688
2021-07-25 21:23:03 GMT 51.008469 -2.735670 10,300 27 358 -2752
2021-07-25 21:23:01 GMT 51.002956 -2.740173 10,475 27 357 -2816
2021-07-25 21:22:59 GMT 51.002956 -2.740173 10,475 27 357 -2752
2021-07-25 21:22:57 GMT 50.998161 -2.744141 10,625 27 357 -2752
2021-07-25 21:22:54 GMT 50.995415 -2.746429 10,700 27 357 -2752
2021-07-25 21:22:51 GMT 50.991089 -2.750015 10,850 27 358 -2752
2021-07-25 21:22:49 GMT 50.988235 -2.752446 10,875 27 358 -2752
2021-07-25 21:22:48 GMT 50.986679 -2.753708 10,975 27 358 -2752
2021-07-25 21:22:47 GMT 50.985260 -2.754896 11,025 28 359 -2752
2021-07-25 21:22:45 GMT 50.982708 -2.757034 11,125 28 358 -2752
2021-07-25 21:22:44 GMT 50.981323 -2.758236 11,150 28 358 -2752
2021-07-25 21:22:42 GMT 50.977707 -2.761280 11,275 28 358 -2752
2021-07-25 21:22:40 GMT 50.975399 -2.763214 11,325 28 358 -2752
2021-07-25 21:22:38 GMT 50.971813 -2.766342 11,525 28 358 -2752
2021-07-25 21:22:36 GMT 50.968689 -2.769000 11,525 28 359 -2688
2021-07-25 21:22:33 GMT 50.964832 -2.772293 11,675 28 359 -2688
2021-07-25 21:22:32 GMT 50.963249 -2.773590 11,700 28 359 -2688
2021-07-25 21:22:30 GMT 50.960632 -2.775904 11,800 28 359 -2688
2021-07-25 21:22:29 GMT 50.959106 -2.777176 11,850 28 359 -2688
2021-07-25 21:22:28 GMT 50.957710 -2.778397 11,875 28 360 -2688
2021-07-25 21:22:26 GMT 50.954216 -2.781448 11,975 28 360 -2688
2021-07-25 21:22:25 GMT 50.953354 -2.782139 12,000 28 360 -2688
2021-07-25 21:22:24 GMT 50.951752 -2.783508 12,050 28 361 -2624
2021-07-25 21:22:22 GMT 50.948593 -2.786296 12,150 28 361 -2624
2021-07-25 21:22:21 GMT 50.947189 -2.787476 12,175 28 361 -2688
2021-07-25 21:22:19 GMT 50.944393 -2.789917 12,250 28 361 -2688
2021-07-25 21:22:18 GMT 50.942764 -2.791367 12,300 28 361 -2688
2021-07-25 21:22:16 GMT 50.939739 -2.793884 12,375 28 362 -2688
2021-07-25 21:22:15 GMT 50.938297 -2.795181 12,525 28 363 -2560
2021-07-25 21:22:13 GMT 50.933922 -2.798996 12,550 28 364 -2240
2021-07-25 21:22:10 GMT 50.930756 -2.801743 12,650 28 364 -2112
2021-07-25 21:22:08 GMT 50.927822 -2.804184 12,700 28 366 -1856
2021-07-25 21:22:07 GMT 50.926334 -2.805481 12,725 28 366 -1728
2021-07-25 21:22:06 GMT 50.923599 -2.807823 12,775 28 366 -1408
2021-07-25 21:22:04 GMT 50.922142 -2.809067 12,800 28 368 -1152
2021-07-25 21:22:02 GMT 50.919067 -2.811683 12,850 27 367 -1088
2021-07-25 21:22:01 GMT 50.917740 -2.812797 12,850 27 368 -1024
2021-07-25 21:22:00 GMT 50.916000 -2.814282 12,875 27 368 -960
2021-07-25 21:21:59 GMT 50.914509 -2.815475 12,900 27 368 -960
2021-07-25 21:21:56 GMT 50.909855 -2.819290 12,950 26 368 -960
2021-07-25 21:21:55 GMT 50.908363 -2.820511 12,950 26 368 -960
2021-07-25 21:21:52 GMT 50.904079 -2.823868 13,000 26 368 -896
2021-07-25 21:21:51 GMT 50.902683 -2.824936 13,025 26 369 -896
2021-07-25 21:21:49 GMT 50.899521 -2.827377 13,050 25 368 -896
2021-07-25 21:21:48 GMT 50.897964 -2.828608 13,075 25 369 -896
2021-07-25 21:21:47 GMT 50.896362 -2.829870 13,075 25 369 -832
2021-07-25 21:21:46 GMT 50.892975 -2.832394 13,100 25 370 -832
2021-07-25 21:21:44 GMT 50.891510 -2.833582 13,125 25 370 -832
2021-07-25 21:21:43 GMT 50.890022 -2.834702 13,150 25 370 -896
2021-07-25 21:21:42 GMT 50.886856 -2.837143 13,175 26 371 -896
2021-07-25 21:21:39 GMT 50.883957 -2.839372 13,200 26 371 -896
2021-07-25 21:21:37 GMT 50.880615 -2.841970 13,225 26 372 -896
2021-07-25 21:21:35 GMT 50.877686 -2.844162 13,250 26 372 -960
2021-07-25 21:21:33 GMT 50.874527 -2.846647 13,300 26 374 -1152
2021-07-25 21:21:32 GMT 50.873062 -2.847760 13,300 26 375 -1408
2021-07-25 21:21:31 GMT 50.871689 -2.848874 13,325 26 375 -1408
2021-07-25 21:21:28 GMT 50.866882 -2.852585 13,425 26 375 -1984
2021-07-25 21:21:26 GMT 50.863579 -2.855148 13,475 26 377 -2368
2021-07-25 21:21:25 GMT 50.861996 -2.856369 13,525 26 377 -2496
2021-07-25 21:21:24 GMT 50.858688 -2.858969 13,625 26 377 -2880
2021-07-25 21:21:22 GMT 50.857342 -2.860031 13,675 26 377 -2944
2021-07-25 21:21:21 GMT 50.854431 -2.862310 13,775 26 376 -3200
2021-07-25 21:21:18 GMT 50.851135 -2.864908 13,825 26 376 -3328
2021-07-25 21:21:17 GMT 50.849716 -2.866021 13,975 26 376 -3392
2021-07-25 21:21:16 GMT 50.846588 -2.868500 14,050 26 375 -3456
2021-07-25 21:21:14 GMT 50.845146 -2.869568 14,100 26 375 -3520
2021-07-25 21:21:13 GMT 50.843628 -2.870772 14,175 26 375 -3584
2021-07-25 21:21:12 GMT 50.841888 -2.872162 14,225 26 375 -3584
2021-07-25 21:21:10 GMT 50.838547 -2.874781 14,375 26 374 -3584
2021-07-25 21:21:09 GMT 50.836990 -2.876043 14,475 26 375 -3456
2021-07-25 21:21:07 GMT 50.830994 -2.880783 14,600 26 375 -3136
2021-07-25 21:21:05 GMT 50.830994 -2.880783 14,625 26 375 -3072
2021-07-25 21:21:02 GMT 50.827103 -2.883911 14,750 26 375 -2944
2021-07-25 21:21:01 GMT 50.824989 -2.885590 14,800 26 374 -3008
2021-07-25 21:20:59 GMT 50.820427 -2.889175 15,000 25 374 -3712
2021-07-25 21:20:57 GMT 50.818909 -2.890369 15,175 25 374 -3904
2021-07-25 21:20:55 GMT 50.815384 -2.893042 15,175 25 374 -3904
2021-07-25 21:20:54 GMT 50.813675 -2.894287 15,275 24 375 -3776
2021-07-25 21:20:53 GMT 50.812794 -2.894897 15,300 24 375 -3648
2021-07-25 21:20:52 GMT 50.811081 -2.896085 15,375 23 376 -3520
2021-07-25 21:20:50 GMT 50.807922 -2.898312 15,500 23 376 -3264
2021-07-25 21:20:49 GMT 50.806274 -2.899426 15,550 23 377 -3072
2021-07-25 21:20:48 GMT 50.803154 -2.901611 15,650 23 378 -2944
2021-07-25 21:20:46 GMT 50.800922 -2.903137 15,700 23 379 -2880
2021-07-25 21:20:45 GMT 50.799385 -2.904205 15,750 23 379 -2880
2021-07-25 21:20:44 GMT 50.796497 -2.906189 15,850 23 380 -2816
2021-07-25 21:20:42 GMT 50.794968 -2.907220 15,900 23 381 -2816
2021-07-25 21:20:41 GMT 50.793365 -2.908333 15,925 23 382 -2880
2021-07-25 21:20:40 GMT 50.788376 -2.911748 16,050 23 383 -2944
2021-07-25 21:20:38 GMT 50.788376 -2.911748 16,100 23 384 -3008
2021-07-25 21:20:36 GMT 50.785080 -2.914049 16,150 23 384 -3136
2021-07-25 21:20:35 GMT 50.783249 -2.915237 16,250 23 384 -3264
2021-07-25 21:20:33 GMT 50.776669 -2.919693 16,425 22 386 -3328
2021-07-25 21:20:31 GMT 50.776669 -2.919693 16,475 22 387 -3264
2021-07-25 21:20:30 GMT 50.771530 -2.923106 16,600 22 388 -2752
2021-07-25 21:20:28 GMT 50.771530 -2.923106 16,625 22 388 -2752
2021-07-25 21:20:27 GMT 50.769825 -2.924271 16,675 22 389 -2688
2021-07-25 21:20:26 GMT 50.768967 -2.924813 16,700 22 389 -2560
2021-07-25 21:20:23 GMT 50.763958 -2.928162 16,825 22 390 -2624
2021-07-25 21:20:21 GMT 50.760635 -2.930306 16,925 22 390 -2688
2021-07-25 21:20:20 GMT 50.758930 -2.931442 16,975 22 390 -2688
2021-07-25 21:20:18 GMT 50.752167 -2.935948 17,125 22 391 -2688
2021-07-25 21:20:16 GMT 50.752167 -2.935948 17,150 22 392 -2688
2021-07-25 21:20:14 GMT 50.748276 -2.938546 17,200 22 392 -2688
2021-07-25 21:20:13 GMT 50.746582 -2.939659 17,300 23 392 -2624
2021-07-25 21:20:11 GMT 50.743893 -2.941437 17,400 23 393 -2432
2021-07-25 21:20:10 GMT 50.740402 -2.943816 17,475 23 395 -2112
2021-07-25 21:20:08 GMT 50.738800 -2.944930 17,475 23 395 -2048
2021-07-25 21:20:06 GMT 50.735516 -2.947159 17,550 23 396 -1984
2021-07-25 21:20:03 GMT 50.730560 -2.950497 17,650 23 397 -2240
2021-07-25 21:20:02 GMT 50.727264 -2.952724 17,700 23 398 -2368
2021-07-25 21:20:00 GMT 50.725571 -2.953912 17,775 22 399 -2496
2021-07-25 21:19:59 GMT 50.723923 -2.954951 17,800 22 399 -2560
2021-07-25 21:19:58 GMT 50.719803 -2.957698 17,925 22 400 -2624
2021-07-25 21:19:56 GMT 50.718243 -2.958755 17,950 22 400 -2624
2021-07-25 21:19:54 GMT 50.714706 -2.961121 18,050 22 401 -2560
2021-07-25 21:19:53 GMT 50.713032 -2.962189 18,100 22 401 -2560
2021-07-25 21:19:52 GMT 50.711197 -2.963414 18,125 22 402 -2560
2021-07-25 21:19:50 GMT 50.708405 -2.965344 18,200 22 402 -2624
2021-07-25 21:19:48 GMT 50.704792 -2.967682 18,275 22 402 -2624
2021-07-25 21:19:47 GMT 50.703186 -2.968758 18,325 22 403 -2624
2021-07-25 21:19:45 GMT 50.699715 -2.971039 18,450 22 403 -2560
2021-07-25 21:19:43 GMT 50.696045 -2.973509 18,525 22 405 -2496
2021-07-25 21:19:42 GMT 50.694351 -2.974623 18,550 22 406 -2432
2021-07-25 21:19:41 GMT 50.692703 -2.975736 18,625 22 406 -2432
2021-07-25 21:19:40 GMT 50.689198 -2.978058 18,625 22 406 -2368
2021-07-25 21:19:38 GMT 50.687382 -2.979279 18,725 22 407 -2304
2021-07-25 21:19:37 GMT 50.685608 -2.980487 18,750 22 408 -2304
2021-07-25 21:19:34 GMT 50.680801 -2.983605 18,850 22 409 -2432
2021-07-25 21:19:33 GMT 50.679108 -2.984792 18,900 22 410 -2496
2021-07-25 21:19:31 GMT 50.675510 -2.987137 19,000 22 410 -2752
2021-07-25 21:19:30 GMT 50.673832 -2.988281 19,050 23 410 -2816
2021-07-25 21:19:29 GMT 50.668671 -2.991751 19,125 23 410 -3008
2021-07-25 21:19:27 GMT 50.668671 -2.991751 19,200 23 410 -3200
2021-07-25 21:19:26 GMT 50.666794 -2.992979 19,250 23 410 -3328
2021-07-25 21:19:24 GMT 50.663223 -2.995365 19,350 23 410 -3456
2021-07-25 21:19:23 GMT 50.661449 -2.996595 19,450 23 410 -3456
2021-07-25 21:19:21 GMT 50.658005 -2.998896 19,500 23 411 -3392
2021-07-25 21:19:19 GMT 50.652283 -3.002737 19,675 23 413 -3008
2021-07-25 21:19:17 GMT 50.650635 -3.003821 19,700 23 413 -2816
2021-07-25 21:19:16 GMT 50.648941 -3.004978 19,750 23 414 -2560
2021-07-25 21:19:13 GMT 50.643906 -3.008375 19,850 23 416 -1664
2021-07-25 21:19:11 GMT 50.640549 -3.010625 19,900 23 418 -1216
2021-07-25 21:19:10 GMT 50.638824 -3.011739 19,900 23 420 -1152
2021-07-25 21:19:09 GMT 50.633148 -3.015599 19,950 23 422 -832
2021-07-25 21:19:07 GMT 50.633148 -3.015599 19,950 23 423 -576
2021-07-25 21:19:05 GMT 50.627605 -3.019384 20,000 23 424 -192
2021-07-25 21:19:02 GMT 50.620560 -3.024059 20,000 23 424 -64
2021-07-25 21:19:00 GMT 50.620560 -3.024059 20,000 23 424 0
2021-07-25 21:18:59 GMT 50.618668 -3.025397 20,000 23 424 0
2021-07-25 21:18:56 GMT 50.614288 -3.028324 20,000 23 424 0
2021-07-25 21:18:55 GMT 50.611313 -3.030347 20,000 23 424 0
2021-07-25 21:18:54 GMT 50.605957 -3.033889 20,000 23 424 0
2021-07-25 21:18:52 GMT 50.605957 -3.033889 20,000 23 424 0
2021-07-25 21:18:51 GMT 50.604172 -3.035118 20,000 23 424 0
2021-07-25 21:18:50 GMT 50.600792 -3.037349 20,000 23 424 0
2021-07-25 21:18:48 GMT 50.599228 -3.038443 20,000 23 424 0
2021-07-25 21:18:46 GMT 50.595291 -3.041117 20,000 23 424 0
2021-07-25 21:18:45 GMT 50.593578 -3.042248 20,000 23 423 0
2021-07-25 21:18:43 GMT 50.586044 -3.047260 20,000 23 422 -64
2021-07-25 21:18:41 GMT 50.586044 -3.047260 20,000 23 422 -64
2021-07-25 21:18:39 GMT 50.582962 -3.049374 20,000 23 422 -64
2021-07-25 21:18:37 GMT 50.575287 -3.054488 20,000 23 422 -64
2021-07-25 21:18:35 GMT 50.575287 -3.054488 20,000 23 422 -64
2021-07-25 21:18:33 GMT 50.571419 -3.057094 20,000 23 422 -64
2021-07-25 21:18:31 GMT 50.568558 -3.059042 20,000 23 422 -64
2021-07-25 21:18:29 GMT 50.564949 -3.061474 20,000 23 422 0
2021-07-25 21:18:28 GMT 50.562946 -3.062810 20,000 23 422 0
2021-07-25 21:18:26 GMT 50.559082 -3.065408 20,000 23 422 0
2021-07-25 21:18:24 GMT 50.556290 -3.067264 20,000 23 422 64
2021-07-25 21:18:23 GMT 50.551987 -3.070173 20,000 23 422 0
2021-07-25 21:18:21 GMT 50.550110 -3.071401 20,000 23 422 0
2021-07-25 21:18:19 GMT 50.543289 -3.076027 20,000 23 422 0
2021-07-25 21:18:17 GMT 50.543289 -3.076027 20,000 23 422 0
2021-07-25 21:18:16 GMT 50.541550 -3.077184 20,000 23 421 0
2021-07-25 21:18:14 GMT 50.537807 -3.079661 20,000 23 421 0
2021-07-25 21:18:12 GMT 50.532486 -3.083255 20,000 23 418 0
2021-07-25 21:18:10 GMT 50.530426 -3.084701 20,000 23 418 0
2021-07-25 21:18:09 GMT 50.528496 -3.085970 20,000 23 418 0
2021-07-25 21:18:08 GMT 50.525162 -3.088170 20,025 23 417 0
2021-07-25 21:18:06 GMT 50.523605 -3.089254 20,000 23 416 0
2021-07-25 21:18:04 GMT 50.520081 -3.091639 20,025 23 416 0
2021-07-25 21:18:02 GMT 50.516163 -3.094284 20,025 23 414 0
2021-07-25 21:18:01 GMT 50.514587 -3.095326 20,025 23 413 0
2021-07-25 21:17:59 GMT 50.511600 -3.097328 20,025 23 413 64
2021-07-25 21:17:57 GMT 50.507904 -3.099807 20,000 23 411 64
2021-07-25 21:17:54 GMT 50.502640 -3.103349 20,000 23 409 64
2021-07-25 21:17:52 GMT 50.499264 -3.105568 20,000 23 409 0
2021-07-25 21:17:51 GMT 50.497448 -3.106830 20,000 23 409 0
2021-07-25 21:17:50 GMT 50.495361 -3.108191 20,000 23 409 0
2021-07-25 21:17:49 GMT 50.489906 -3.111877 20,000 23 409 0
2021-07-25 21:17:47 GMT 50.489906 -3.111877 20,000 23 409 0
2021-07-25 21:17:45 GMT 50.486507 -3.114104 20,000 23 409 0
2021-07-25 21:17:44 GMT 50.481853 -3.117222 20,000 23 409 0
2021-07-25 21:17:42 GMT 50.481853 -3.117222 20,000 23 409 0
2021-07-25 21:17:41 GMT 50.480083 -3.118410 20,000 23 409 0
2021-07-25 21:17:40 GMT 50.478470 -3.119539 20,000 23 409 0
2021-07-25 21:17:37 GMT 50.472839 -3.123297 20,000 23 409 0
2021-07-25 21:17:36 GMT 50.467850 -3.126622 20,000 23 409 0
2021-07-25 21:17:34 GMT 50.467850 -3.126622 20,000 23 408 0
2021-07-25 21:17:32 GMT 50.464394 -3.128951 20,000 23 408 0
2021-07-25 21:17:30 GMT 50.460903 -3.131252 20,000 23 408 0
2021-07-25 21:17:29 GMT 50.459198 -3.132405 20,000 23 408 0
2021-07-25 21:17:26 GMT 50.454437 -3.135585 20,000 23 408 0
2021-07-25 21:17:25 GMT 50.451920 -3.137265 20,000 23 408 0
2021-07-25 21:17:24 GMT 50.446705 -3.140754 20,000 23 408 0
2021-07-25 21:17:22 GMT 50.446705 -3.140754 20,000 23 408 0
2021-07-25 21:17:21 GMT 50.444981 -3.141867 20,000 23 408 0
2021-07-25 21:17:19 GMT 50.441528 -3.144186 20,000 23 408 0
2021-07-25 21:17:17 GMT 50.434433 -3.148956 20,000 23 407 0
2021-07-25 21:17:15 GMT 50.434433 -3.148956 20,000 23 407 0
2021-07-25 21:17:13 GMT 50.431961 -3.150619 20,000 23 408 0
2021-07-25 21:17:11 GMT 50.428391 -3.152932 20,000 23 408 0
2021-07-25 21:17:10 GMT 50.425941 -3.154635 20,000 23 408 0
2021-07-25 21:17:08 GMT 50.421844 -3.157382 20,000 23 408 0
2021-07-25 21:17:07 GMT 50.420151 -3.158497 20,000 23 408 0
2021-07-25 21:17:05 GMT 50.417377 -3.160351 20,000 23 408 0
2021-07-25 21:17:03 GMT 50.413837 -3.162726 20,000 23 408 0
2021-07-25 21:17:01 GMT 50.410355 -3.165074 20,000 23 408 0
2021-07-25 21:17:00 GMT 50.408432 -3.166375 20,000 23 408 0
2021-07-25 21:16:59 GMT 50.406624 -3.167551 20,000 23 408 0
2021-07-25 21:16:58 GMT 50.401642 -3.170966 20,000 23 407 -64
2021-07-25 21:16:56 GMT 50.401642 -3.170966 20,000 23 407 -64
2021-07-25 21:16:55 GMT 50.398132 -3.173314 20,000 23 407 -64
2021-07-25 21:16:53 GMT 50.396439 -3.174471 20,000 23 407 -64
2021-07-25 21:16:52 GMT 50.394653 -3.175627 20,000 23 407 -64
2021-07-25 21:16:50 GMT 50.391262 -3.177944 20,000 23 407 0
2021-07-25 21:16:48 GMT 50.386093 -3.181482 20,000 23 407 0
2021-07-25 21:16:46 GMT 50.384537 -3.182494 20,000 23 407 0
2021-07-25 21:16:45 GMT 50.382744 -3.183734 20,000 23 407 0
2021-07-25 21:16:44 GMT 50.379391 -3.186035 20,000 23 407 0
2021-07-25 21:16:42 GMT 50.377716 -3.187119 20,000 23 407 0
2021-07-25 21:16:41 GMT 50.375885 -3.188348 20,000 23 407 0
2021-07-25 21:16:38 GMT 50.370827 -3.191751 20,000 23 407 0
2021-07-25 21:16:36 GMT 50.367279 -3.194130 20,000 23 407 0
2021-07-25 21:16:35 GMT 50.365612 -3.195314 20,000 23 406 0
2021-07-25 21:16:33 GMT 50.362259 -3.197541 20,000 23 406 0
2021-07-25 21:16:31 GMT 50.359497 -3.199407 20,000 23 406 0
2021-07-25 21:16:30 GMT 50.357838 -3.200510 20,000 23 406 0
2021-07-25 21:16:29 GMT 50.355183 -3.202292 20,000 23 406 0
2021-07-25 21:16:28 GMT 50.353546 -3.203382 20,000 23 406 0
2021-07-25 21:16:26 GMT 50.348248 -3.206969 20,000 23 406 0
2021-07-25 21:16:24 GMT 50.346432 -3.208231 20,000 23 406 0
2021-07-25 21:16:22 GMT 50.343639 -3.210086 20,000 23 406 0
2021-07-25 21:16:20 GMT 50.339355 -3.212923 20,000 23 406 0
2021-07-25 21:16:18 GMT 50.336002 -3.215208 20,000 23 406 0
2021-07-25 21:16:17 GMT 50.334419 -3.216322 20,000 23 406 0
2021-07-25 21:16:15 GMT 50.331024 -3.218623 20,000 23 405 0
2021-07-25 21:16:12 GMT 50.326263 -3.221813 20,000 23 405 0
2021-07-25 21:16:11 GMT 50.324368 -3.223077 20,000 23 405 0
2021-07-25 21:16:08 GMT 50.318966 -3.226788 20,000 23 405 0
2021-07-25 21:16:07 GMT 50.317009 -3.228050 20,000 23 405 0
2021-07-25 21:16:05 GMT 50.313629 -3.230342 20,000 23 405 0
2021-07-25 21:16:04 GMT 50.311935 -3.231539 20,000 23 405 0
2021-07-25 21:16:03 GMT 50.307793 -3.234286 20,000 23 405 0
2021-07-25 21:16:00 GMT 50.303326 -3.237329 20,000 23 405 0
2021-07-25 21:15:59 GMT 50.303326 -3.237329 20,000 23 405 0
2021-07-25 21:15:58 GMT 50.301773 -3.238365 20,000 23 405 0
2021-07-25 21:15:56 GMT 50.298485 -3.240596 20,000 23 405 0
2021-07-25 21:15:55 GMT 50.296509 -3.241906 20,000 23 405 0
2021-07-25 21:15:53 GMT 50.293076 -3.244292 20,000 23 405 0
2021-07-25 21:15:52 GMT 50.291546 -3.245272 20,000 23 405 0
2021-07-25 21:15:50 GMT 50.289093 -3.246966 20,000 23 405 0
2021-07-25 21:15:49 GMT 50.287399 -3.248122 20,000 23 405 0
2021-07-25 21:15:48 GMT 50.284744 -3.249929 20,000 23 405 0
2021-07-25 21:15:47 GMT 50.283188 -3.250941 20,000 23 405 0
2021-07-25 21:15:45 GMT 50.279118 -3.253735 20,000 23 405 0
2021-07-25 21:15:43 GMT 50.277161 -3.255071 20,000 23 405 0
2021-07-25 21:15:42 GMT 50.275345 -3.256259 20,000 23 405 0
2021-07-25 21:15:40 GMT 50.271015 -3.259228 20,000 23 405 0
2021-07-25 21:15:38 GMT 50.267349 -3.261711 20,000 23 404 0
2021-07-25 21:15:36 GMT 50.263962 -3.263951 20,000 23 404 0
2021-07-25 21:15:35 GMT 50.259426 -3.267022 20,000 23 404 0
2021-07-25 21:15:32 GMT 50.255188 -3.269917 20,000 23 404 0
2021-07-25 21:15:29 GMT 50.252117 -3.271996 20,000 23 404 0
2021-07-25 21:15:26 GMT 50.247620 -3.275082 20,000 23 404 0
2021-07-25 21:15:25 GMT 50.244900 -3.276895 20,000 23 404 0
2021-07-25 21:15:23 GMT 50.241505 -3.279196 20,000 23 404 0
2021-07-25 21:15:21 GMT 50.238693 -3.281081 20,000 23 404 0
2021-07-25 21:15:20 GMT 50.233028 -3.284912 20,000 23 404 0
2021-07-25 21:15:18 GMT 50.233028 -3.284912 20,000 23 404 0
2021-07-25 21:15:16 GMT 50.230145 -3.286842 20,000 23 404 0
2021-07-25 21:15:15 GMT 50.227798 -3.288454 20,000 23 404 0
2021-07-25 21:15:14 GMT 50.223083 -3.291634 20,000 23 404 0
2021-07-25 21:15:12 GMT 50.223083 -3.291634 20,000 23 404 0
2021-07-25 21:15:11 GMT 50.221436 -3.292718 20,000 23 404 0
2021-07-25 21:15:09 GMT 50.218086 -3.295008 20,000 23 404 0
2021-07-25 21:15:08 GMT 50.216412 -3.296121 20,000 23 404 0
2021-07-25 21:15:07 GMT 50.214733 -3.297235 20,000 23 404 0
2021-07-25 21:15:05 GMT 50.210678 -3.300018 20,000 23 404 0
2021-07-25 21:15:04 GMT 50.208984 -3.301175 20,000 23 404 0
2021-07-25 21:15:02 GMT 50.204212 -3.304361 20,000 23 404 0
2021-07-25 21:15:01 GMT 50.204212 -3.304361 20,000 23 404 0
2021-07-25 21:15:00 GMT 50.202400 -3.305623 20,000 23 404 0
2021-07-25 21:14:58 GMT 50.198673 -3.308147 20,000 23 404 0
2021-07-25 21:14:57 GMT 50.197174 -3.309198 20,000 23 404 0
2021-07-25 21:14:56 GMT 50.195511 -3.310299 20,000 23 404 0
2021-07-25 21:14:53 GMT 50.190399 -3.313823 20,000 23 404 0
2021-07-25 21:14:51 GMT 50.188061 -3.315421 20,000 23 404 0
2021-07-25 21:14:50 GMT 50.185547 -3.317129 20,000 23 404 0
2021-07-25 21:14:48 GMT 50.178360 -3.321991 20,000 23 404 0
2021-07-25 21:14:46 GMT 50.178360 -3.321991 20,000 23 404 0
2021-07-25 21:14:44 GMT 50.174839 -3.324404 20,000 23 404 0
2021-07-25 21:14:43 GMT 50.173279 -3.325460 20,000 23 404 0
2021-07-25 21:14:42 GMT 50.171627 -3.326630 20,000 23 404 0
2021-07-25 21:14:40 GMT 50.167995 -3.329080 20,000 23 404 0
2021-07-25 21:14:38 GMT 50.164318 -3.331530 20,000 23 404 0
2021-07-25 21:14:35 GMT 50.159897 -3.334573 20,000 23 404 64
2021-07-25 21:14:34 GMT 50.155975 -3.337242 20,000 23 404 64
2021-07-25 21:14:32 GMT 50.154053 -3.338543 20,000 23 404 64
2021-07-25 21:14:30 GMT 50.151379 -3.340363 20,000 23 405 64
2021-07-25 21:14:29 GMT 50.149654 -3.341477 20,000 23 406 64
2021-07-25 21:14:28 GMT 50.146023 -3.344001 20,000 23 406 64
2021-07-25 21:14:26 GMT 50.144257 -3.345192 20,000 23 406 0
2021-07-25 21:14:25 GMT 50.142471 -3.346421 20,000 23 406 0
2021-07-25 21:14:23 GMT 50.138901 -3.348826 20,000 23 406 0
2021-07-25 21:14:22 GMT 50.137085 -3.350088 20,000 23 406 0
2021-07-25 21:14:21 GMT 50.133690 -3.352389 20,000 23 406 0
2021-07-25 21:14:19 GMT 50.131943 -3.353577 20,000 23 406 0
2021-07-25 21:14:18 GMT 50.130020 -3.354878 20,000 23 406 0
2021-07-25 21:14:16 GMT 50.126495 -3.357263 20,000 23 406 0
2021-07-25 21:14:15 GMT 50.125534 -3.357986 20,000 23 406 0
2021-07-25 21:14:14 GMT 50.123306 -3.359515 20,000 23 406 0
2021-07-25 21:14:12 GMT 50.120514 -3.361371 20,000 23 406 0
2021-07-25 21:14:11 GMT 50.118622 -3.362684 20,000 23 406 0
2021-07-25 21:14:10 GMT 50.116882 -3.363895 20,000 23 406 64
2021-07-25 21:14:09 GMT 50.115067 -3.365083 20,000 23 406 64
2021-07-25 21:14:07 GMT 50.111576 -3.367458 20,000 23 406 64
2021-07-25 21:14:06 GMT 50.108459 -3.369622 20,000 23 407 64
2021-07-25 21:14:04 GMT 50.106857 -3.370707 20,000 23 407 64
2021-07-25 21:14:03 GMT 50.104965 -3.371986 20,000 23 407 0
2021-07-25 21:14:02 GMT 50.103241 -3.373164 20,000 23 407 -64
2021-07-25 21:14:00 GMT 50.099945 -3.375405 20,000 23 407 -192
2021-07-25 21:13:59 GMT 50.098076 -3.376737 20,000 23 407 -512
2021-07-25 21:13:58 GMT 50.096447 -3.377851 20,025 23 407 -640
2021-07-25 21:13:56 GMT 50.092815 -3.380300 20,025 23 407 -832
2021-07-25 21:13:55 GMT 50.090904 -3.381636 20,050 23 407 -960
2021-07-25 21:13:52 GMT 50.085693 -3.385199 20,100 23 408 -1024
2021-07-25 21:13:50 GMT 50.082386 -3.387426 20,125 23 408 -1024
2021-07-25 21:13:48 GMT 50.078941 -3.389802 20,175 23 408 -1024
2021-07-25 21:13:47 GMT 50.077377 -3.390872 20,175 23 408 -1024
2021-07-25 21:13:45 GMT 50.073215 -3.393736 20,225 23 408 -1024
2021-07-25 21:13:43 GMT 50.070423 -3.395666 20,250 23 408 -1024
2021-07-25 21:13:41 GMT 50.066757 -3.398172 20,275 23 408 -1024
2021-07-25 21:13:40 GMT 50.064789 -3.399526 20,300 23 408 -1024
2021-07-25 21:13:38 GMT 50.061172 -3.402003 20,325 23 409 -1024
2021-07-25 21:13:37 GMT 50.059669 -3.403015 20,350 23 409 -1024
2021-07-25 21:13:36 GMT 50.057648 -3.404388 20,400 23 409 -1024
2021-07-25 21:13:34 GMT 50.054352 -3.406629 20,400 23 410 -1024
2021-07-25 21:13:32 GMT 50.048859 -3.410388 20,475 23 410 -1024
2021-07-25 21:13:30 GMT 50.047195 -3.411552 20,475 23 410 -1024
2021-07-25 21:13:28 GMT 50.041534 -3.415375 20,525 23 411 -1024
2021-07-25 21:13:25 GMT 50.035416 -3.419495 20,575 23 411 -1024
2021-07-25 21:13:23 GMT 50.035416 -3.419495 20,600 23 411 -960
2021-07-25 21:13:21 GMT 50.031555 -3.422169 20,625 23 411 -960
2021-07-25 21:13:19 GMT 50.028294 -3.424320 20,650 23 412 -960
2021-07-25 21:13:18 GMT 50.026657 -3.425421 20,675 23 412 -960
2021-07-25 21:13:17 GMT 50.022800 -3.428106 20,700 23 412 -960
2021-07-25 21:13:15 GMT 50.021118 -3.429180 20,725 23 412 -960
2021-07-25 21:13:14 GMT 50.019260 -3.430481 20,750 23 412 -960
2021-07-25 21:13:12 GMT 50.015900 -3.432722 20,775 23 412 -960
2021-07-25 21:13:11 GMT 50.014187 -3.433896 20,800 23 412 -1024
2021-07-25 21:13:10 GMT 50.012604 -3.434962 20,800 23 413 -1024
2021-07-25 21:13:08 GMT 50.009254 -3.437236 20,850 23 413 -1088
2021-07-25 21:13:07 GMT 50.007393 -3.438498 20,875 23 413 -1216
2021-07-25 21:13:06 GMT 50.005810 -3.439537 20,875 23 413 -1280
2021-07-25 21:13:03 GMT 50.001114 -3.442768 20,950 23 413 -1408
2021-07-25 21:13:02 GMT 49.999466 -3.443852 20,950 23 413 -1472
2021-07-25 21:13:01 GMT 49.996857 -3.445587 21,000 23 413 -1472
2021-07-25 21:13:00 GMT 49.995193 -3.446738 21,025 23 414 -1472
2021-07-25 21:12:58 GMT 49.992496 -3.448519 21,050 23 414 -1472
2021-07-25 21:12:57 GMT 49.988167 -3.451489 21,125 23 413 -1536
2021-07-25 21:12:54 GMT 49.985275 -3.453393 21,175 23 413 -1536
2021-07-25 21:12:53 GMT 49.980995 -3.456239 21,225 23 414 -1536
2021-07-25 21:12:51 GMT 49.979134 -3.457501 21,250 23 414 -1536
2021-07-25 21:12:50 GMT 49.977310 -3.458742 21,275 23 414 -1536
2021-07-25 21:12:48 GMT 49.973648 -3.461199 21,325 23 414 -1536
2021-07-25 21:12:47 GMT 49.971920 -3.462326 21,350 23 414 -1536
2021-07-25 21:12:46 GMT 49.968384 -3.464669 21,400 23 414 -1536
2021-07-25 21:12:44 GMT 49.965588 -3.466558 21,450 23 414 -1536
2021-07-25 21:12:41 GMT 49.961060 -3.469584 21,500 23 415 -1536
2021-07-25 21:12:40 GMT 49.958000 -3.471605 21,550 23 415 -1536
2021-07-25 21:12:38 GMT 49.956390 -3.472692 21,575 23 415 -1536
2021-07-25 21:12:36 GMT 49.952831 -3.475020 21,625 23 415 -1536
2021-07-25 21:12:35 GMT 49.951061 -3.476208 21,650 23 415 -1536
2021-07-25 21:12:33 GMT 49.943474 -3.481256 21,725 23 415 -1536
2021-07-25 21:12:31 GMT 49.943474 -3.481256 21,750 23 415 -1472
2021-07-25 21:12:30 GMT 49.941845 -3.482295 21,800 23 416 -1472
2021-07-25 21:12:28 GMT 49.939087 -3.484184 21,825 23 416 -1472
2021-07-25 21:12:26 GMT 49.934784 -3.487003 21,875 23 416 -1472
2021-07-25 21:12:25 GMT 49.931278 -3.489347 21,925 23 416 -1472
2021-07-25 21:12:23 GMT 49.929611 -3.490472 21,950 23 417 -1472
2021-07-25 21:12:22 GMT 49.927414 -3.491945 21,975 23 417 -1472
2021-07-25 21:12:21 GMT 49.924065 -3.494172 22,025 23 417 -1472
2021-07-25 21:12:19 GMT 49.922153 -3.495360 22,050 23 417 -1472
2021-07-25 21:12:18 GMT 49.920525 -3.496473 22,075 23 417 -1472
2021-07-25 21:12:17 GMT 49.917343 -3.498567 22,125 23 418 -1472
2021-07-25 21:12:15 GMT 49.915684 -3.499739 22,150 23 418 -1472
2021-07-25 21:12:14 GMT 49.913681 -3.501001 22,175 23 418 -1472
2021-07-25 21:12:13 GMT 49.912006 -3.502115 22,200 23 418 -1472
2021-07-25 21:12:11 GMT 49.908188 -3.504639 22,250 23 419 -1472
2021-07-25 21:12:10 GMT 49.904800 -3.506879 22,275 22 419 -1472
2021-07-25 21:12:07 GMT 49.901344 -3.509167 22,350 21 419 -1472
2021-07-25 21:12:05 GMT 49.897842 -3.511288 22,375 20 419 -1536
2021-07-25 21:12:03 GMT 49.894409 -3.513312 22,425 19 419 -1600
2021-07-25 21:12:01 GMT 49.890518 -3.515408 22,500 16 419 -1536
2021-07-25 21:12:00 GMT 49.888542 -3.516367 22,525 15 419 -1536
2021-07-25 21:11:58 GMT 49.883560 -3.518372 22,600 11 418 -1536
2021-07-25 21:11:56 GMT 49.881470 -3.519114 22,625 10 419 -1600
2021-07-25 21:11:54 GMT 49.878258 -3.520005 22,675 8 418 -1536
2021-07-25 21:11:53 GMT 49.876236 -3.520468 22,700 7 418 -1536
2021-07-25 21:11:50 GMT 49.866013 -3.522009 22,825 2 418 -1472
2021-07-25 21:11:48 GMT 49.866013 -3.522009 22,825 2 418 -1472
2021-07-25 21:11:46 GMT 49.863266 -3.522232 22,850 2 418 -1472
2021-07-25 21:11:45 GMT 49.858017 -3.522564 22,925 2 418 -1472
2021-07-25 21:11:44 GMT 49.858017 -3.522564 22,925 2 418 -1472
2021-07-25 21:11:43 GMT 49.856098 -3.522677 22,950 2 418 -1472
2021-07-25 21:11:41 GMT 49.852558 -3.522900 23,000 2 418 -1472
2021-07-25 21:11:40 GMT 49.848679 -3.523142 23,050 2 419 -1472
2021-07-25 21:11:38 GMT 49.846619 -3.523287 23,075 2 419 -1472
2021-07-25 21:11:36 GMT 49.841034 -3.523576 23,150 2 419 -1472
2021-07-25 21:11:33 GMT 49.838081 -3.523791 23,200 2 419 -1472
2021-07-25 21:11:32 GMT 49.832912 -3.524087 23,250 2 419 -1472
2021-07-25 21:11:29 GMT 49.829041 -3.524298 23,300 2 419 -1472
2021-07-25 21:11:28 GMT 49.825562 -3.524515 23,350 2 419 -1472
2021-07-25 21:11:26 GMT 49.822811 -3.524681 23,400 2 420 -1472
2021-07-25 21:11:25 GMT 49.821259 -3.524804 23,400 2 420 -1472
2021-07-25 21:11:24 GMT 49.817459 -3.524978 23,450 2 420 -1472
2021-07-25 21:11:22 GMT 49.815720 -3.525093 23,475 2 420 -1472
2021-07-25 21:11:21 GMT 49.809998 -3.525455 23,550 2 420 -1472
2021-07-25 21:11:19 GMT 49.809998 -3.525455 23,550 2 421 -1472
2021-07-25 21:11:18 GMT 49.808056 -3.525572 23,575 2 421 -1472
2021-07-25 21:11:16 GMT 49.804047 -3.525816 23,650 2 422 -1536
2021-07-25 21:11:14 GMT 49.799953 -3.526092 23,675 2 422 -1600
2021-07-25 21:11:13 GMT 49.797768 -3.526166 23,725 2 423 -1728
2021-07-25 21:11:12 GMT 49.795670 -3.526322 23,750 2 424 -1792
2021-07-25 21:11:10 GMT 49.791992 -3.526537 23,800 2 424 -2176
2021-07-25 21:11:08 GMT 49.787849 -3.526760 23,900 2 425 -2624
2021-07-25 21:11:06 GMT 49.784687 -3.526982 23,975 2 426 -3008
2021-07-25 21:11:05 GMT 49.782623 -3.527045 24,025 2 426 -3200
2021-07-25 21:11:04 GMT 49.778122 -3.527354 24,150 2 426 -3200
2021-07-25 21:11:02 GMT 49.776398 -3.527428 24,200 2 427 -3136
2021-07-25 21:11:01 GMT 49.774677 -3.527502 24,250 2 427 -3072
2021-07-25 21:10:59 GMT 49.770721 -3.527696 24,350 1 427 -3008
2021-07-25 21:10:58 GMT 49.768478 -3.527840 24,400 1 428 -3008
2021-07-25 21:10:57 GMT 49.766647 -3.527912 24,450 1 428 -3072
2021-07-25 21:10:55 GMT 49.762432 -3.528170 24,550 1 428 -3200
2021-07-25 21:10:54 GMT 49.760330 -3.528274 24,625 1 428 -3328
2021-07-25 21:10:53 GMT 49.758430 -3.528319 24,675 1 429 -3392
2021-07-25 21:10:52 GMT 49.754745 -3.528491 24,775 1 429 -3264
2021-07-25 21:10:50 GMT 49.753052 -3.528563 24,825 1 429 -3264
2021-07-25 21:10:49 GMT 49.750748 -3.528690 24,875 1 430 -2944
2021-07-25 21:10:47 GMT 49.746964 -3.528852 24,975 1 431 -2752
2021-07-25 21:10:45 GMT 49.743805 -3.528924 25,025 1 431 -2688
2021-07-25 21:10:44 GMT 49.741718 -3.529061 25,075 1 432 -2496
2021-07-25 21:10:43 GMT 49.739483 -3.529135 25,125 1 432 -2432
2021-07-25 21:10:41 GMT 49.735016 -3.529284 25,225 1 433 -2624
2021-07-25 21:10:40 GMT 49.733200 -3.529358 25,275 1 434 -2944
2021-07-25 21:10:39 GMT 49.731262 -3.529430 25,325 1 434 -3008
2021-07-25 21:10:37 GMT 49.727646 -3.529575 25,425 1 434 -3392
2021-07-25 21:10:36 GMT 49.725098 -3.529655 25,500 1 434 -3648
2021-07-25 21:10:35 GMT 49.720863 -3.529878 25,625 1 433 -4096
2021-07-25 21:10:33 GMT 49.719746 -3.529878 25,675 1 433 -4288
2021-07-25 21:10:32 GMT 49.716953 -3.530026 25,775 1 432 -4544
2021-07-25 21:10:30 GMT 49.713730 -3.530153 25,900 1 431 -4864
2021-07-25 21:10:28 GMT 49.707687 -3.530370 26,150 1 429 -5248
2021-07-25 21:10:26 GMT 49.705811 -3.530442 26,250 1 428 -5248
2021-07-25 21:10:25 GMT 49.703018 -3.530587 26,425 1 428 -5248
2021-07-25 21:10:23 GMT 49.699215 -3.530694 26,525 1 427 -5184
2021-07-25 21:10:22 GMT 49.697075 -3.530843 26,625 1 426 -5184
2021-07-25 21:10:20 GMT 49.693542 -3.530948 26,775 1 425 -5120
2021-07-25 21:10:19 GMT 49.689625 -3.531065 26,950 1 424 -5056
2021-07-25 21:10:17 GMT 49.687672 -3.531139 27,025 1 423 -5056
2021-07-25 21:10:16 GMT 49.685669 -3.531237 27,125 1 422 -4992
2021-07-25 21:10:15 GMT 49.681915 -3.531382 27,275 1 421 -4928
2021-07-25 21:10:13 GMT 49.679710 -3.531436 27,375 1 421 -4864
2021-07-25 21:10:12 GMT 49.677940 -3.531511 27,450 1 421 -4800
2021-07-25 21:10:09 GMT 49.672310 -3.531733 27,700 1 419 -4608
2021-07-25 21:10:08 GMT 49.668491 -3.531882 27,850 1 418 -4544
2021-07-25 21:10:05 GMT 49.662766 -3.532104 28,100 1 417 -4480
2021-07-25 21:10:02 GMT 49.658855 -3.532253 28,250 1 416 -4480
2021-07-25 21:10:00 GMT 49.652298 -3.532538 28,400 1 415 -4480
2021-07-25 21:09:58 GMT 49.650475 -3.532624 29,600 1 414 -4480
2021-07-25 21:09:56 GMT 49.646660 -3.532773 29,600 1 411 -4032
2021-07-25 21:09:54 GMT 49.643509 -3.532900 28,850 1 413 -4416
2021-07-25 21:09:53 GMT 49.641586 -3.532972 28,875 1 411 -4160
2021-07-25 21:09:51 GMT 49.636883 -3.533144 29,025 1 411 -4160
2021-07-25 21:09:50 GMT 49.635021 -3.533218 29,100 1 411 -4160
2021-07-25 21:09:49 GMT 49.633160 -3.533292 29,175 1 411 -4096
2021-07-25 21:09:47 GMT 49.629898 -3.533441 29,250 1 411 -4096
2021-07-25 21:09:46 GMT 49.627758 -3.533515 29,400 1 410 -4032
2021-07-25 21:09:43 GMT 49.621994 -3.533695 29,575 1 409 -3904
2021-07-25 21:09:42 GMT 49.620216 -3.533812 29,625 1 409 -3904
2021-07-25 21:09:41 GMT 49.616447 -3.533960 29,750 1 409 -3840
2021-07-25 21:09:38 GMT 49.608948 -3.534201 29,925 1 408 -3712
2021-07-25 21:09:36 GMT 49.608948 -3.534201 30,100 1 408 -3712
2021-07-25 21:09:34 GMT 49.605133 -3.534406 30,100 1 408 -3712
2021-07-25 21:09:33 GMT 49.603317 -3.534480 30,175 1 407 -3648
2021-07-25 21:09:32 GMT 49.601547 -3.534554 30,250 1 407 -3648
2021-07-25 21:09:30 GMT 49.597824 -3.534634 30,375 1 406 -3648
2021-07-25 21:09:28 GMT 49.593777 -3.534851 30,500 1 406 -3648
2021-07-25 21:09:26 GMT 49.590050 -3.534925 30,625 1 405 -3648
2021-07-25 21:09:25 GMT 49.588257 -3.534996 30,700 1 405 -3648
2021-07-25 21:09:24 GMT 49.584320 -3.535212 30,800 1 405 -3584
2021-07-25 21:09:22 GMT 49.582626 -3.535212 30,850 1 405 -3584
2021-07-25 21:09:20 GMT 49.579018 -3.535371 30,900 1 404 -3520
2021-07-25 21:09:18 GMT 49.575073 -3.535574 31,100 1 404 -3456
2021-07-25 21:09:16 GMT 49.572407 -3.535668 31,200 1 404 -3456
2021-07-25 21:09:15 GMT 49.569626 -3.535791 31,250 1 403 -3392
2021-07-25 21:09:14 GMT 49.564960 -3.535965 31,325 1 403 -3392
2021-07-25 21:09:11 GMT 49.559837 -3.536113 31,550 1 403 -3264
2021-07-25 21:09:09 GMT 49.558022 -3.536187 31,675 1 403 -3200
2021-07-25 21:09:07 GMT 49.554520 -3.536369 31,700 1 402 -3136
2021-07-25 21:09:05 GMT 49.550434 -3.536484 31,825 1 402 -3136
2021-07-25 21:09:03 GMT 49.546783 -3.536658 32,025 1 402 -3136
2021-07-25 21:09:01 GMT 49.542938 -3.536803 32,025 1 402 -3136
2021-07-25 21:09:00 GMT 49.537949 -3.537019 32,175 1 402 -3136
2021-07-25 21:08:58 GMT 49.537949 -3.537019 32,175 1 402 -3136
2021-07-25 21:08:57 GMT 49.535351 -3.537078 32,250 1 402 -3072
2021-07-25 21:08:55 GMT 49.532547 -3.537236 32,325 1 401 -3072
2021-07-25 21:08:53 GMT 49.527237 -3.537453 32,450 1 401 -2944
2021-07-25 21:08:51 GMT 49.524551 -3.537598 32,550 1 401 -2880
2021-07-25 21:08:50 GMT 49.522751 -3.537670 32,575 1 401 -2880
2021-07-25 21:08:48 GMT 49.519711 -3.537746 32,700 1 402 -2816
2021-07-25 21:08:46 GMT 49.516891 -3.537887 32,725 1 402 -2816
2021-07-25 21:08:45 GMT 49.514172 -3.537969 32,850 1 402 -2816
2021-07-25 21:08:44 GMT 49.512177 -3.538104 32,875 1 402 -2816
2021-07-25 21:08:43 GMT 49.510254 -3.538176 32,900 1 402 -2880
2021-07-25 21:08:42 GMT 49.506454 -3.538320 33,000 1 402 -2880
2021-07-25 21:08:40 GMT 49.504581 -3.538340 33,050 1 402 -2816
2021-07-25 21:08:38 GMT 49.501041 -3.538488 33,175 1 402 -2816
2021-07-25 21:08:36 GMT 49.494991 -3.538785 33,300 1 402 -2816
2021-07-25 21:08:34 GMT 49.493454 -3.538860 33,350 1 402 -2752
2021-07-25 21:08:33 GMT 49.491734 -3.538934 33,375 1 402 -2752
2021-07-25 21:08:31 GMT 49.487823 -3.539082 33,475 1 402 -2752
2021-07-25 21:08:30 GMT 49.485867 -3.539157 33,525 1 402 -2688
2021-07-25 21:08:28 GMT 49.480133 -3.539405 33,650 1 402 -2688
2021-07-25 21:08:25 GMT 49.477432 -3.539477 33,725 1 402 -2624
2021-07-25 21:08:24 GMT 49.472397 -3.539694 33,875 1 403 -2432
2021-07-25 21:08:21 GMT 49.465485 -3.539983 33,950 1 403 -2368
2021-07-25 21:08:19 GMT 49.465485 -3.539983 34,050 1 403 -2368
2021-07-25 21:08:17 GMT 49.462601 -3.540055 34,050 1 404 -2368
2021-07-25 21:08:16 GMT 49.459946 -3.540200 34,075 1 404 -2368
2021-07-25 21:08:15 GMT 49.458023 -3.540272 34,150 1 404 -2368
2021-07-25 21:08:13 GMT 49.454453 -3.540417 34,225 1 405 -2368
2021-07-25 21:08:12 GMT 49.452442 -3.540493 34,275 1 405 -2368
2021-07-25 21:08:11 GMT 49.450581 -3.540567 34,300 1 405 -2368
2021-07-25 21:08:10 GMT 49.446808 -3.540715 34,375 1 405 -2432
2021-07-25 21:08:08 GMT 49.445023 -3.540778 34,425 1 405 -2432
2021-07-25 21:08:06 GMT 49.441269 -3.540922 34,500 1 406 -2496
2021-07-25 21:08:04 GMT 49.437607 -3.541067 34,575 1 406 -2432
2021-07-25 21:08:02 GMT 49.433590 -3.541235 34,650 1 406 -2304
2021-07-25 21:08:00 GMT 49.429413 -3.541356 34,750 1 407 -2048
2021-07-25 21:07:59 GMT 49.428284 -3.541383 34,775 1 407 -2048
2021-07-25 21:07:56 GMT 49.422638 -3.541612 34,850 1 408 -1984
2021-07-25 21:07:55 GMT 49.420506 -3.541718 34,900 1 409 -1984
2021-07-25 21:07:54 GMT 49.418930 -3.541753 34,950 1 409 -1984
2021-07-25 21:07:53 GMT 49.415154 -3.541934 35,025 1 409 -2048
2021-07-25 21:07:51 GMT 49.412430 -3.542034 35,050 1 410 -2048
2021-07-25 21:07:50 GMT 49.410690 -3.542105 35,075 1 410 -1984
2021-07-25 21:07:48 GMT 49.406727 -3.542223 35,150 1 411 -1856
2021-07-25 21:07:47 GMT 49.405704 -3.542296 35,150 1 411 -1792
2021-07-25 21:07:45 GMT 49.399704 -3.542527 35,250 1 413 -1728
2021-07-25 21:07:43 GMT 49.397930 -3.542585 35,275 1 413 -1792
2021-07-25 21:07:42 GMT 49.394119 -3.542739 35,350 1 413 -2304
2021-07-25 21:07:40 GMT 49.392296 -3.542802 35,375 1 413 -2496
2021-07-25 21:07:39 GMT 49.387802 -3.542950 35,500 1 412 -3200
2021-07-25 21:07:37 GMT 49.385925 -3.543020 35,550 1 412 -3648
2021-07-25 21:07:36 GMT 49.384048 -3.543091 35,600 1 411 -3840
2021-07-25 21:07:34 GMT 49.380386 -3.543232 35,750 1 410 -3968
2021-07-25 21:07:33 GMT 49.378555 -3.543232 35,800 1 410 -3904
2021-07-25 21:07:32 GMT 49.376469 -3.543308 35,875 0 409 -3776
2021-07-25 21:07:30 GMT 49.372650 -3.543452 36,000 0 409 -3392
2021-07-25 21:07:29 GMT 49.370682 -3.543443 36,050 0 409 -3136
2021-07-25 21:07:26 GMT 49.364594 -3.543654 36,200 0 409 -2368
2021-07-25 21:07:25 GMT 49.362625 -3.543654 36,225 0 409 -2176
2021-07-25 21:07:23 GMT 49.359146 -3.543725 36,300 0 409 -1536
2021-07-25 21:07:22 GMT 49.355255 -3.543865 36,350 0 410 -1280
2021-07-25 21:07:20 GMT 49.353474 -3.543886 36,375 0 410 -1088
2021-07-25 21:07:19 GMT 49.351822 -3.543936 36,375 0 410 -1024
2021-07-25 21:07:18 GMT 49.348114 -3.544006 36,475 0 410 -960
2021-07-25 21:07:16 GMT 49.346210 -3.544030 36,450 0 410 -1024
2021-07-25 21:07:14 GMT 49.340607 -3.544218 36,500 1 409 -1024
2021-07-25 21:07:12 GMT 49.338806 -3.544247 36,500 1 409 -1024
2021-07-25 21:07:11 GMT 49.335068 -3.544358 36,550 1 409 -1024
2021-07-25 21:07:09 GMT 49.333191 -3.544429 36,575 1 408 -1024
2021-07-25 21:07:08 GMT 49.331406 -3.544464 36,575 1 408 -1024
2021-07-25 21:07:05 GMT 49.325912 -3.544681 36,625 1 408 -1024
2021-07-25 21:07:03 GMT 49.322021 -3.544781 36,700 1 408 -1024
2021-07-25 21:07:01 GMT 49.318138 -3.544898 36,700 1 408 -1024
2021-07-25 21:06:59 GMT 49.314056 -3.545063 36,750 1 407 -1024
2021-07-25 21:06:56 GMT 49.308655 -3.545274 36,800 1 407 -1024
2021-07-25 21:06:55 GMT 49.306828 -3.545331 36,800 1 407 -1024
2021-07-25 21:06:52 GMT 49.301426 -3.545548 36,850 1 408 -1024
2021-07-25 21:06:50 GMT 49.297394 -3.545697 36,900 1 408 -1024
2021-07-25 21:06:48 GMT 49.293606 -3.545837 36,925 1 408 -1024
2021-07-25 21:06:47 GMT 49.290070 -3.545978 36,975 1 408 -1024
2021-07-25 21:06:44 GMT 49.287273 -3.546127 36,975 1 408 -1024
2021-07-25 21:06:43 GMT 49.285229 -3.546199 37,025 1 408 -1024
2021-07-25 21:06:42 GMT 49.283432 -3.546260 37,025 1 409 -1024
2021-07-25 21:06:41 GMT 49.279312 -3.546471 37,050 1 409 -1024
2021-07-25 21:06:39 GMT 49.277435 -3.546542 37,075 1 409 -1024
2021-07-25 21:06:38 GMT 49.275513 -3.546612 37,100 1 409 -1024
2021-07-25 21:06:37 GMT 49.271400 -3.546849 37,150 1 410 -1024
2021-07-25 21:06:35 GMT 49.269608 -3.546894 37,150 1 410 -1088
2021-07-25 21:06:34 GMT 49.267593 -3.547035 37,175 1 410 -1088
2021-07-25 21:06:32 GMT 49.263859 -3.547211 37,200 1 410 -1088
2021-07-25 21:06:31 GMT 49.261669 -3.547283 37,225 1 411 -1088
2021-07-25 21:06:29 GMT 49.258026 -3.547457 37,250 1 411 -1088
2021-07-25 21:06:28 GMT 49.256149 -3.547528 37,275 1 412 -1088
2021-07-25 21:06:26 GMT 49.252441 -3.547739 37,300 1 412 -1088
2021-07-25 21:06:25 GMT 49.250519 -3.547809 37,375 1 413 -1088
2021-07-25 21:06:23 GMT 49.246216 -3.548021 37,375 1 413 -1088
2021-07-25 21:06:22 GMT 49.244446 -3.548150 37,400 1 414 -1024
2021-07-25 21:06:20 GMT 49.242397 -3.548223 37,400 1 414 -1024
2021-07-25 21:06:19 GMT 49.240311 -3.548302 37,400 1 415 -1024
2021-07-25 21:06:18 GMT 49.237198 -3.548443 37,450 1 417 -1024
2021-07-25 21:06:16 GMT 49.231522 -3.548725 37,450 1 417 -1024
2021-07-25 21:06:15 GMT 49.231522 -3.548725 37,475 1 417 -1024
2021-07-25 21:06:13 GMT 49.223007 -3.549077 37,550 1 419 -960
2021-07-25 21:06:11 GMT 49.223007 -3.549077 37,550 1 420 -960
2021-07-25 21:06:09 GMT 49.219074 -3.549234 37,575 1 421 -960
2021-07-25 21:06:07 GMT 49.216415 -3.549359 37,625 1 422 -960
2021-07-25 21:06:06 GMT 49.212605 -3.549524 37,625 1 422 -1024
2021-07-25 21:06:04 GMT 49.210743 -3.549596 37,675 1 422 -1024
2021-07-25 21:06:02 GMT 49.206573 -3.549781 37,675 1 423 -1024
2021-07-25 21:06:01 GMT 49.204456 -3.549885 37,725 1 424 -1024
2021-07-25 21:06:00 GMT 49.200348 -3.550063 37,725 1 424 -1024
2021-07-25 21:05:58 GMT 49.198288 -3.550133 37,775 1 424 -1088
2021-07-25 21:05:57 GMT 49.196274 -3.550204 37,775 1 425 -1088
2021-07-25 21:05:56 GMT 49.194580 -3.550274 37,800 1 425 -1088
2021-07-25 21:05:54 GMT 49.190369 -3.550415 37,825 1 425 -1088
2021-07-25 21:05:52 GMT 49.186443 -3.550536 37,875 1 425 -1088
2021-07-25 21:05:50 GMT 49.182625 -3.550680 37,900 1 426 -1024
2021-07-25 21:05:47 GMT 49.177597 -3.550825 37,950 1 426 -768
2021-07-25 21:05:45 GMT 49.172836 -3.550978 37,975 1 426 -576
2021-07-25 21:05:42 GMT 49.167496 -3.551186 38,000 1 426 -192
2021-07-25 21:05:40 GMT 49.163445 -3.551331 38,000 1 426 -64
2021-07-25 21:05:38 GMT 49.159580 -3.551475 38,000 1 426 0
2021-07-25 21:05:36 GMT 49.154663 -3.551612 38,000 1 426 0
2021-07-25 21:05:34 GMT 49.151733 -3.551683 38,000 1 426 0
2021-07-25 21:05:32 GMT 49.147888 -3.551824 38,000 1 426 0
2021-07-25 21:05:29 GMT 49.142075 -3.552035 38,000 1 426 0
2021-07-25 21:05:26 GMT 49.131638 -3.552387 38,000 1 426 0
2021-07-25 21:05:24 GMT 49.131638 -3.552387 38,000 1 426 0
2021-07-25 21:05:22 GMT 49.128670 -3.552487 38,000 1 426 0
2021-07-25 21:05:19 GMT 49.115021 -3.552950 38,000 1 426 0
2021-07-25 21:05:16 GMT 49.115021 -3.552950 38,000 1 426 0
2021-07-25 21:05:13 GMT 49.110935 -3.553138 38,000 1 426 0
2021-07-25 21:05:10 GMT 49.103718 -3.553354 38,000 1 426 -64
2021-07-25 21:05:07 GMT 49.097809 -3.553571 38,000 1 426 -64
2021-07-25 21:05:04 GMT 49.088867 -3.553860 38,000 1 426 0
2021-07-25 21:05:02 GMT 49.088867 -3.553860 38,000 1 426 0
2021-07-25 21:05:00 GMT 49.083298 -3.554077 38,000 1 426 0
2021-07-25 21:04:57 GMT 49.078396 -3.554222 38,000 1 426 0
2021-07-25 21:04:54 GMT 49.069382 -3.554570 38,000 1 426 0
2021-07-25 21:04:52 GMT 49.069382 -3.554570 38,000 1 426 0
2021-07-25 21:04:50 GMT 49.064621 -3.554711 38,000 1 426 0
2021-07-25 21:04:47 GMT 49.052536 -3.555134 38,000 1 426 0
2021-07-25 21:04:44 GMT 49.052536 -3.555134 38,000 1 426 64
2021-07-25 21:04:41 GMT 49.048042 -3.555306 38,000 1 426 64
2021-07-25 21:04:39 GMT 49.043839 -3.555486 38,000 1 426 64
2021-07-25 21:04:37 GMT 49.037155 -3.555767 38,000 1 426 64
2021-07-25 21:04:34 GMT 49.032303 -3.555908 38,000 1 426 0
2021-07-25 21:04:31 GMT 49.027607 -3.556101 38,000 1 426 0
2021-07-25 21:04:27 GMT 49.019257 -3.556401 38,000 1 426 64
2021-07-25 21:04:24 GMT 49.013779 -3.556607 38,000 1 426 64
2021-07-25 21:04:22 GMT 49.010056 -3.556751 38,000 1 426 64
2021-07-25 21:04:19 GMT 49.003326 -3.557035 38,000 1 426 0
2021-07-25 21:04:16 GMT 48.998474 -3.557176 38,000 1 426 0
2021-07-25 21:04:14 GMT 48.988495 -3.557528 38,000 1 426 -64
2021-07-25 21:04:11 GMT 48.988495 -3.557528 38,000 1 426 0
2021-07-25 21:04:07 GMT 48.978653 -3.557880 38,000 1 426 0
2021-07-25 21:04:04 GMT 48.974762 -3.558021 38,000 1 426 0
2021-07-25 21:04:02 GMT 48.970917 -3.558162 38,000 1 426 0
2021-07-25 21:03:59 GMT 48.965225 -3.558342 38,000 1 426 0
2021-07-25 21:03:56 GMT 48.954025 -3.558725 38,000 1 426 0
2021-07-25 21:03:53 GMT 48.954025 -3.558725 38,000 1 426 0
2021-07-25 21:03:51 GMT 48.950134 -3.558866 38,000 1 426 0
2021-07-25 21:03:49 GMT 48.945114 -3.558992 38,000 1 426 0
2021-07-25 21:03:47 GMT 48.940842 -3.559148 38,000 1 426 0
2021-07-25 21:03:44 GMT 48.934689 -3.559353 38,000 1 426 0
2021-07-25 21:03:42 GMT 48.930779 -3.559498 38,000 1 426 0
2021-07-25 21:03:39 GMT 48.925232 -3.559711 38,000 1 426 0
2021-07-25 21:03:37 GMT 48.921478 -3.559782 38,000 1 426 0
2021-07-25 21:03:34 GMT 48.915462 -3.560004 38,000 1 426 0
2021-07-25 21:03:32 GMT 48.911411 -3.560149 38,000 1 426 0
2021-07-25 21:03:29 GMT 48.905872 -3.560293 38,000 1 426 0
2021-07-25 21:03:26 GMT 48.898865 -3.560556 38,000 1 426 0
2021-07-25 21:03:24 GMT 48.891129 -3.560838 38,000 1 426 0
2021-07-25 21:03:22 GMT 48.891129 -3.560838 38,000 1 426 0
2021-07-25 21:03:19 GMT 48.885727 -3.561049 38,000 1 426 0
2021-07-25 21:03:17 GMT 48.881618 -3.561160 38,000 1 426 0
2021-07-25 21:03:14 GMT 48.875801 -3.561377 38,000 1 426 -64
2021-07-25 21:03:12 GMT 48.871307 -3.561542 38,000 1 426 0
2021-07-25 21:03:09 GMT 48.866272 -3.561753 38,000 1 427 0
2021-07-25 21:03:07 GMT 48.861649 -3.561956 38,000 1 427 0
2021-07-25 21:03:04 GMT 48.856339 -3.562176 38,000 1 427 0
2021-07-25 21:03:02 GMT 48.852264 -3.562317 38,000 1 427 0
2021-07-25 21:02:59 GMT 48.846146 -3.562534 38,000 1 427 0
2021-07-25 21:02:56 GMT 48.840088 -3.562810 38,000 1 427 0
2021-07-25 21:02:54 GMT 48.836697 -3.562967 38,000 1 427 0
2021-07-25 21:02:52 GMT 48.825989 -3.563401 38,000 1 427 0
2021-07-25 21:02:49 GMT 48.825989 -3.563401 38,000 1 427 0
2021-07-25 21:02:46 GMT 48.820541 -3.563655 38,000 1 427 0
2021-07-25 21:02:44 GMT 48.816120 -3.563835 38,000 1 427 0
2021-07-25 21:02:42 GMT 48.812347 -3.564007 38,000 1 427 0
2021-07-25 21:02:40 GMT 48.808300 -3.564124 38,000 1 427 0
2021-07-25 21:02:37 GMT 48.803272 -3.564341 38,000 1 427 0
2021-07-25 21:02:34 GMT 48.796288 -3.564702 38,000 1 427 0
2021-07-25 21:02:32 GMT 48.792286 -3.564847 38,000 1 427 0
2021-07-25 21:02:30 GMT 48.789413 -3.564993 38,000 1 427 0
2021-07-25 21:02:27 GMT 48.783463 -3.565275 38,000 1 427 0
2021-07-25 21:02:24 GMT 48.776642 -3.565556 38,000 1 427 0
2021-07-25 21:02:22 GMT 48.772964 -3.565714 38,000 1 427 -64
2021-07-25 21:02:19 GMT 48.766800 -3.565979 38,000 1 427 0
2021-07-25 21:02:15 GMT 48.759430 -3.566331 38,000 1 427 0
2021-07-25 21:02:13 GMT 48.756638 -3.566402 38,000 1 427 0
2021-07-25 21:02:11 GMT 48.751690 -3.566654 38,000 1 427 0
2021-07-25 21:02:08 GMT 48.745651 -3.566895 38,000 1 427 0
2021-07-25 21:02:06 GMT 48.743042 -3.567035 38,000 1 427 0
2021-07-25 21:02:03 GMT 48.735863 -3.567304 38,000 1 427 0
2021-07-25 21:02:00 GMT 48.730324 -3.567521 38,000 1 427 0
2021-07-25 21:01:57 GMT 48.723221 -3.567740 38,000 1 427 0
2021-07-25 21:01:53 GMT 48.716965 -3.567955 38,000 1 427 0
2021-07-25 21:01:51 GMT 48.712051 -3.568162 38,000 1 427 0
2021-07-25 21:01:47 GMT 48.703354 -3.568444 38,000 1 427 0
2021-07-25 21:01:45 GMT 48.700111 -3.568605 38,000 1 427 0
2021-07-25 21:01:42 GMT 48.694244 -3.568796 38,000 1 427 0
2021-07-25 21:01:40 GMT 48.690289 -3.568894 38,000 1 427 0
2021-07-25 21:01:37 GMT 48.684402 -3.569148 38,000 1 427 0
2021-07-25 21:01:35 GMT 48.679504 -3.569289 38,000 1 427 0
2021-07-25 21:01:33 GMT 48.677860 -3.569328 38,000 1 427 0
2021-07-25 21:01:31 GMT 48.672974 -3.569545 38,000 1 427 0
2021-07-25 21:01:28 GMT 48.667759 -3.569689 38,000 1 427 0
2021-07-25 21:01:26 GMT 48.663666 -3.569852 38,000 1 427 0
2021-07-25 21:01:23 GMT 48.657188 -3.570123 38,000 1 427 0
2021-07-25 21:01:21 GMT 48.652164 -3.570268 38,000 1 427 0
2021-07-25 21:01:18 GMT 48.646225 -3.570486 38,000 1 427 0
2021-07-25 21:01:16 GMT 48.643364 -3.570629 38,000 1 427 0
2021-07-25 21:01:13 GMT 48.637756 -3.570768 38,000 1 427 0
2021-07-25 21:01:11 GMT 48.631588 -3.570990 38,000 1 427 0
2021-07-25 21:01:08 GMT 48.628464 -3.571120 38,000 1 427 0
2021-07-25 21:01:06 GMT 48.623611 -3.571261 38,000 1 427 -64
2021-07-25 21:01:03 GMT 48.617798 -3.571472 38,000 1 427 0
2021-07-25 21:01:01 GMT 48.609520 -3.571713 38,000 1 427 0
2021-07-25 21:00:59 GMT 48.609520 -3.571713 38,000 1 427 0
2021-07-25 21:00:56 GMT 48.597885 -3.572106 38,000 1 427 0
2021-07-25 21:00:53 GMT 48.597885 -3.572106 38,000 1 427 0
2021-07-25 21:00:50 GMT 48.592850 -3.572317 38,000 1 427 0
2021-07-25 21:00:48 GMT 48.588989 -3.572436 38,000 1 427 0
2021-07-25 21:00:46 GMT 48.579025 -3.572810 38,000 1 427 0
2021-07-25 21:00:43 GMT 48.579025 -3.572810 38,000 1 427 0
2021-07-25 21:00:41 GMT 48.574280 -3.573014 38,000 1 427 64
2021-07-25 21:00:38 GMT 48.568634 -3.573233 38,000 1 427 64
2021-07-25 21:00:36 GMT 48.564560 -3.573444 38,000 1 427 64
2021-07-25 21:00:34 GMT 48.561676 -3.573514 38,000 1 427 64
2021-07-25 21:00:32 GMT 48.557327 -3.573726 38,000 1 427 64
2021-07-25 21:00:30 GMT 48.554264 -3.573881 38,000 1 427 0
2021-07-25 21:00:28 GMT 48.549271 -3.574078 38,000 1 427 -64
2021-07-25 21:00:26 GMT 48.545380 -3.574219 38,000 1 427 -64
2021-07-25 21:00:24 GMT 48.534943 -3.574677 38,000 1 427 -64
2021-07-25 21:00:20 GMT 48.528809 -3.574923 38,000 1 427 -64
2021-07-25 21:00:18 GMT 48.528809 -3.574923 38,000 1 427 0
2021-07-25 21:00:15 GMT 48.522980 -3.575182 38,000 1 427 0
2021-07-25 21:00:12 GMT 48.516743 -3.575399 38,000 1 427 0
2021-07-25 21:00:10 GMT 48.511806 -3.575544 38,000 1 427 0
2021-07-25 21:00:07 GMT 48.506641 -3.575761 38,000 1 427 0
2021-07-25 21:00:03 GMT 48.498447 -3.576050 38,000 1 427 -64
2021-07-25 21:00:00 GMT 48.495377 -3.576194 38,000 1 427 0
2021-07-25 20:59:58 GMT 48.489182 -3.576411 38,000 1 427 0
2021-07-25 20:59:56 GMT 48.484295 -3.576628 38,000 1 426 0
2021-07-25 20:59:53 GMT 48.480057 -3.576754 38,000 1 426 0
2021-07-25 20:59:50 GMT 48.473831 -3.576965 38,000 1 427 0
2021-07-25 20:59:47 GMT 48.460693 -3.577495 38,000 1 427 0
2021-07-25 20:59:44 GMT 48.460693 -3.577495 38,000 1 427 0
2021-07-25 20:59:41 GMT 48.453735 -3.577740 38,000 1 427 0
2021-07-25 20:59:38 GMT 48.449707 -3.577881 38,000 1 427 0
2021-07-25 20:59:36 GMT 48.445816 -3.578022 38,000 1 427 0
2021-07-25 20:59:33 GMT 48.437164 -3.578303 38,000 1 427 64
2021-07-25 20:59:31 GMT 48.429970 -3.578507 38,000 1 427 0
2021-07-25 20:59:28 GMT 48.429970 -3.578507 38,000 1 427 0
2021-07-25 20:59:26 GMT 48.425873 -3.578652 38,000 0 427 0
2021-07-25 20:59:23 GMT 48.420658 -3.578796 38,000 1 427 0
2021-07-25 20:59:21 GMT 48.415863 -3.578941 38,000 0 427 0
2021-07-25 20:59:18 GMT 48.410931 -3.579013 38,000 0 427 0
2021-07-25 20:59:15 GMT 48.406174 -3.579149 38,000 0 426 0
2021-07-25 20:59:13 GMT 48.401340 -3.579302 38,000 0 426 0
2021-07-25 20:59:11 GMT 48.396637 -3.579375 38,000 0 426 0
2021-07-25 20:59:08 GMT 48.390633 -3.579519 38,000 1 426 0
2021-07-25 20:59:05 GMT 48.380856 -3.579808 38,000 1 426 0
2021-07-25 20:59:03 GMT 48.380856 -3.579808 38,000 1 426 0
2021-07-25 20:59:01 GMT 48.377701 -3.579923 38,000 1 426 0
2021-07-25 20:58:58 GMT 48.371265 -3.580097 38,000 1 426 0
2021-07-25 20:58:54 GMT 48.362793 -3.580387 38,000 1 426 0
2021-07-25 20:58:51 GMT 48.356136 -3.580531 38,000 1 426 0
2021-07-25 20:58:48 GMT 48.351242 -3.580698 38,000 1 426 0
2021-07-25 20:58:46 GMT 48.346115 -3.580909 38,000 1 426 0
2021-07-25 20:58:43 GMT 48.341263 -3.581120 38,000 1 426 0
2021-07-25 20:58:40 GMT 48.331093 -3.581471 38,000 1 426 64
2021-07-25 20:58:38 GMT 48.331093 -3.581471 38,000 1 426 64
2021-07-25 20:58:34 GMT 48.323822 -3.581754 38,000 1 426 64
2021-07-25 20:58:31 GMT 48.317497 -3.582049 38,000 1 426 0
2021-07-25 20:58:28 GMT 48.311600 -3.582318 38,000 1 425 -64
2021-07-25 20:58:25 GMT 48.306606 -3.582483 38,000 1 425 0
2021-07-25 20:58:22 GMT 48.300293 -3.582740 38,000 1 425 64
2021-07-25 20:58:20 GMT 48.297573 -3.582844 38,000 1 425 0
2021-07-25 20:58:17 GMT 48.286354 -3.583350 38,000 1 425 0
2021-07-25 20:58:15 GMT 48.286354 -3.583350 38,000 1 425 0
2021-07-25 20:58:12 GMT 48.283329 -3.583422 38,000 1 425 0
2021-07-25 20:58:10 GMT 48.277359 -3.583656 38,000 1 425 -64
2021-07-25 20:58:07 GMT 48.272156 -3.583856 38,000 1 425 -64
2021-07-25 20:58:04 GMT 48.265827 -3.584145 38,000 1 425 -64
2021-07-25 20:58:00 GMT 48.256577 -3.584501 38,000 1 425 0
2021-07-25 20:57:57 GMT 48.252651 -3.584651 38,000 1 425 0
2021-07-25 20:57:55 GMT 48.247055 -3.584853 38,000 1 425 0
2021-07-25 20:57:52 GMT 48.242203 -3.585064 38,000 1 425 0
2021-07-25 20:57:50 GMT 48.238037 -3.585205 38,000 1 425 0
2021-07-25 20:57:48 GMT 48.233006 -3.585446 38,000 1 425 -64
2021-07-25 20:57:45 GMT 48.227829 -3.585628 38,000 1 425 0
2021-07-25 20:57:43 GMT 48.225128 -3.585768 38,000 1 425 -64
2021-07-25 20:57:40 GMT 48.212849 -3.586241 38,000 1 424 -64
2021-07-25 20:57:37 GMT 48.212849 -3.586241 38,000 1 424 -64
2021-07-25 20:57:34 GMT 48.204575 -3.586543 38,000 1 424 -64
2021-07-25 20:57:30 GMT 48.198532 -3.586825 38,000 1 424 -64
2021-07-25 20:57:28 GMT 48.194599 -3.586964 38,000 1 424 0
2021-07-25 20:57:25 GMT 48.188736 -3.587181 38,000 1 424 0
2021-07-25 20:57:22 GMT 48.184662 -3.587318 38,000 1 424 0
2021-07-25 20:57:20 GMT 48.175964 -3.587600 38,000 1 424 64
2021-07-25 20:57:15 GMT 48.169418 -3.587811 38,000 1 424 0
2021-07-25 20:57:13 GMT 48.165710 -3.587952 38,000 1 424 0
2021-07-25 20:57:11 GMT 48.160904 -3.588163 38,000 1 424 0
2021-07-25 20:57:07 GMT 48.153305 -3.588409 38,000 1 424 0
2021-07-25 20:57:04 GMT 48.147263 -3.588615 38,000 1 424 64
2021-07-25 20:57:01 GMT 48.141403 -3.588821 38,000 1 424 64
2021-07-25 20:56:57 GMT 48.133072 -3.589096 38,000 1 424 0
2021-07-25 20:56:54 GMT 48.120583 -3.589571 38,000 1 424 0
2021-07-25 20:56:51 GMT 48.120583 -3.589571 38,000 1 424 0
2021-07-25 20:56:47 GMT 48.114204 -3.589783 38,000 1 424 0
2021-07-25 20:56:44 GMT 48.104233 -3.590195 38,000 1 424 0
2021-07-25 20:56:41 GMT 48.104233 -3.590195 38,000 1 424 0
2021-07-25 20:56:39 GMT 48.092331 -3.590675 38,000 1 424 0
2021-07-25 20:56:36 GMT 48.092331 -3.590675 38,000 1 424 0
2021-07-25 20:56:32 GMT 48.085251 -3.590980 38,000 1 424 0
2021-07-25 20:56:29 GMT 48.079014 -3.591262 38,000 1 424 0
2021-07-25 20:56:26 GMT 48.072681 -3.591473 38,000 1 424 0
2021-07-25 20:56:22 GMT 48.065742 -3.591755 38,000 1 424 0
2021-07-25 20:56:20 GMT 48.054897 -3.592177 38,000 1 424 0
2021-07-25 20:56:17 GMT 48.054897 -3.592177 38,000 1 424 0
2021-07-25 20:56:14 GMT 48.048981 -3.592392 38,000 1 424 0
2021-07-25 20:56:11 GMT 48.043121 -3.592600 38,000 1 424 0
2021-07-25 20:56:07 GMT 48.035297 -3.592881 38,000 1 424 0
2021-07-25 20:56:05 GMT 48.025475 -3.593163 38,000 1 424 0
2021-07-25 20:56:02 GMT 48.025475 -3.593163 38,000 1 424 0
2021-07-25 20:55:57 GMT 48.015518 -3.593491 38,000 1 424 0
2021-07-25 20:55:53 GMT 48.006912 -3.593765 38,000 1 424 0
2021-07-25 20:55:49 GMT 48.001007 -3.593971 38,000 1 423 0
2021-07-25 20:55:46 GMT 47.994003 -3.594109 38,000 0 424 0
2021-07-25 20:55:43 GMT 47.989491 -3.594220 38,000 1 423 0
2021-07-25 20:55:41 GMT 47.984985 -3.594383 38,000 1 423 0
2021-07-25 20:55:36 GMT 47.970703 -3.594795 38,000 1 423 0
2021-07-25 20:55:34 GMT 47.970703 -3.594795 38,000 1 423 0
2021-07-25 20:55:32 GMT 47.963608 -3.594994 38,000 1 422 0
2021-07-25 20:55:28 GMT 47.959717 -3.595070 38,000 1 422 0
2021-07-25 20:55:25 GMT 47.953087 -3.595276 38,000 1 422 0
2021-07-25 20:55:22 GMT 47.946476 -3.595487 38,000 1 422 0
2021-07-25 20:55:18 GMT 47.938519 -3.595769 38,000 1 422 0
2021-07-25 20:55:15 GMT 47.934700 -3.595839 38,000 1 421 0
2021-07-25 20:55:11 GMT 47.927216 -3.596100 38,000 1 421 0
2021-07-25 20:55:09 GMT 47.921806 -3.596332 38,000 1 421 0
2021-07-25 20:55:06 GMT 47.916550 -3.596512 38,000 1 421 0
2021-07-25 20:55:01 GMT 47.907841 -3.596896 38,000 1 420 0
2021-07-25 20:54:59 GMT 47.903790 -3.597107 38,000 1 420 0
2021-07-25 20:54:56 GMT 47.897968 -3.597318 38,000 1 420 0
2021-07-25 20:54:54 GMT 47.892197 -3.597542 38,000 1 420 0
2021-07-25 20:54:51 GMT 47.887024 -3.597816 38,000 1 420 64
2021-07-25 20:54:49 GMT 47.884323 -3.597885 38,000 1 420 0
2021-07-25 20:54:46 GMT 47.877731 -3.598160 38,000 1 420 0
2021-07-25 20:54:43 GMT 47.872787 -3.598366 38,000 1 420 0
2021-07-25 20:54:40 GMT 47.866875 -3.598586 38,000 1 419 0
2021-07-25 20:54:38 GMT 47.862915 -3.598797 38,000 1 419 0
2021-07-25 20:54:35 GMT 47.856812 -3.598984 38,000 1 419 0
2021-07-25 20:54:32 GMT 47.852955 -3.599149 38,000 1 419 0
2021-07-25 20:54:30 GMT 47.846878 -3.599396 38,000 1 419 0
2021-07-25 20:54:26 GMT 47.839645 -3.599670 38,000 1 419 0
2021-07-25 20:54:23 GMT 47.833557 -3.599945 38,000 1 419 0
2021-07-25 20:54:20 GMT 47.828430 -3.600082 38,000 1 419 0
2021-07-25 20:54:16 GMT 47.819855 -3.600417 38,000 1 419 0
2021-07-25 20:54:13 GMT 47.814835 -3.600563 38,000 1 419 0
2021-07-25 20:54:10 GMT 47.809525 -3.600769 38,000 1 419 0
2021-07-25 20:54:06 GMT 47.799652 -3.601121 38,000 1 419 0
2021-07-25 20:54:03 GMT 47.794346 -3.601332 38,000 1 419 0
2021-07-25 20:53:58 GMT 47.785778 -3.601614 38,000 1 419 0
2021-07-25 20:53:56 GMT 47.781078 -3.601755 38,000 1 419 64
2021-07-25 20:53:54 GMT 47.777115 -3.601868 38,000 1 419 0
2021-07-25 20:53:49 GMT 47.767483 -3.602248 38,000 1 420 0
2021-07-25 20:53:46 GMT 47.761990 -3.602459 38,000 1 420 0
2021-07-25 20:53:43 GMT 47.756332 -3.602692 38,000 1 420 -64
2021-07-25 20:53:40 GMT 47.746582 -3.603035 38,000 1 420 0
2021-07-25 20:53:36 GMT 47.741928 -3.603234 38,000 1 420 0
2021-07-25 20:53:34 GMT 47.738022 -3.603378 38,000 1 421 0
2021-07-25 20:53:30 GMT 47.730755 -3.603656 38,000 1 420 0
2021-07-25 20:53:26 GMT 47.722935 -3.603938 38,000 1 420 0
2021-07-25 20:53:23 GMT 47.717377 -3.604134 38,000 1 420 0
2021-07-25 20:53:20 GMT 47.711716 -3.604361 38,000 1 420 0
2021-07-25 20:53:18 GMT 47.707851 -3.604502 38,000 1 420 0
2021-07-25 20:53:15 GMT 47.702225 -3.604683 38,000 1 420 0
2021-07-25 20:53:13 GMT 47.698425 -3.604820 38,000 1 421 0
2021-07-25 20:53:09 GMT 47.691044 -3.605065 38,000 1 421 0
2021-07-25 20:53:05 GMT 47.682991 -3.605347 38,000 1 421 0
2021-07-25 20:53:03 GMT 47.678787 -3.605438 38,000 1 421 0
2021-07-25 20:53:00 GMT 47.671280 -3.605713 38,000 1 421 0
2021-07-25 20:52:57 GMT 47.667397 -3.605840 38,000 1 421 0
2021-07-25 20:52:54 GMT 47.661812 -3.606051 38,000 1 421 0
2021-07-25 20:52:52 GMT 47.657089 -3.606194 38,000 1 421 0
2021-07-25 20:52:49 GMT 47.647938 -3.606473 38,000 1 421 0
2021-07-25 20:52:44 GMT 47.634979 -3.606812 38,000 1 422 64
2021-07-25 20:52:41 GMT 47.634979 -3.606812 38,000 1 422 64
2021-07-25 20:52:37 GMT 47.628387 -3.607018 38,000 1 422 0
2021-07-25 20:52:35 GMT 47.618004 -3.607389 38,000 1 422 0
2021-07-25 20:52:32 GMT 47.618004 -3.607389 38,000 1 422 0
2021-07-25 20:52:29 GMT 47.603806 -3.607841 38,000 1 423 64
2021-07-25 20:52:25 GMT 47.603806 -3.607841 38,000 1 423 64
2021-07-25 20:52:22 GMT 47.598732 -3.608023 38,000 1 423 0
2021-07-25 20:52:19 GMT 47.592545 -3.608185 38,000 1 423 0
2021-07-25 20:52:15 GMT 47.584396 -3.608459 38,000 1 424 0
2021-07-25 20:52:10 GMT 47.574524 -3.608798 38,000 1 424 0
2021-07-25 20:52:07 GMT 47.570618 -3.608940 38,000 1 424 0
2021-07-25 20:52:04 GMT 47.558277 -3.609361 38,000 1 424 0
2021-07-25 20:51:58 GMT 47.552040 -3.609572 38,000 1 425 0
2021-07-25 20:51:55 GMT 47.544525 -3.609833 38,000 1 425 0
2021-07-25 20:51:52 GMT 47.532074 -3.610245 38,000 1 425 0
2021-07-25 20:51:48 GMT 47.532074 -3.610245 38,000 1 425 0
2021-07-25 20:51:45 GMT 47.526581 -3.610451 38,000 1 425 0
2021-07-25 20:51:42 GMT 47.519714 -3.610657 38,000 1 425 0
2021-07-25 20:51:39 GMT 47.514565 -3.610840 38,000 1 426 64
2021-07-25 20:51:36 GMT 47.508469 -3.611051 38,000 1 426 0
2021-07-25 20:51:32 GMT 47.500599 -3.611333 38,000 1 426 0
2021-07-25 20:51:29 GMT 47.493027 -3.611618 38,000 1 426 0
2021-07-25 20:51:25 GMT 47.487007 -3.611755 38,000 1 426 0
2021-07-25 20:51:22 GMT 47.478535 -3.612037 38,000 1 426 0
2021-07-25 20:51:18 GMT 47.473412 -3.612248 38,000 1 426 64
2021-07-25 20:51:14 GMT 47.464050 -3.612511 38,000 1 427 -64
2021-07-25 20:51:11 GMT 47.459400 -3.612671 38,000 1 427 -64
2021-07-25 20:51:08 GMT 47.452885 -3.612882 38,000 1 427 -64
2021-07-25 20:51:04 GMT 47.445053 -3.613129 38,000 1 427 0
2021-07-25 20:51:00 GMT 47.438267 -3.613375 38,000 1 427 0
2021-07-25 20:50:57 GMT 47.432167 -3.613586 38,000 1 427 0
2021-07-25 20:50:53 GMT 47.423603 -3.613939 38,000 1 428 0
2021-07-25 20:50:51 GMT 47.419228 -3.614079 38,000 1 428 0
2021-07-25 20:50:48 GMT 47.413193 -3.614296 38,000 1 428 0
2021-07-25 20:50:43 GMT 47.404541 -3.614571 38,000 1 428 -64
2021-07-25 20:50:41 GMT 47.399536 -3.614784 38,000 1 428 0
2021-07-25 20:50:38 GMT 47.394974 -3.614914 38,000 1 428 0
2021-07-25 20:50:36 GMT 47.388840 -3.615120 38,000 1 429 0
2021-07-25 20:50:33 GMT 47.384354 -3.615257 38,000 1 429 0
2021-07-25 20:50:29 GMT 47.375885 -3.615601 38,000 1 429 0
2021-07-25 20:50:26 GMT 47.367874 -3.615807 38,000 1 429 0
2021-07-25 20:50:22 GMT 47.362804 -3.615981 38,000 1 429 0
2021-07-25 20:50:18 GMT 47.348839 -3.616544 38,000 1 429 0
2021-07-25 20:50:15 GMT 47.348839 -3.616544 38,000 1 429 0
2021-07-25 20:50:11 GMT 47.339584 -3.616837 38,000 1 430 0
2021-07-25 20:50:07 GMT 47.328308 -3.617319 38,000 1 430 0
2021-07-25 20:50:05 GMT 47.328308 -3.617319 38,000 1 430 0
2021-07-25 20:50:02 GMT 47.322304 -3.617530 38,000 1 430 0
2021-07-25 20:49:59 GMT 47.316330 -3.617798 38,000 1 430 0
2021-07-25 20:49:56 GMT 47.308388 -3.618094 38,000 1 430 -64
2021-07-25 20:49:53 GMT 47.303684 -3.618234 38,000 1 430 -64
2021-07-25 20:49:50 GMT 47.299213 -3.618446 38,000 1 430 -64
2021-07-25 20:49:46 GMT 47.290878 -3.618759 38,000 1 430 0
2021-07-25 20:49:42 GMT 47.282272 -3.619102 38,000 1 430 0
2021-07-25 20:49:38 GMT 47.274948 -3.619377 38,000 1 430 0
2021-07-25 20:49:35 GMT 47.270187 -3.619583 38,000 1 430 64
2021-07-25 20:49:31 GMT 47.261948 -3.619858 38,000 1 430 64
2021-07-25 20:49:27 GMT 47.251740 -3.620201 38,000 1 430 0
2021-07-25 20:49:23 GMT 47.246429 -3.620407 38,000 1 430 0
2021-07-25 20:49:20 GMT 47.238605 -3.620629 38,000 1 430 0
2021-07-25 20:49:17 GMT 47.234741 -3.620770 38,000 1 430 0
2021-07-25 20:49:15 GMT 47.229309 -3.620956 38,000 1 430 0
2021-07-25 20:49:11 GMT 47.221664 -3.621231 38,000 1 430 0
2021-07-25 20:49:09 GMT 47.218277 -3.621368 38,000 1 430 0
2021-07-25 20:49:06 GMT 47.211651 -3.621544 38,000 1 430 0
2021-07-25 20:49:03 GMT 47.205688 -3.621780 38,000 1 430 0
2021-07-25 20:48:59 GMT 47.198524 -3.621967 38,000 1 430 0
2021-07-25 20:48:55 GMT 47.189911 -3.622319 38,000 1 430 0
2021-07-25 20:48:51 GMT 47.180878 -3.622601 38,000 1 430 0
2021-07-25 20:48:47 GMT 47.173988 -3.622812 38,000 1 430 0
2021-07-25 20:48:43 GMT 47.166401 -3.623094 38,000 1 430 0
2021-07-25 20:48:40 GMT 47.158348 -3.623305 38,000 1 430 64
2021-07-25 20:48:36 GMT 47.152634 -3.623497 38,000 1 430 64
2021-07-25 20:48:33 GMT 47.146271 -3.623703 38,000 1 430 0
2021-07-25 20:48:29 GMT 47.137398 -3.623939 38,000 1 430 0
2021-07-25 20:48:24 GMT 47.128647 -3.624252 38,000 1 430 0
2021-07-25 20:48:21 GMT 47.122467 -3.624458 38,000 1 430 0
2021-07-25 20:48:18 GMT 47.117195 -3.624643 38,000 1 430 0
2021-07-25 20:48:14 GMT 47.108963 -3.625008 38,000 1 430 0
2021-07-25 20:48:11 GMT 47.096695 -3.625420 38,000 1 430 0
2021-07-25 20:48:08 GMT 47.096695 -3.625420 38,000 1 430 0
2021-07-25 20:48:05 GMT 47.085526 -3.625900 38,000 1 430 0
2021-07-25 20:48:02 GMT 47.085526 -3.625900 38,000 1 430 0
2021-07-25 20:47:59 GMT 47.076736 -3.626244 38,000 1 430 0
2021-07-25 20:47:53 GMT 47.066162 -3.626656 38,000 1 430 0
2021-07-25 20:47:48 GMT 47.057098 -3.626967 38,000 1 430 0
2021-07-25 20:47:45 GMT 47.050186 -3.627274 38,000 1 430 0
2021-07-25 20:47:41 GMT 47.041130 -3.627601 38,000 1 430 0
2021-07-25 20:47:38 GMT 47.037186 -3.627754 38,000 1 430 0
2021-07-25 20:47:33 GMT 47.026382 -3.628166 38,000 1 430 0
2021-07-25 20:47:28 GMT 47.016632 -3.628510 38,000 1 430 64
2021-07-25 20:47:25 GMT 47.009708 -3.628798 38,000 1 430 0
2021-07-25 20:47:22 GMT 47.006214 -3.628939 38,000 1 430 0
2021-07-25 20:47:19 GMT 46.998535 -3.629221 38,000 1 430 0
2021-07-25 20:47:12 GMT 46.985046 -3.629745 38,000 1 430 0
2021-07-25 20:47:08 GMT 46.976944 -3.630089 38,000 1 430 0
2021-07-25 20:47:01 GMT 46.963898 -3.630569 38,000 1 430 0
2021-07-25 20:46:58 GMT 46.957569 -3.630841 38,000 1 430 0
2021-07-25 20:46:50 GMT 46.941368 -3.631404 38,000 1 430 0
2021-07-25 20:46:47 GMT 46.936012 -3.631545 38,000 1 430 0
2021-07-25 20:46:40 GMT 46.923157 -3.631943 38,000 1 429 0
2021-07-25 20:46:37 GMT 46.916042 -3.632179 38,000 1 430 0
2021-07-25 20:46:32 GMT 46.906082 -3.632561 38,000 1 430 64
2021-07-25 20:46:29 GMT 46.900261 -3.632742 38,000 1 430 0
2021-07-25 20:46:26 GMT 46.894501 -3.632973 38,000 1 430 0
2021-07-25 20:46:22 GMT 46.885880 -3.633235 38,000 1 430 0
2021-07-25 20:46:18 GMT 46.877563 -3.633522 38,000 1 430 0
2021-07-25 20:46:15 GMT 46.872116 -3.633728 38,000 1 430 0
2021-07-25 20:46:10 GMT 46.861084 -3.634130 38,000 1 430 0
2021-07-25 20:46:06 GMT 46.855106 -3.634346 38,000 1 430 0
2021-07-25 20:46:00 GMT 46.841492 -3.634733 38,000 1 430 0
2021-07-25 20:45:56 GMT 46.834900 -3.634934 38,000 1 430 0
2021-07-25 20:45:51 GMT 46.825378 -3.635202 38,000 1 430 0
2021-07-25 20:45:47 GMT 46.816910 -3.635403 38,000 1 430 0
2021-07-25 20:45:41 GMT 46.806042 -3.635719 38,000 1 430 0
2021-07-25 20:45:38 GMT 46.799152 -3.635925 38,000 1 430 0
2021-07-25 20:45:35 GMT 46.793198 -3.636073 38,000 1 430 0
2021-07-25 20:45:32 GMT 46.786194 -3.636274 38,000 1 430 0
2021-07-25 20:45:29 GMT 46.780289 -3.636475 38,000 1 430 0
2021-07-25 20:45:26 GMT 46.775299 -3.636609 38,000 1 430 0
2021-07-25 20:45:19 GMT 46.760788 -3.637011 38,000 1 430 0
2021-07-25 20:45:16 GMT 46.754368 -3.637230 38,000 1 430 0
2021-07-25 20:45:11 GMT 46.745316 -3.637479 38,000 1 430 0
2021-07-25 20:45:07 GMT 46.735188 -3.637779 38,000 1 430 0
2021-07-25 20:45:01 GMT 46.725784 -3.638123 38,000 1 430 -64
2021-07-25 20:44:57 GMT 46.718445 -3.638350 38,000 1 431 0
2021-07-25 20:44:54 GMT 46.712219 -3.638618 38,000 1 431 0
2021-07-25 20:44:51 GMT 46.705490 -3.638819 38,000 1 431 64
2021-07-25 20:44:48 GMT 46.700600 -3.639015 38,000 1 431 0
2021-07-25 20:44:44 GMT 46.692501 -3.639290 38,000 1 431 0
2021-07-25 20:44:39 GMT 46.679947 -3.639690 38,000 1 431 0
2021-07-25 20:44:35 GMT 46.673630 -3.639891 38,000 1 431 64
2021-07-25 20:44:33 GMT 46.669502 -3.640045 38,000 1 431 64
2021-07-25 20:44:29 GMT 46.660378 -3.640320 38,000 1 431 0
2021-07-25 20:44:25 GMT 46.654469 -3.640526 38,000 1 431 -64
2021-07-25 20:44:21 GMT 46.645157 -3.640829 38,000 1 431 -64
2021-07-25 20:44:18 GMT 46.639664 -3.640938 38,000 1 431 -64
2021-07-25 20:44:14 GMT 46.632957 -3.641144 38,000 1 431 0
2021-07-25 20:44:11 GMT 46.625744 -3.641418 38,000 1 431 0
2021-07-25 20:44:08 GMT 46.619568 -3.641566 38,000 1 432 0
2021-07-25 20:44:03 GMT 46.611649 -3.641834 38,000 1 432 0
2021-07-25 20:44:01 GMT 46.605309 -3.642036 38,000 1 432 0
2021-07-25 20:43:58 GMT 46.599106 -3.642236 38,000 1 432 0
2021-07-25 20:43:54 GMT 46.592739 -3.642448 38,000 1 432 0
2021-07-25 20:43:51 GMT 46.585289 -3.642654 38,000 1 432 0
2021-07-25 20:43:47 GMT 46.578232 -3.642906 38,000 1 432 0
2021-07-25 20:43:43 GMT 46.570908 -3.643174 38,000 1 432 0
2021-07-25 20:43:40 GMT 46.565178 -3.643341 38,000 1 432 0
2021-07-25 20:43:37 GMT 46.559032 -3.643616 38,000 1 432 0
2021-07-25 20:43:33 GMT 46.549393 -3.643910 38,000 1 432 0
2021-07-25 20:43:30 GMT 46.543350 -3.644111 38,000 1 432 0
2021-07-25 20:43:27 GMT 46.538452 -3.644312 38,000 1 432 0
2021-07-25 20:43:23 GMT 46.528824 -3.644646 38,000 1 432 -64
2021-07-25 20:43:20 GMT 46.524960 -3.644783 38,000 1 432 0
2021-07-25 20:43:15 GMT 46.512405 -3.645250 38,000 1 432 0
2021-07-25 20:43:10 GMT 46.504532 -3.645585 38,000 1 432 0
2021-07-25 20:43:07 GMT 46.497482 -3.645853 38,000 1 432 0
2021-07-25 20:43:02 GMT 46.488926 -3.646156 38,000 1 432 0
2021-07-25 20:42:58 GMT 46.478806 -3.646590 38,000 1 431 0
2021-07-25 20:42:54 GMT 46.471619 -3.646858 38,000 1 431 0
2021-07-25 20:42:51 GMT 46.466721 -3.647049 38,000 1 431 0
2021-07-25 20:42:48 GMT 46.458576 -3.647324 38,000 1 431 64
2021-07-25 20:42:44 GMT 46.451477 -3.647528 38,000 1 431 64
2021-07-25 20:42:40 GMT 46.443863 -3.647804 38,000 1 431 64
2021-07-25 20:42:37 GMT 46.437836 -3.647997 38,000 1 431 64
2021-07-25 20:42:30 GMT 46.424637 -3.648491 38,000 1 431 0
2021-07-25 20:42:26 GMT 46.416962 -3.648734 38,000 1 431 -64
2021-07-25 20:42:19 GMT 46.401031 -3.649337 38,000 1 430 0
2021-07-25 20:42:15 GMT 46.394241 -3.649590 38,000 1 430 0
2021-07-25 20:42:13 GMT 46.390610 -3.649658 38,000 1 430 0
2021-07-25 20:42:10 GMT 46.384464 -3.649933 38,000 1 430 0
2021-07-25 20:42:07 GMT 46.378693 -3.650070 38,000 1 430 0
2021-07-25 20:42:00 GMT 46.364090 -3.650542 38,000 1 430 0
2021-07-25 20:41:56 GMT 46.355785 -3.650826 38,000 1 429 0
2021-07-25 20:41:49 GMT 46.342438 -3.651212 38,000 1 429 0
2021-07-25 20:41:46 GMT 46.335846 -3.651413 38,000 1 429 0
2021-07-25 20:41:44 GMT 46.333054 -3.651547 38,000 1 429 0
2021-07-25 20:41:39 GMT 46.323029 -3.651882 38,000 1 429 0
2021-07-25 20:41:36 GMT 46.316208 -3.652083 38,000 1 429 0
2021-07-25 20:41:28 GMT 46.299507 -3.652679 38,000 1 429 0
2021-07-25 20:41:23 GMT 46.284889 -3.653229 38,000 1 428 0
2021-07-25 20:41:17 GMT 46.279163 -3.653435 38,000 1 428 0
2021-07-25 20:41:14 GMT 46.273438 -3.653641 38,000 1 428 0
2021-07-25 20:41:09 GMT 46.264267 -3.653984 38,000 1 428 0
2021-07-25 20:41:05 GMT 46.253094 -3.654396 38,000 1 428 0
2021-07-25 20:40:57 GMT 46.239452 -3.654877 38,000 1 428 0
2021-07-25 20:40:54 GMT 46.235310 -3.655014 38,000 1 427 0
2021-07-25 20:40:47 GMT 46.219578 -3.655563 38,000 1 427 0
2021-07-25 20:40:44 GMT 46.215527 -3.655632 38,000 1 427 0
2021-07-25 20:40:36 GMT 46.198441 -3.656181 38,000 1 427 64
2021-07-25 20:40:32 GMT 46.192017 -3.656371 38,000 1 427 64
2021-07-25 20:40:29 GMT 46.184052 -3.656639 38,000 1 427 0
2021-07-25 20:40:25 GMT 46.177643 -3.656840 38,000 1 427 0
2021-07-25 20:40:21 GMT 46.169357 -3.657107 38,000 1 427 0
2021-07-25 20:40:19 GMT 46.164410 -3.657280 38,000 1 427 0
2021-07-25 20:40:15 GMT 46.155846 -3.657555 38,000 1 427 64
2021-07-25 20:40:08 GMT 46.144020 -3.657967 38,000 1 427 0
2021-07-25 20:40:05 GMT 46.136993 -3.658179 38,000 1 427 0
2021-07-25 20:39:58 GMT 46.124561 -3.658585 38,000 1 427 0
2021-07-25 20:39:54 GMT 46.114368 -3.658928 38,000 1 427 0
2021-07-25 20:39:48 GMT 46.105148 -3.659271 38,000 1 426 0
2021-07-25 20:39:43 GMT 46.095245 -3.659586 38,000 1 426 0
2021-07-25 20:39:41 GMT 46.089432 -3.659787 38,000 1 426 0
2021-07-25 20:39:38 GMT 46.084122 -3.659988 38,000 1 426 -64
2021-07-25 20:39:36 GMT 46.078995 -3.660122 38,000 1 426 -64
2021-07-25 20:39:33 GMT 46.074753 -3.660301 38,000 1 426 0
2021-07-25 20:39:29 GMT 46.066269 -3.660524 38,000 1 426 0
2021-07-25 20:39:27 GMT 46.063019 -3.660658 38,000 1 426 0
2021-07-25 20:39:22 GMT 46.052963 -3.660919 38,000 1 426 64
2021-07-25 20:39:18 GMT 46.044617 -3.661127 38,000 1 426 64
2021-07-25 20:39:11 GMT 46.032028 -3.661529 38,000 1 426 64
2021-07-25 20:39:07 GMT 46.024197 -3.661812 38,000 1 426 0
2021-07-25 20:39:01 GMT 46.011749 -3.662199 38,000 1 426 0
2021-07-25 20:38:57 GMT 46.002876 -3.662498 38,000 1 426 0
2021-07-25 20:38:52 GMT 45.992958 -3.662773 38,000 1 426 -64
2021-07-25 20:38:47 GMT 45.977924 -3.663254 38,000 1 426 0
2021-07-25 20:38:44 GMT 45.977924 -3.663254 38,000 1 426 64
2021-07-25 20:38:40 GMT 45.969917 -3.663460 38,000 1 426 0
2021-07-25 20:38:37 GMT 45.964691 -3.663672 38,000 1 426 0
2021-07-25 20:38:34 GMT 45.958878 -3.663806 38,000 1 426 0
2021-07-25 20:38:30 GMT 45.949665 -3.664078 38,000 1 426 0
2021-07-25 20:38:28 GMT 45.946407 -3.664215 38,000 1 426 0
2021-07-25 20:38:22 GMT 45.933060 -3.664677 38,000 1 426 0
2021-07-25 20:38:18 GMT 45.926762 -3.664902 38,000 1 426 0
2021-07-25 20:38:16 GMT 45.923080 -3.665012 38,000 1 426 0
2021-07-25 20:38:13 GMT 45.907562 -3.665548 38,000 1 426 0
2021-07-25 20:38:09 GMT 45.907562 -3.665548 38,000 1 426 0
2021-07-25 20:38:07 GMT 45.905582 -3.665657 38,000 1 426 0
2021-07-25 20:38:03 GMT 45.897720 -3.665950 38,000 1 426 0
2021-07-25 20:37:58 GMT 45.887741 -3.666285 38,000 1 426 0
2021-07-25 20:37:55 GMT 45.879604 -3.666618 38,000 1 426 0
2021-07-25 20:37:50 GMT 45.871876 -3.666893 38,000 1 426 0
2021-07-25 20:37:46 GMT 45.863983 -3.667156 38,000 1 427 0
2021-07-25 20:37:41 GMT 45.853363 -3.667491 38,000 1 427 0
2021-07-25 20:37:38 GMT 45.846878 -3.667717 38,000 1 427 0
2021-07-25 20:37:30 GMT 45.832809 -3.668161 38,000 1 427 0
2021-07-25 20:37:27 GMT 45.826813 -3.668404 38,000 1 427 0
2021-07-25 20:37:20 GMT 45.813217 -3.668831 38,000 1 427 0
2021-07-25 20:37:16 GMT 45.804703 -3.669099 38,000 1 427 0
2021-07-25 20:37:06 GMT 45.785755 -3.669708 38,000 1 428 0
2021-07-25 20:37:01 GMT 45.773987 -3.670103 38,000 1 427 0
2021-07-25 20:36:55 GMT 45.763046 -3.670438 38,000 1 427 0
2021-07-25 20:36:50 GMT 45.752983 -3.670738 38,000 1 427 64
2021-07-25 20:36:45 GMT 45.743546 -3.671041 38,000 1 427 64
2021-07-25 20:36:40 GMT 45.733246 -3.671309 38,000 1 428 0
2021-07-25 20:36:34 GMT 45.722816 -3.671700 38,000 1 428 0
2021-07-25 20:36:30 GMT 45.713554 -3.671974 38,000 1 428 0
2021-07-25 20:36:24 GMT 45.702007 -3.672318 38,000 1 428 0
2021-07-25 20:36:19 GMT 45.693115 -3.672661 38,000 1 428 0
2021-07-25 20:36:14 GMT 45.681992 -3.673004 38,000 1 428 0
2021-07-25 20:36:08 GMT 45.671585 -3.673386 38,000 1 428 0
2021-07-25 20:36:03 GMT 45.660667 -3.673759 38,000 1 428 0
2021-07-25 20:36:00 GMT 45.654053 -3.673989 38,000 1 428 0
2021-07-25 20:35:52 GMT 45.639359 -3.674525 38,000 1 429 0
2021-07-25 20:35:48 GMT 45.631165 -3.674793 38,000 1 429 0
2021-07-25 20:35:40 GMT 45.613312 -3.675396 38,000 1 429 0
2021-07-25 20:35:31 GMT 45.590237 -3.676163 38,000 1 429 0
2021-07-25 20:35:27 GMT 45.590237 -3.676163 38,000 1 429 0
2021-07-25 20:35:19 GMT 45.573292 -3.676712 38,000 1 429 0
2021-07-25 20:35:11 GMT 45.557053 -3.677271 38,000 1 429 -64
2021-07-25 20:35:07 GMT 45.549412 -3.677605 38,000 1 429 -64
2021-07-25 20:35:04 GMT 45.544601 -3.677739 38,000 1 429 -64
2021-07-25 20:34:59 GMT 45.533569 -3.678131 38,000 1 429 0
2021-07-25 20:34:55 GMT 45.526691 -3.678343 38,000 1 429 64
2021-07-25 20:34:49 GMT 45.513062 -3.678785 38,000 1 429 64
2021-07-25 20:34:38 GMT 45.491547 -3.679482 38,000 1 430 0
2021-07-25 20:34:33 GMT 45.480652 -3.679884 38,000 1 430 -64
2021-07-25 20:34:28 GMT 45.470596 -3.680219 38,000 1 430 -64
2021-07-25 20:34:18 GMT 45.453510 -3.680822 38,000 1 430 64
2021-07-25 20:34:08 GMT 45.432037 -3.681532 38,000 1 430 0
2021-07-25 20:33:57 GMT 45.411289 -3.682162 38,000 1 430 0
2021-07-25 20:33:46 GMT 45.388596 -3.682905 38,000 1 430 0
2021-07-25 20:33:37 GMT 45.370182 -3.683501 38,000 1 430 0
2021-07-25 20:33:25 GMT 45.347794 -3.684238 38,000 1 430 0
2021-07-25 20:33:15 GMT 45.327961 -3.684841 38,000 1 430 0
2021-07-25 20:33:08 GMT 45.310783 -3.685377 38,000 1 430 64
2021-07-25 20:33:05 GMT 45.307106 -3.685511 38,000 1 430 64
2021-07-25 20:32:56 GMT 45.290359 -3.686044 38,000 1 430 -64
2021-07-25 20:32:53 GMT 45.284294 -3.686181 38,000 1 430 -64
2021-07-25 20:32:47 GMT 45.271820 -3.686632 38,000 1 429 0
2021-07-25 20:32:43 GMT 45.264881 -3.686851 38,000 1 430 0
2021-07-25 20:32:37 GMT 45.251431 -3.687253 38,000 1 430 0
2021-07-25 20:32:33 GMT 45.231033 -3.687940 38,000 1 429 -64
2021-07-25 20:32:26 GMT 45.231033 -3.687940 38,000 1 429 0
2021-07-25 20:32:22 GMT 45.222382 -3.688191 38,000 1 429 0
2021-07-25 20:32:12 GMT 45.201874 -3.688856 38,000 1 429 0
2021-07-25 20:32:01 GMT 45.180298 -3.689598 38,000 1 429 0
2021-07-25 20:31:51 GMT 45.160263 -3.690229 41,000 1 429 0
2021-07-25 20:31:46 GMT 45.149433 -3.690602 38,000 1 429 0
2021-07-25 20:31:40 GMT 45.138584 -3.690937 38,000 1 429 64
2021-07-25 20:31:36 GMT 45.131462 -3.691138 38,000 1 429 64
2021-07-25 20:31:30 GMT 45.118378 -3.691668 38,000 1 429 0
2021-07-25 20:31:26 GMT 45.110550 -3.691929 38,000 1 429 0
2021-07-25 20:31:19 GMT 45.097572 -3.692344 38,000 1 429 0
2021-07-25 20:31:13 GMT 45.082539 -3.692813 38,000 1 429 -64
2021-07-25 20:31:08 GMT 45.075577 -3.693041 38,000 1 429 -64
2021-07-25 20:31:03 GMT 45.061661 -3.693499 38,000 1 429 0
2021-07-25 20:30:57 GMT 45.053604 -3.693760 38,000 1 430 64
2021-07-25 20:30:52 GMT 45.042480 -3.694087 38,000 1 430 -64
2021-07-25 20:30:48 GMT 45.034882 -3.694349 38,000 1 430 0
2021-07-25 20:30:43 GMT 45.023300 -3.694676 38,000 1 430 0
2021-07-25 20:30:36 GMT 45.010757 -3.695068 38,000 1 430 0
2021-07-25 20:30:32 GMT 45.003212 -3.695292 38,000 1 430 0
2021-07-25 20:30:26 GMT 44.992813 -3.695657 38,000 1 430 0
2021-07-25 20:30:21 GMT 44.981094 -3.696049 38,000 1 430 0
2021-07-25 20:30:15 GMT 44.970066 -3.696430 38,000 1 431 0
2021-07-25 20:30:05 GMT 44.950974 -3.697030 38,000 1 431 0
2021-07-25 20:30:02 GMT 44.944794 -3.697226 38,000 1 431 0
2021-07-25 20:29:53 GMT 44.926773 -3.697837 38,000 1 431 0
2021-07-25 20:29:44 GMT 44.907990 -3.698469 38,000 1 432 0
2021-07-25 20:29:34 GMT 44.888973 -3.699043 38,000 1 432 0
2021-07-25 20:29:24 GMT 44.867886 -3.699646 38,000 1 432 0
2021-07-25 20:29:13 GMT 44.846283 -3.700300 38,000 1 432 0
2021-07-25 20:29:02 GMT 44.823799 -3.700986 38,000 1 433 64
2021-07-25 20:28:56 GMT 44.813507 -3.701346 38,000 1 433 0
2021-07-25 20:28:52 GMT 44.803894 -3.701673 38,000 1 433 0
2021-07-25 20:28:41 GMT 44.783066 -3.702326 38,000 1 433 -64
2021-07-25 20:28:31 GMT 44.740562 -3.703665 38,000 1 433 0
2021-07-25 20:28:20 GMT 44.740562 -3.703665 38,000 1 433 -64
2021-07-25 20:28:09 GMT 44.719383 -3.704335 38,000 1 433 64
2021-07-25 20:27:59 GMT 44.692520 -3.705270 38,000 1 433 0
2021-07-25 20:27:56 GMT 44.692520 -3.705270 38,000 1 433 0
2021-07-25 20:27:49 GMT 44.678146 -3.705728 38,000 1 433 0
2021-07-25 20:27:38 GMT 44.656769 -3.706345 38,000 1 433 0
2021-07-25 20:27:28 GMT 44.635822 -3.707015 38,000 1 433 0
2021-07-25 20:27:25 GMT 44.628746 -3.707149 38,000 1 433 0
2021-07-25 20:27:17 GMT 44.614151 -3.707559 38,000 0 433 -64
2021-07-25 20:27:14 GMT 44.610077 -3.707624 38,000 0 433 -64
2021-07-25 20:27:06 GMT 44.592957 -3.708017 38,000 0 433 0
2021-07-25 20:26:56 GMT 44.571671 -3.708540 38,000 1 433 0
2021-07-25 20:26:45 GMT 44.551098 -3.709092 38,000 1 432 64
2021-07-25 20:26:34 GMT 44.527908 -3.709782 38,000 1 432 0
2021-07-25 20:26:25 GMT 44.509644 -3.710371 38,000 1 432 0
2021-07-25 20:26:14 GMT 44.488495 -3.711090 38,000 1 432 0
2021-07-25 20:26:03 GMT 44.466045 -3.711838 38,000 1 433 0
2021-07-25 20:25:53 GMT 44.445702 -3.712642 38,000 1 433 0
2021-07-25 20:25:41 GMT 44.422760 -3.713510 38,000 1 433 -64
2021-07-25 20:25:32 GMT 44.403618 -3.714183 38,000 1 434 0
2021-07-25 20:25:20 GMT 44.381042 -3.715054 38,000 1 434 0
2021-07-25 20:25:10 GMT 44.360931 -3.715858 38,000 1 435 0
2021-07-25 20:24:59 GMT 44.338348 -3.716649 38,000 1 435 0
2021-07-25 20:24:48 GMT 44.316559 -3.717368 38,000 1 436 0
2021-07-25 20:24:37 GMT 44.294724 -3.718022 38,000 1 436 0
2021-07-25 20:24:27 GMT 44.274624 -3.718604 38,000 1 437 0
2021-07-25 20:24:18 GMT 44.256958 -3.719134 38,000 1 437 0
2021-07-25 20:24:14 GMT 44.246979 -3.719395 38,000 1 437 0
2021-07-25 20:24:07 GMT 44.232819 -3.719810 38,000 1 437 -64
2021-07-25 20:24:04 GMT 44.226471 -3.720049 38,000 1 437 0
2021-07-25 20:23:56 GMT 44.211823 -3.720442 38,000 1 438 64
2021-07-25 20:23:45 GMT 44.188248 -3.721172 38,000 1 438 -64
2021-07-25 20:23:38 GMT 44.173599 -3.721555 38,000 1 439 64
2021-07-25 20:23:36 GMT 44.170441 -3.721683 38,000 1 439 64
2021-07-25 20:23:25 GMT 44.147507 -3.722385 38,000 1 439 0
2021-07-25 20:23:11 GMT 44.119511 -3.723254 38,000 1 440 0
2021-07-25 20:22:53 GMT 44.082783 -3.724365 38,000 1 441 0
2021-07-25 20:22:43 GMT 44.040024 -3.725515 38,000 1 448 0
2021-07-25 20:22:32 GMT 44.040024 -3.725515 38,000 1 448 0
2021-07-25 20:22:27 GMT 44.029480 -3.725739 38,000 1 443 0
2021-07-25 20:22:23 GMT 44.021622 -3.725898 37,975 1 445 0
2021-07-25 20:22:14 GMT 44.003597 -3.726392 37,975 1 445 0
2021-07-25 20:22:08 GMT 43.990128 -3.726792 38,000 1 448 0
2021-07-25 20:22:04 GMT 43.973648 -3.727240 38,000 1 448 0
2021-07-25 20:22:00 GMT 43.973648 -3.727240 38,000 1 448 0
2021-07-25 20:21:49 GMT 43.951458 -3.727897 38,000 1 448 -64
2021-07-25 20:21:39 GMT 43.929794 -3.728581 38,000 1 448 0
2021-07-25 20:21:29 GMT 43.909515 -3.729284 38,000 1 448 0
2021-07-25 20:21:18 GMT 43.887306 -3.730055 38,000 1 449 64
2021-07-25 20:21:09 GMT 43.867355 -3.730753 38,000 1 449 0
2021-07-25 20:20:57 GMT 43.844604 -3.731583 38,000 1 449 0
2021-07-25 20:20:51 GMT 43.832748 -3.731966 38,000 1 449 0
2021-07-25 20:20:48 GMT 43.804413 -3.732988 38,000 1 449 0
2021-07-25 20:20:38 GMT 43.804413 -3.732988 38,000 1 449 0
2021-07-25 20:20:28 GMT 43.783630 -3.733755 38,000 1 449 0
2021-07-25 20:20:18 GMT 43.762363 -3.734632 38,000 1 449 0
2021-07-25 20:20:10 GMT 43.747047 -3.735286 38,000 1 449 0
2021-07-25 20:20:08 GMT 43.740829 -3.735479 38,000 1 449 0
2021-07-25 20:20:02 GMT 43.729431 -3.735863 38,000 1 449 0
2021-07-25 20:19:56 GMT 43.716183 -3.736332 38,000 1 449 0
2021-07-25 20:19:51 GMT 43.706917 -3.736594 38,000 1 449 0
2021-07-25 20:19:48 GMT 43.698166 -3.736921 38,000 1 449 0
2021-07-25 20:19:44 GMT 43.692814 -3.737052 38,000 1 449 0
2021-07-25 20:19:37 GMT 43.676605 -3.737523 38,000 1 449 0
2021-07-25 20:19:32 GMT 43.666397 -3.737843 38,000 1 449 0
2021-07-25 20:19:25 GMT 43.653198 -3.738229 38,000 1 449 0
2021-07-25 20:19:23 GMT 43.649101 -3.738360 38,000 1 449 0
2021-07-25 20:19:16 GMT 43.634342 -3.738752 38,000 1 449 0
2021-07-25 20:19:06 GMT 43.613937 -3.739248 38,000 357 446 0
2021-07-25 20:19:02 GMT 43.603340 -3.739537 38,000 1 449 0
2021-07-25 20:18:56 GMT 43.593143 -3.739733 38,000 0 448 0
2021-07-25 20:18:46 GMT 43.571365 -3.739312 38,000 357 446 0
2021-07-25 20:18:41 GMT 43.562027 -3.738545 38,000 357 446 0
2021-07-25 20:18:35 GMT 43.550224 -3.737575 38,000 357 446 0
2021-07-25 20:18:31 GMT 43.541332 -3.736856 38,000 357 446 0
2021-07-25 20:18:25 GMT 43.529182 -3.735875 38,000 357 446 0
2021-07-25 20:18:21 GMT 43.520290 -3.735155 38,000 357 446 0
2021-07-25 20:18:16 GMT 43.508884 -3.734240 38,000 357 446 0
2021-07-25 20:18:06 GMT 43.488075 -3.732540 38,000 357 446 0
2021-07-25 20:18:01 GMT 43.478207 -3.731689 38,000 357 446 0
2021-07-25 20:17:55 GMT 43.466675 -3.730689 38,000 357 446 0
2021-07-25 20:17:48 GMT 43.452602 -3.729531 38,000 357 446 0
2021-07-25 20:17:45 GMT 43.446831 -3.729008 38,000 357 446 0
2021-07-25 20:17:38 GMT 43.429096 -3.727504 38,000 357 446 0
2021-07-25 20:17:35 GMT 43.424652 -3.727112 38,000 357 446 0
2021-07-25 20:17:30 GMT 43.414013 -3.726262 38,000 357 446 0
2021-07-25 20:17:25 GMT 43.404095 -3.725412 38,000 357 446 0
2021-07-25 20:17:18 GMT 43.389862 -3.724237 38,000 357 446 0
2021-07-25 20:17:15 GMT 43.383518 -3.723711 38,000 357 447 0
2021-07-25 20:17:11 GMT 43.374573 -3.722960 38,000 357 447 0
2021-07-25 20:17:04 GMT 43.361893 -3.721938 38,000 357 447 64
2021-07-25 20:16:58 GMT 43.348663 -3.720852 38,000 357 447 0
2021-07-25 20:16:54 GMT 43.340469 -3.720213 38,000 357 447 0
2021-07-25 20:16:47 GMT 43.326874 -3.719064 38,000 357 447 0
2021-07-25 20:16:43 GMT 43.317902 -3.718361 38,000 357 447 0
2021-07-25 20:16:38 GMT 43.306381 -3.717433 38,000 357 447 0
2021-07-25 20:16:34 GMT 43.298264 -3.716764 38,000 357 447 -64
2021-07-25 20:16:30 GMT 43.291031 -3.716189 38,000 357 447 0
2021-07-25 20:16:27 GMT 43.284878 -3.715668 38,000 357 447 0
2021-07-25 20:16:23 GMT 43.277103 -3.715014 38,000 357 447 0
2021-07-25 20:16:18 GMT 43.266815 -3.714229 38,000 357 447 0
2021-07-25 20:16:12 GMT 43.254593 -3.713251 38,000 357 447 0
2021-07-25 20:16:09 GMT 43.245121 -3.712463 38,000 357 447 0
2021-07-25 20:16:02 GMT 43.234085 -3.711590 38,000 357 447 0
2021-07-25 20:15:58 GMT 43.226173 -3.710959 38,000 357 447 0
2021-07-25 20:15:53 GMT 43.214996 -3.710057 38,000 357 447 0
2021-07-25 20:15:49 GMT 43.206116 -3.709355 38,000 357 447 0
2021-07-25 20:15:43 GMT 43.193481 -3.708333 38,000 357 448 64
2021-07-25 20:15:37 GMT 43.181305 -3.707375 38,000 357 448 0
2021-07-25 20:15:32 GMT 43.171707 -3.706578 38,000 357 448 0
2021-07-25 20:15:27 GMT 43.161049 -3.705728 38,000 357 448 0
2021-07-25 20:15:23 GMT 43.150909 -3.704948 38,000 357 448 0
2021-07-25 20:15:17 GMT 43.139969 -3.704053 38,000 357 448 0
2021-07-25 20:15:12 GMT 43.129532 -3.703177 38,000 357 448 0
2021-07-25 20:15:07 GMT 43.120285 -3.702456 38,000 357 448 64
2021-07-25 20:15:02 GMT 43.108841 -3.701498 38,000 357 448 0
2021-07-25 20:14:57 GMT 43.098946 -3.700758 38,000 357 448 0
2021-07-25 20:14:52 GMT 43.088146 -3.699973 38,000 357 448 0
2021-07-25 20:14:46 GMT 43.077118 -3.699135 38,000 357 448 0
2021-07-25 20:14:41 GMT 43.066315 -3.698305 38,000 357 449 0
2021-07-25 20:14:37 GMT 43.057205 -3.697602 38,000 357 449 0
2021-07-25 20:14:32 GMT 43.044983 -3.696644 38,000 357 449 0
2021-07-25 20:14:27 GMT 43.036240 -3.695941 38,000 357 449 0
2021-07-25 20:14:21 GMT 43.024181 -3.694938 38,000 357 449 0
2021-07-25 20:14:16 GMT 43.014542 -3.694153 38,000 357 449 0
2021-07-25 20:14:11 GMT 43.002956 -3.693172 38,000 357 449 0
2021-07-25 20:14:07 GMT 42.993877 -3.692453 38,000 357 449 0
2021-07-25 20:14:00 GMT 42.981495 -3.691472 38,000 357 450 -64
2021-07-25 20:13:56 GMT 42.973068 -3.690768 38,000 357 450 0
2021-07-25 20:13:50 GMT 42.960499 -3.689771 38,000 357 450 0
2021-07-25 20:13:44 GMT 42.947983 -3.688787 38,000 357 450 0
2021-07-25 20:13:41 GMT 42.938782 -3.688085 38,000 357 450 0
2021-07-25 20:13:36 GMT 42.930588 -3.687382 38,000 357 450 0
2021-07-25 20:13:30 GMT 42.918182 -3.686371 38,000 357 450 0
2021-07-25 20:13:25 GMT 42.908779 -3.685586 38,000 357 450 0
2021-07-25 20:13:20 GMT 42.896896 -3.684508 38,000 357 450 0
2021-07-25 20:13:15 GMT 42.887741 -3.683741 38,000 357 451 0
2021-07-25 20:13:10 GMT 42.876068 -3.682719 38,000 357 451 0
2021-07-25 20:13:05 GMT 42.866604 -3.681859 38,000 357 451 0
2021-07-25 20:13:01 GMT 42.856876 -3.681074 38,000 357 451 0
2021-07-25 20:12:59 GMT 42.853523 -3.680747 38,000 357 451 0
2021-07-25 20:12:55 GMT 42.845352 -3.680037 38,000 357 451 0
2021-07-25 20:12:49 GMT 42.833084 -3.679047 38,000 357 451 0
2021-07-25 20:12:45 GMT 42.823635 -3.678327 38,000 357 452 -64
2021-07-25 20:12:39 GMT 42.811661 -3.677418 38,000 357 452 0
2021-07-25 20:12:34 GMT 42.801041 -3.676612 38,000 357 452 0
2021-07-25 20:12:30 GMT 42.793167 -3.675988 38,000 357 452 0
2021-07-25 20:12:28 GMT 42.788815 -3.675629 38,000 357 452 0
2021-07-25 20:12:25 GMT 42.779831 -3.674927 38,000 357 452 0
2021-07-25 20:12:20 GMT 42.768936 -3.674096 38,000 357 452 0
2021-07-25 20:12:13 GMT 42.758789 -3.673330 38,000 357 452 0
2021-07-25 20:12:09 GMT 42.748360 -3.672500 38,000 357 452 0
2021-07-25 20:12:03 GMT 42.737423 -3.671605 38,000 357 452 0
2021-07-25 20:12:00 GMT 42.729740 -3.671030 38,000 357 453 64
2021-07-25 20:11:53 GMT 42.716904 -3.669995 38,000 357 453 0
2021-07-25 20:11:50 GMT 42.708233 -3.669306 38,000 357 453 0
2021-07-25 20:11:43 GMT 42.694126 -3.668156 38,000 357 453 -64
2021-07-25 20:11:38 GMT 42.683990 -3.667374 38,000 357 453 0
2021-07-25 20:11:32 GMT 42.673038 -3.666495 38,000 357 453 0
2021-07-25 20:11:29 GMT 42.666321 -3.665938 38,000 357 453 0
2021-07-25 20:11:25 GMT 42.657578 -3.665251 38,000 357 454 0
2021-07-25 20:11:19 GMT 42.644623 -3.664190 38,000 357 454 0
2021-07-25 20:11:17 GMT 42.641281 -3.663940 38,000 357 454 -64
2021-07-25 20:11:12 GMT 42.629425 -3.663004 38,000 357 454 -64
2021-07-25 20:11:08 GMT 42.620853 -3.662344 38,000 357 453 64
2021-07-25 20:11:03 GMT 42.609219 -3.661449 38,000 357 453 64
2021-07-25 20:10:58 GMT 42.599209 -3.660619 38,000 357 453 0
2021-07-25 20:10:50 GMT 42.583191 -3.659384 38,000 357 453 -64
2021-07-25 20:10:47 GMT 42.577656 -3.658958 38,000 357 453 -64
2021-07-25 20:10:39 GMT 42.559219 -3.657553 38,000 357 453 0
2021-07-25 20:10:29 GMT 42.538319 -3.655892 38,000 357 452 0
2021-07-25 20:10:21 GMT 42.522491 -3.654702 38,000 357 452 -64
2021-07-25 20:10:18 GMT 42.517231 -3.654295 38,000 357 451 0
2021-07-25 20:10:11 GMT 42.500153 -3.652954 38,000 357 452 0
2021-07-25 20:10:07 GMT 42.494247 -3.652517 38,000 357 451 0
2021-07-25 20:10:00 GMT 42.479462 -3.651394 38,000 357 451 -64
2021-07-25 20:09:57 GMT 42.473419 -3.650957 38,000 357 451 -64
2021-07-25 20:09:50 GMT 42.457687 -3.649760 38,025 357 451 64
2021-07-25 20:09:47 GMT 42.453461 -3.649396 38,000 357 450 128
2021-07-25 20:09:37 GMT 42.431015 -3.647653 38,000 357 450 0
2021-07-25 20:09:28 GMT 42.412720 -3.645776 38,025 354 447 64
2021-07-25 20:09:22 GMT 42.400196 -3.643692 38,000 353 447 64
2021-07-25 20:09:18 GMT 42.391308 -3.641968 38,000 352 444 64
2021-07-25 20:09:11 GMT 42.378937 -3.639533 38,000 352 443 128
2021-07-25 20:09:07 GMT 42.370312 -3.637880 38,000 353 442 -64
2021-07-25 20:08:57 GMT 42.348816 -3.634914 38,000 357 444 64
2021-07-25 20:08:47 GMT 42.327988 -3.633478 38,000 358 444 0
2021-07-25 20:08:43 GMT 42.321030 -3.632979 38,000 358 444 0
2021-07-25 20:08:37 GMT 42.309036 -3.632230 38,000 358 445 -64
2021-07-25 20:08:30 GMT 42.293243 -3.631231 38,000 358 444 0
2021-07-25 20:08:26 GMT 42.285645 -3.630669 38,000 358 444 64
2021-07-25 20:08:23 GMT 42.279968 -3.630295 38,000 358 445 64
2021-07-25 20:08:17 GMT 42.266922 -3.629483 38,000 358 445 0
2021-07-25 20:08:12 GMT 42.257793 -3.628874 38,000 358 445 0
2021-07-25 20:08:05 GMT 42.243439 -3.627923 38,000 358 445 0
2021-07-25 20:08:02 GMT 42.237591 -3.627532 38,000 358 445 -64
2021-07-25 20:07:57 GMT 42.225037 -3.626737 38,000 358 445 -128
2021-07-25 20:07:53 GMT 42.213501 -3.625925 38,000 358 445 -64
2021-07-25 20:07:47 GMT 42.203979 -3.625301 38,000 358 446 0
2021-07-25 20:07:41 GMT 42.193085 -3.624594 38,000 358 446 0
2021-07-25 20:07:36 GMT 42.183426 -3.623928 38,000 358 447 0
2021-07-25 20:07:34 GMT 42.179352 -3.623678 38,000 358 447 0
2021-07-25 20:07:30 GMT 42.170647 -3.623125 38,000 358 448 0
2021-07-25 20:07:25 GMT 42.159569 -3.622422 38,000 358 448 -64
2021-07-25 20:07:20 GMT 42.149235 -3.621784 38,000 358 448 -64
2021-07-25 20:07:14 GMT 42.137085 -3.620953 38,000 358 449 64
2021-07-25 20:07:11 GMT 42.128052 -3.620378 38,000 358 449 64
2021-07-25 20:07:04 GMT 42.115158 -3.619484 38,000 358 449 0
2021-07-25 20:07:00 GMT 42.107300 -3.618996 38,000 358 449 64
2021-07-25 20:06:54 GMT 42.095047 -3.618207 38,000 358 449 0
2021-07-25 20:06:49 GMT 42.084869 -3.617561 38,000 358 449 0
2021-07-25 20:06:46 GMT 42.078598 -3.617124 38,000 358 449 0
2021-07-25 20:06:42 GMT 42.063995 -3.616227 38,000 358 449 0
2021-07-25 20:06:39 GMT 42.063995 -3.616227 38,000 358 449 0
2021-07-25 20:06:36 GMT 42.058411 -3.615875 38,000 358 449 0
2021-07-25 20:06:32 GMT 42.052174 -3.615524 38,000 358 449 0
2021-07-25 20:06:26 GMT 42.037170 -3.614564 38,000 358 449 -64
2021-07-25 20:06:24 GMT 42.034378 -3.614377 38,000 0 450 64
2021-07-25 20:06:19 GMT 42.021263 -3.613735 38,000 0 450 64
2021-07-25 20:06:16 GMT 42.012909 -3.613628 38,000 0 451 0
2021-07-25 20:06:14 GMT 41.995102 -3.613628 38,000 0 451 0
2021-07-25 20:06:05 GMT 41.995102 -3.613628 38,000 0 450 0
2021-07-25 20:06:02 GMT 41.988922 -3.613628 38,000 0 450 64
2021-07-25 20:05:58 GMT 41.978947 -3.613672 38,000 0 450 64
2021-07-25 20:05:55 GMT 41.973824 -3.613672 38,000 0 450 64
2021-07-25 20:05:52 GMT 41.967270 -3.613690 38,000 0 450 64
2021-07-25 20:05:44 GMT 41.949509 -3.613690 38,000 0 450 -64
2021-07-25 20:05:34 GMT 41.929413 -3.613628 38,025 0 450 0
2021-07-25 20:05:24 GMT 41.905289 -3.613503 38,000 0 449 64
2021-07-25 20:05:14 GMT 41.887253 -3.613378 38,000 0 449 128
2021-07-25 20:05:12 GMT 41.883003 -3.613352 38,000 0 449 128
2021-07-25 20:05:04 GMT 41.866940 -3.613288 38,000 0 449 0
2021-07-25 20:05:02 GMT 41.863449 -3.613316 38,000 0 449 0
2021-07-25 20:04:57 GMT 41.853302 -3.613224 38,000 0 449 64
2021-07-25 20:04:54 GMT 41.845917 -3.613254 38,000 0 449 64
2021-07-25 20:04:52 GMT 41.839428 -3.613224 38,000 0 449 64
2021-07-25 20:04:43 GMT 41.823368 -3.613224 38,000 0 449 64
2021-07-25 20:04:41 GMT 41.817032 -3.613191 38,000 0 449 0
2021-07-25 20:04:33 GMT 41.802979 -3.613191 38,000 0 448 -64
2021-07-25 20:04:30 GMT 41.795975 -3.613191 38,000 0 448 -128
2021-07-25 20:04:23 GMT 41.781006 -3.613161 38,000 0 448 -128
2021-07-25 20:04:20 GMT 41.775421 -3.613191 38,000 0 448 -64
2021-07-25 20:04:13 GMT 41.759453 -3.613097 38,000 0 447 0
2021-07-25 20:04:09 GMT 41.753677 -3.613129 38,000 0 447 0
2021-07-25 20:04:04 GMT 41.741203 -3.613033 38,000 0 447 0
2021-07-25 20:04:00 GMT 41.733215 -3.613004 38,000 0 447 0
2021-07-25 20:03:52 GMT 41.717606 -3.612941 38,000 0 446 128
2021-07-25 20:03:49 GMT 41.711243 -3.612941 38,000 0 446 64
2021-07-25 20:03:42 GMT 41.697098 -3.613004 38,000 0 446 0
2021-07-25 20:03:39 GMT 41.690697 -3.613033 38,000 0 446 128
2021-07-25 20:03:31 GMT 41.675537 -3.613066 38,000 0 446 64
2021-07-25 20:03:28 GMT 41.658188 -3.613254 38,000 0 446 -64
2021-07-25 20:03:23 GMT 41.658188 -3.613254 38,000 0 446 -64
2021-07-25 20:03:19 GMT 41.647934 -3.613378 38,000 0 446 -64
2021-07-25 20:03:12 GMT 41.634201 -3.613566 38,000 0 446 0
2021-07-25 20:03:03 GMT 41.616585 -3.613735 38,000 0 446 0
2021-07-25 20:03:01 GMT 41.613327 -3.613753 38,000 0 446 -64
2021-07-25 20:02:53 GMT 41.596241 -3.613927 38,000 0 446 -64
2021-07-25 20:02:51 GMT 41.587814 -3.613991 38,000 0 446 -64
2021-07-25 20:02:49 GMT 41.587814 -3.613991 38,000 0 446 -64
2021-07-25 20:02:46 GMT 41.581329 -3.614003 38,000 0 446 0
2021-07-25 20:02:42 GMT 41.573090 -3.614065 38,000 0 446 64
2021-07-25 20:02:40 GMT 41.569798 -3.614055 38,000 0 446 64
2021-07-25 20:02:37 GMT 41.562607 -3.614127 38,000 0 446 0
2021-07-25 20:02:33 GMT 41.555008 -3.614127 38,000 0 446 0
2021-07-25 20:02:31 GMT 41.550758 -3.614119 38,000 0 446 -64
2021-07-25 20:02:26 GMT 41.541687 -3.614127 38,000 0 446 0
2021-07-25 20:02:23 GMT 41.529251 -3.614119 38,000 0 446 64
2021-07-25 20:02:20 GMT 41.529251 -3.614119 38,000 359 446 0
2021-07-25 20:02:16 GMT 41.518982 -3.614003 38,000 0 446 0
2021-07-25 20:02:13 GMT 41.506943 -3.613753 38,000 359 446 -64
2021-07-25 20:02:10 GMT 41.506943 -3.613753 38,000 359 446 -64
2021-07-25 20:02:07 GMT 41.500809 -3.613628 38,000 359 446 0
2021-07-25 20:02:03 GMT 41.493221 -3.613416 38,000 359 446 0
2021-07-25 20:02:01 GMT 41.487400 -3.613288 38,000 359 446 64
2021-07-25 20:01:56 GMT 41.479115 -3.613097 38,000 359 446 0
2021-07-25 20:01:52 GMT 41.469990 -3.612905 38,000 359 446 0
2021-07-25 20:01:50 GMT 41.467106 -3.612841 38,000 359 446 0
2021-07-25 20:01:46 GMT 41.457748 -3.612586 38,000 359 447 64
2021-07-25 20:01:43 GMT 41.445328 -3.612317 38,000 0 447 0
2021-07-25 20:01:40 GMT 41.445328 -3.612317 38,000 0 447 0
2021-07-25 20:01:36 GMT 41.437496 -3.612139 38,000 359 447 0
2021-07-25 20:01:33 GMT 41.430237 -3.612011 38,000 0 447 0
2021-07-25 20:01:29 GMT 41.422028 -3.611818 38,000 0 447 -64
2021-07-25 20:01:26 GMT 41.416626 -3.611693 38,000 359 447 -64
2021-07-25 20:01:22 GMT 41.407845 -3.611500 38,000 359 447 0
2021-07-25 20:01:20 GMT 41.404221 -3.611381 38,000 359 447 64
2021-07-25 20:01:16 GMT 41.395660 -3.611194 38,000 359 447 128
2021-07-25 20:01:11 GMT 41.385124 -3.610944 38,000 359 446 0
2021-07-25 20:01:08 GMT 41.379684 -3.610840 38,000 359 446 -64
2021-07-25 20:01:03 GMT 41.368790 -3.610535 38,000 359 446 0
2021-07-25 20:01:00 GMT 41.360367 -3.610291 38,000 359 446 -64
2021-07-25 20:00:54 GMT 41.351761 -3.610107 38,000 359 446 0
2021-07-25 20:00:51 GMT 41.344391 -3.609863 38,000 359 446 64
2021-07-25 20:00:49 GMT 41.339996 -3.609741 38,000 359 445 -64
2021-07-25 20:00:46 GMT 41.332523 -3.609571 38,000 359 446 -64
2021-07-25 20:00:41 GMT 41.323929 -3.609314 38,000 359 445 -64
2021-07-25 20:00:39 GMT 41.319626 -3.609196 38,000 359 445 -64
2021-07-25 20:00:33 GMT 41.305893 -3.608765 38,000 359 445 0
2021-07-25 20:00:31 GMT 41.303101 -3.608634 38,000 359 444 0
2021-07-25 20:00:26 GMT 41.293743 -3.608322 38,000 359 444 0
2021-07-25 20:00:23 GMT 41.285385 -3.608032 38,000 359 444 0
2021-07-25 20:00:21 GMT 41.283035 -3.607948 38,000 359 444 128
2021-07-25 20:00:19 GMT 41.277962 -3.607760 38,000 359 444 128
2021-07-25 20:00:15 GMT 41.269821 -3.607422 38,000 359 444 128
2021-07-25 20:00:10 GMT 41.261169 -3.607056 38,000 359 444 0
2021-07-25 20:00:07 GMT 41.254871 -3.606824 38,000 359 444 -64
2021-07-25 20:00:04 GMT 41.248775 -3.606574 38,000 359 444 -64
2021-07-25 20:00:01 GMT 41.241394 -3.606262 38,000 359 444 -64
2021-07-25 19:59:57 GMT 41.231968 -3.605888 38,000 359 444 64
2021-07-25 19:59:54 GMT 41.226883 -3.605713 38,000 359 444 64
2021-07-25 19:59:51 GMT 41.220795 -3.605469 38,000 359 444 0
2021-07-25 19:59:46 GMT 41.211411 -3.605164 38,000 359 444 0
2021-07-25 19:59:42 GMT 41.202942 -3.604919 38,000 359 445 0
2021-07-25 19:59:40 GMT 41.198635 -3.604826 38,000 359 445 0
2021-07-25 19:59:37 GMT 41.190857 -3.604614 38,000 0 446 0
2021-07-25 19:59:32 GMT 41.182434 -3.604492 38,000 0 446 0
2021-07-25 19:59:25 GMT 41.167496 -3.604390 38,000 0 447 0
2021-07-25 19:59:22 GMT 41.161469 -3.604431 38,000 0 447 0
2021-07-25 19:59:17 GMT 41.152359 -3.604553 38,000 0 447 0
2021-07-25 19:59:14 GMT 41.145035 -3.604614 38,000 0 447 0
2021-07-25 19:59:11 GMT 41.139771 -3.604675 38,000 0 447 -64
2021-07-25 19:59:08 GMT 41.132401 -3.604736 38,000 0 447 -64
2021-07-25 19:59:05 GMT 41.127090 -3.604797 38,000 0 447 0
2021-07-25 19:59:02 GMT 41.120407 -3.604858 38,000 0 447 0
2021-07-25 19:58:59 GMT 41.114914 -3.604919 38,000 0 447 64
2021-07-25 19:58:56 GMT 41.107910 -3.605042 38,000 0 447 64
2021-07-25 19:58:53 GMT 41.102413 -3.605076 38,000 0 447 64
2021-07-25 19:58:50 GMT 41.092758 -3.605225 38,000 0 447 -64
2021-07-25 19:58:47 GMT 41.089939 -3.605201 38,000 0 447 -64
2021-07-25 19:58:42 GMT 41.078720 -3.605326 38,000 0 447 -64
2021-07-25 19:58:37 GMT 41.069000 -3.605408 38,000 0 447 64
2021-07-25 19:58:34 GMT 41.061077 -3.605513 38,000 0 447 64
2021-07-25 19:58:31 GMT 41.057236 -3.605530 38,000 0 447 64
2021-07-25 19:58:25 GMT 41.037552 -3.605774 38,000 0 448 64
2021-07-25 19:58:22 GMT 41.037552 -3.605774 38,000 0 448 0
2021-07-25 19:58:19 GMT 41.030548 -3.605835 38,000 0 448 0
2021-07-25 19:58:15 GMT 41.020435 -3.605950 38,000 0 448 0
2021-07-25 19:58:12 GMT 41.015873 -3.606013 38,000 0 448 0
2021-07-25 19:58:09 GMT 41.009727 -3.606137 38,000 0 448 0
2021-07-25 19:58:06 GMT 41.004593 -3.606201 38,000 0 448 -64
2021-07-25 19:58:02 GMT 40.995667 -3.606323 38,000 0 448 -128
2021-07-25 19:57:57 GMT 40.985138 -3.606445 38,000 0 448 0
2021-07-25 19:57:52 GMT 40.975204 -3.606567 38,000 0 449 64
2021-07-25 19:57:48 GMT 40.966946 -3.606699 38,000 0 449 64
2021-07-25 19:57:46 GMT 40.962479 -3.606762 38,000 0 449 0
2021-07-25 19:57:42 GMT 40.953415 -3.606873 38,000 0 449 0
2021-07-25 19:57:38 GMT 40.947350 -3.606949 38,000 0 449 0
2021-07-25 19:57:36 GMT 40.942135 -3.607011 38,000 0 449 0
2021-07-25 19:57:31 GMT 40.932404 -3.607199 38,000 0 449 -64
2021-07-25 19:57:29 GMT 40.926819 -3.607239 38,000 0 449 -64
2021-07-25 19:57:27 GMT 40.922070 -3.607323 38,000 0 449 0
2021-07-25 19:57:22 GMT 40.911644 -3.607448 38,000 0 449 64
2021-07-25 19:57:19 GMT 40.906494 -3.607544 38,000 0 449 64
2021-07-25 19:57:16 GMT 40.900795 -3.607573 38,000 0 449 64
2021-07-25 19:57:12 GMT 40.891300 -3.607698 38,000 0 449 0
2021-07-25 19:57:08 GMT 40.882969 -3.607823 38,000 0 449 0
2021-07-25 19:57:06 GMT 40.879105 -3.607823 38,000 0 448 0
2021-07-25 19:57:02 GMT 40.870304 -3.607948 38,000 0 448 0
2021-07-25 19:56:58 GMT 40.864159 -3.608010 38,000 0 448 0
2021-07-25 19:56:55 GMT 40.857826 -3.608072 38,000 0 448 0
2021-07-25 19:56:52 GMT 40.850006 -3.608135 38,000 0 448 -64
2021-07-25 19:56:48 GMT 40.840931 -3.608260 38,000 0 448 0
2021-07-25 19:56:45 GMT 40.836555 -3.608260 38,000 0 448 0
2021-07-25 19:56:41 GMT 40.829224 -3.608337 38,000 0 449 0
2021-07-25 19:56:38 GMT 40.817505 -3.608459 38,000 0 449 0
2021-07-25 19:56:36 GMT 40.817505 -3.608459 38,000 0 449 0
2021-07-25 19:56:31 GMT 40.807434 -3.608582 38,000 0 448 -64
2021-07-25 19:56:28 GMT 40.800980 -3.608643 38,000 0 448 -64
2021-07-25 19:56:25 GMT 40.794796 -3.608634 38,000 0 448 -64
2021-07-25 19:56:20 GMT 40.786324 -3.608697 38,025 0 447 -64
2021-07-25 19:56:17 GMT 40.777946 -3.608759 38,000 0 447 64
2021-07-25 19:56:13 GMT 40.769890 -3.608822 38,000 0 447 64
2021-07-25 19:56:10 GMT 40.765842 -3.608884 38,000 0 447 128
2021-07-25 19:56:06 GMT 40.753510 -3.608948 38,000 0 446 64
2021-07-25 19:55:59 GMT 40.740982 -3.609071 38,000 0 445 0
2021-07-25 19:55:57 GMT 40.737164 -3.609071 38,000 0 444 0
2021-07-25 19:55:55 GMT 40.733231 -3.609070 38,000 0 443 -128
2021-07-25 19:55:51 GMT 40.724533 -3.609131 38,000 0 442 0
2021-07-25 19:55:47 GMT 40.716404 -3.609196 38,000 0 442 0
2021-07-25 19:55:45 GMT 40.712353 -3.609258 38,000 0 442 0
2021-07-25 19:55:41 GMT 40.704487 -3.609321 38,000 0 442 0
2021-07-25 19:55:37 GMT 40.696335 -3.609375 38,000 0 442 0
2021-07-25 19:55:35 GMT 40.691711 -3.609375 38,000 0 441 64
2021-07-25 19:55:33 GMT 40.688004 -3.609436 38,000 0 441 64
2021-07-25 19:55:30 GMT 40.682373 -3.609497 38,000 0 441 64
2021-07-25 19:55:25 GMT 40.671295 -3.609571 38,000 0 440 0
2021-07-25 19:55:21 GMT 40.663376 -3.609619 38,000 0 441 -64
2021-07-25 19:55:14 GMT 40.650101 -3.609741 38,000 0 440 64
2021-07-25 19:55:11 GMT 40.640030 -3.609924 38,000 0 440 64
2021-07-25 19:55:05 GMT 40.629730 -3.610046 38,000 0 440 0
2021-07-25 19:54:59 GMT 40.617573 -3.610195 38,000 0 440 0
2021-07-25 19:54:56 GMT 40.608948 -3.610291 38,000 0 440 64
2021-07-25 19:54:54 GMT 40.608948 -3.610291 38,000 0 440 0
2021-07-25 19:54:51 GMT 40.602310 -3.610352 38,000 0 440 0
2021-07-25 19:54:44 GMT 40.587296 -3.610596 38,000 0 441 0
2021-07-25 19:54:41 GMT 40.580978 -3.610657 38,000 0 441 -64
2021-07-25 19:54:37 GMT 40.566925 -3.610840 38,000 0 441 -64
2021-07-25 19:54:34 GMT 40.566925 -3.610840 38,000 0 441 0
2021-07-25 19:54:30 GMT 40.551609 -3.611006 38,000 0 441 0
2021-07-25 19:54:26 GMT 40.551609 -3.611006 38,000 0 441 0
2021-07-25 19:54:21 GMT 40.539970 -3.611131 38,000 0 441 0
2021-07-25 19:54:17 GMT 40.533875 -3.611206 38,000 0 441 0
2021-07-25 19:54:14 GMT 40.527725 -3.611318 38,000 0 441 0
2021-07-25 19:54:11 GMT 40.519958 -3.611450 38,000 0 441 0
2021-07-25 19:54:06 GMT 40.503616 -3.611694 38,000 0 440 -128
2021-07-25 19:54:02 GMT 40.499935 -3.611755 38,000 0 441 0
2021-07-25 19:53:59 GMT 40.495697 -3.611816 38,000 0 441 0
2021-07-25 19:53:51 GMT 40.478519 -3.612130 38,000 0 440 -64
2021-07-25 19:53:43 GMT 40.461857 -3.612442 38,000 0 440 -64
2021-07-25 19:53:40 GMT 40.451614 -3.612629 38,000 0 440 0
2021-07-25 19:53:36 GMT 40.447586 -3.612671 38,000 0 440 128
2021-07-25 19:53:31 GMT 40.438156 -3.612793 38,000 0 440 64
2021-07-25 19:53:28 GMT 40.433319 -3.612879 38,000 0 440 -64
2021-07-25 19:53:25 GMT 40.427582 -3.612915 38,000 0 440 64
2021-07-25 19:53:20 GMT 40.417912 -3.613004 38,000 0 440 64
2021-07-25 19:53:16 GMT 40.409435 -3.613066 38,000 0 440 64
2021-07-25 19:53:10 GMT 40.397232 -3.613220 38,000 0 440 -64
2021-07-25 19:53:08 GMT 40.393021 -3.613220 38,000 0 440 0
2021-07-25 19:53:01 GMT 40.372513 -3.613464 38,000 0 440 -128
2021-07-25 19:52:54 GMT 40.354923 -3.613628 38,000 0 440 64
2021-07-25 19:52:48 GMT 40.345753 -3.613690 38,000 0 441 64
2021-07-25 19:52:43 GMT 40.340103 -3.613770 38,000 0 441 0
2021-07-25 19:52:40 GMT 40.336075 -3.613770 38,000 0 441 0
2021-07-25 19:52:35 GMT 40.323669 -3.613892 38,000 0 441 -64
2021-07-25 19:52:30 GMT 40.314842 -3.614003 38,000 0 441 -64
2021-07-25 19:52:27 GMT 40.309937 -3.614014 38,000 0 441 0
2021-07-25 19:52:22 GMT 40.293091 -3.614197 38,000 0 442 128
2021-07-25 19:52:18 GMT 40.289795 -3.614197 38,000 0 442 128
2021-07-25 19:52:14 GMT 40.282333 -3.614319 38,000 0 442 64
2021-07-25 19:52:09 GMT 40.273224 -3.614380 38,000 0 442 -64
2021-07-25 19:52:07 GMT 40.268848 -3.614440 38,000 0 442 -128
2021-07-25 19:52:04 GMT 40.261780 -3.614502 38,000 0 442 -64
2021-07-25 19:51:56 GMT 40.238914 -3.614752 38,000 0 442 128
2021-07-25 19:51:49 GMT 40.232208 -3.614807 38,000 0 442 128
2021-07-25 19:51:44 GMT 40.221863 -3.614929 38,000 0 442 0
2021-07-25 19:51:40 GMT 40.212021 -3.615051 38,000 0 442 -64
2021-07-25 19:51:37 GMT 40.205841 -3.615112 38,000 0 442 0
2021-07-25 19:51:30 GMT 40.191101 -3.615234 38,000 0 443 0
2021-07-25 19:51:27 GMT 40.185654 -3.615234 38,000 0 443 0
2021-07-25 19:51:19 GMT 40.170345 -3.615438 38,000 0 443 0
2021-07-25 19:51:16 GMT 40.164185 -3.615479 38,000 0 443 0
2021-07-25 19:51:10 GMT 40.150864 -3.615601 38,000 0 443 -64
2021-07-25 19:51:07 GMT 40.144547 -3.615662 38,000 0 443 -64
2021-07-25 19:51:02 GMT 40.135483 -3.615723 38,000 0 443 -64
2021-07-25 19:50:59 GMT 40.128773 -3.615813 38,000 0 443 -64
2021-07-25 19:50:56 GMT 40.123234 -3.615875 38,000 0 444 0
2021-07-25 19:50:52 GMT 40.114929 -3.615967 38,000 0 444 64
2021-07-25 19:50:49 GMT 40.107639 -3.616000 38,000 0 444 64
2021-07-25 19:50:46 GMT 40.102707 -3.616028 38,000 0 444 64
2021-07-25 19:50:43 GMT 40.095566 -3.616150 38,000 0 444 64
2021-07-25 19:50:38 GMT 40.072861 -3.616394 38,000 0 445 0
2021-07-25 19:50:33 GMT 40.072861 -3.616394 38,000 0 445 0
2021-07-25 19:50:29 GMT 40.060902 -3.616562 38,000 0 445 0
2021-07-25 19:50:26 GMT 40.060902 -3.616562 38,000 0 445 -128
2021-07-25 19:50:22 GMT 40.052490 -3.616699 38,000 0 445 -128
2021-07-25 19:50:19 GMT 40.044144 -3.616812 38,000 0 445 -64
2021-07-25 19:50:15 GMT 40.039169 -3.616943 38,000 0 445 0
2021-07-25 19:50:10 GMT 40.026672 -3.617065 38,000 0 445 0
2021-07-25 19:50:08 GMT 40.023426 -3.617124 38,000 0 445 0
2021-07-25 19:50:05 GMT 40.018909 -3.617186 38,000 0 445 64
2021-07-25 19:49:59 GMT 40.006016 -3.617311 38,000 0 445 0
2021-07-25 19:49:56 GMT 39.998383 -3.617371 38,000 0 445 0
2021-07-25 19:49:50 GMT 39.986046 -3.617436 38,000 0 445 0
2021-07-25 19:49:48 GMT 39.982727 -3.617432 38,000 0 445 -64
2021-07-25 19:49:45 GMT 39.977573 -3.617498 38,000 0 445 0
2021-07-25 19:49:40 GMT 39.962860 -3.617554 38,000 0 446 0
2021-07-25 19:49:38 GMT 39.956299 -3.617623 38,000 0 446 0
2021-07-25 19:49:35 GMT 39.956299 -3.617623 38,000 0 446 64
2021-07-25 19:49:31 GMT 39.948292 -3.617685 38,000 0 446 0
2021-07-25 19:49:28 GMT 39.943863 -3.617737 38,000 0 446 -64
2021-07-25 19:49:25 GMT 39.934891 -3.617798 38,000 0 446 -64
2021-07-25 19:49:22 GMT 39.927933 -3.617859 38,000 0 446 0
2021-07-25 19:49:19 GMT 39.923805 -3.617935 38,000 0 446 0
2021-07-25 19:49:17 GMT 39.918449 -3.617981 38,000 0 446 64
2021-07-25 19:49:14 GMT 39.914028 -3.617981 38,000 0 446 64
2021-07-25 19:49:09 GMT 39.903076 -3.618084 38,000 0 446 0
2021-07-25 19:49:05 GMT 39.893600 -3.618204 38,000 0 447 0
2021-07-25 19:48:59 GMT 39.881302 -3.618286 38,000 0 447 64
2021-07-25 19:48:54 GMT 39.865616 -3.618469 38,000 0 447 0
2021-07-25 19:48:49 GMT 39.861610 -3.618469 38,000 0 448 0
2021-07-25 19:48:47 GMT 39.855091 -3.618530 38,000 0 448 0
2021-07-25 19:48:44 GMT 39.850937 -3.618562 38,000 0 448 0
2021-07-25 19:48:39 GMT 39.838661 -3.618713 38,000 0 448 0
2021-07-25 19:48:36 GMT 39.834332 -3.618713 38,000 0 448 0
2021-07-25 19:48:33 GMT 39.827637 -3.618801 38,000 0 448 0
2021-07-25 19:48:29 GMT 39.819946 -3.618896 38,000 0 448 0
2021-07-25 19:48:27 GMT 39.814911 -3.618920 38,000 0 448 0
2021-07-25 19:48:24 GMT 39.808777 -3.619040 38,000 0 448 0
2021-07-25 19:48:19 GMT 39.799118 -3.619159 38,000 0 448 0
2021-07-25 19:48:17 GMT 39.794342 -3.619202 38,000 0 448 0
2021-07-25 19:48:14 GMT 39.788242 -3.619263 38,000 0 448 0
2021-07-25 19:48:07 GMT 39.771561 -3.619517 38,000 0 448 0
2021-07-25 19:48:03 GMT 39.767166 -3.619577 38,000 0 448 0
2021-07-25 19:47:59 GMT 39.757324 -3.619756 38,000 0 448 0
2021-07-25 19:47:56 GMT 39.749001 -3.619873 38,000 0 448 0
2021-07-25 19:47:53 GMT 39.746109 -3.619876 38,000 0 448 0
2021-07-25 19:47:48 GMT 39.734383 -3.620056 38,000 0 448 0
2021-07-25 19:47:44 GMT 39.725212 -3.620178 38,000 0 448 0
2021-07-25 19:47:39 GMT 39.716171 -3.620294 38,000 0 448 0
2021-07-25 19:47:36 GMT 39.709305 -3.620353 38,000 0 448 0
2021-07-25 19:47:33 GMT 39.703892 -3.620422 38,000 0 448 0
2021-07-25 19:47:29 GMT 39.694767 -3.620544 38,000 0 448 0
2021-07-25 19:47:26 GMT 39.688889 -3.620592 38,000 0 448 0
2021-07-25 19:47:23 GMT 39.682617 -3.620667 38,000 0 448 0
2021-07-25 19:47:19 GMT 39.674332 -3.620771 38,000 0 448 0
2021-07-25 19:47:17 GMT 39.661606 -3.620891 38,000 0 448 0
2021-07-25 19:47:13 GMT 39.661606 -3.620891 38,000 0 448 64
2021-07-25 19:47:09 GMT 39.653320 -3.621010 38,000 0 448 64
2021-07-25 19:47:05 GMT 39.646729 -3.621130 38,000 0 448 64
2021-07-25 19:47:02 GMT 39.640533 -3.621155 38,000 0 448 64
2021-07-25 19:46:59 GMT 39.632446 -3.621249 38,000 0 448 0
2021-07-25 19:46:55 GMT 39.625637 -3.621338 38,000 0 448 0
2021-07-25 19:46:52 GMT 39.618793 -3.621399 38,000 0 447 0
2021-07-25 19:46:47 GMT 39.610645 -3.621460 38,000 0 447 0
2021-07-25 19:46:45 GMT 39.604084 -3.621521 38,000 0 447 0
2021-07-25 19:46:41 GMT 39.595596 -3.621607 38,000 0 447 0
2021-07-25 19:46:38 GMT 39.590816 -3.621643 38,000 0 447 0
2021-07-25 19:46:36 GMT 39.584579 -3.621704 38,000 0 447 0
2021-07-25 19:46:33 GMT 39.577038 -3.621826 38,000 0 447 -64
2021-07-25 19:46:30 GMT 39.573219 -3.621826 38,000 0 447 0
2021-07-25 19:46:27 GMT 39.569168 -3.621887 38,000 0 447 0
2021-07-25 19:46:25 GMT 39.556778 -3.622025 38,000 0 447 0
2021-07-25 19:46:22 GMT 39.556778 -3.622025 38,000 0 447 0
2021-07-25 19:46:18 GMT 39.548874 -3.622131 38,000 0 447 0
2021-07-25 19:46:14 GMT 39.541515 -3.622192 38,000 0 447 0
2021-07-25 19:46:11 GMT 39.535000 -3.622253 38,000 0 447 0
2021-07-25 19:46:07 GMT 39.521393 -3.622383 38,000 0 447 0
2021-07-25 19:46:05 GMT 39.521393 -3.622383 38,000 0 447 0
2021-07-25 19:46:02 GMT 39.514984 -3.622443 38,000 0 447 0
2021-07-25 19:45:58 GMT 39.507908 -3.622498 38,000 0 447 0
2021-07-25 19:45:55 GMT 39.499878 -3.622563 38,000 0 447 64
2021-07-25 19:45:52 GMT 39.493988 -3.622620 38,000 0 447 0
2021-07-25 19:45:47 GMT 39.485458 -3.622682 38,000 0 447 0
2021-07-25 19:45:42 GMT 39.472778 -3.622801 38,000 0 447 0
2021-07-25 19:45:38 GMT 39.466232 -3.622921 38,000 0 447 0
2021-07-25 19:45:34 GMT 39.456932 -3.622986 38,000 0 447 0
2021-07-25 19:45:31 GMT 39.451530 -3.623047 38,000 0 448 0
2021-07-25 19:45:28 GMT 39.445679 -3.623160 38,000 0 448 0
2021-07-25 19:45:24 GMT 39.436543 -3.623230 38,000 0 448 0
2021-07-25 19:45:21 GMT 39.430344 -3.623339 38,000 0 448 -64
2021-07-25 19:45:18 GMT 39.425045 -3.623352 38,000 0 448 -64
2021-07-25 19:45:14 GMT 39.416107 -3.623458 38,000 0 448 -64
2021-07-25 19:45:11 GMT 39.409103 -3.623578 38,000 0 448 0
2021-07-25 19:45:08 GMT 39.401211 -3.623657 38,000 0 448 0
2021-07-25 19:45:03 GMT 39.393665 -3.623718 38,000 0 448 0
2021-07-25 19:45:00 GMT 39.387955 -3.623757 38,000 0 448 0
2021-07-25 19:44:57 GMT 39.381565 -3.623840 38,000 0 448 0
2021-07-25 19:44:53 GMT 39.372757 -3.623936 38,000 0 448 0
2021-07-25 19:44:50 GMT 39.367271 -3.623962 38,000 0 448 0
2021-07-25 19:44:47 GMT 39.351837 -3.624115 38,000 0 448 0
2021-07-25 19:44:43 GMT 39.351837 -3.624115 38,000 0 448 0
2021-07-25 19:44:40 GMT 39.344929 -3.624146 38,000 0 448 0
2021-07-25 19:44:37 GMT 39.339390 -3.624207 38,000 0 448 0
2021-07-25 19:44:33 GMT 39.329750 -3.624329 38,000 0 448 0
2021-07-25 19:44:30 GMT 39.324875 -3.624414 38,000 0 448 0
2021-07-25 19:44:25 GMT 39.313831 -3.624512 38,000 0 448 0
2021-07-25 19:44:23 GMT 39.309502 -3.624573 38,000 0 448 0
2021-07-25 19:44:20 GMT 39.304146 -3.624695 38,000 0 448 0
2021-07-25 19:44:17 GMT 39.298885 -3.624756 38,000 0 448 0
2021-07-25 19:44:12 GMT 39.287109 -3.624891 38,000 0 447 0
2021-07-25 19:44:08 GMT 39.279194 -3.625000 38,000 0 447 64
2021-07-25 19:44:06 GMT 39.275146 -3.625061 38,000 0 446 0
2021-07-25 19:44:01 GMT 39.265869 -3.625249 38,000 0 447 64
2021-07-25 19:43:58 GMT 39.258270 -3.625309 38,000 0 447 0
2021-07-25 19:43:52 GMT 39.245316 -3.625488 38,000 0 447 0
2021-07-25 19:43:48 GMT 39.238037 -3.625548 38,000 0 447 0
2021-07-25 19:43:41 GMT 39.223801 -3.625727 38,000 0 446 0
2021-07-25 19:43:38 GMT 39.217373 -3.625854 38,000 0 446 0
2021-07-25 19:43:31 GMT 39.202618 -3.626038 38,000 0 446 0
2021-07-25 19:43:28 GMT 39.196472 -3.626085 38,000 0 446 0
2021-07-25 19:43:20 GMT 39.180134 -3.626282 38,000 0 446 -64
2021-07-25 19:43:17 GMT 39.173492 -3.626384 38,000 0 446 -64
2021-07-25 19:43:11 GMT 39.160446 -3.626503 38,000 0 446 0
2021-07-25 19:43:08 GMT 39.154297 -3.626587 38,000 0 446 0
2021-07-25 19:42:58 GMT 39.133942 -3.626862 38,000 0 446 0
2021-07-25 19:42:50 GMT 39.118217 -3.627014 38,000 0 446 -64
2021-07-25 19:42:47 GMT 39.111328 -3.627100 38,000 0 446 0
2021-07-25 19:42:41 GMT 39.100845 -3.627220 38,000 0 446 64
2021-07-25 19:42:37 GMT 39.090611 -3.627319 38,000 0 445 64
2021-07-25 19:42:28 GMT 39.072365 -3.627502 38,000 0 445 0
2021-07-25 19:42:22 GMT 39.057838 -3.627625 38,000 0 445 0
2021-07-25 19:42:18 GMT 39.051414 -3.627686 38,000 0 445 0
2021-07-25 19:42:09 GMT 39.034012 -3.627817 38,000 0 445 0
2021-07-25 19:42:06 GMT 39.029022 -3.627877 38,000 0 445 0
2021-07-25 19:42:01 GMT 39.017155 -3.627991 38,000 0 445 0
2021-07-25 19:41:57 GMT 39.008652 -3.627996 38,000 0 445 0
2021-07-25 19:41:49 GMT 38.993969 -3.628113 38,000 0 444 0
2021-07-25 19:41:46 GMT 38.987125 -3.628113 38,000 0 444 0
2021-07-25 19:41:38 GMT 38.969833 -3.628235 38,000 0 444 0
2021-07-25 19:41:35 GMT 38.964733 -3.628235 38,000 0 444 0
2021-07-25 19:41:32 GMT 38.958496 -3.628296 38,000 0 444 0
2021-07-25 19:41:29 GMT 38.952072 -3.628295 38,000 0 444 0
2021-07-25 19:41:26 GMT 38.945461 -3.628357 38,000 0 444 64
2021-07-25 19:41:18 GMT 38.927444 -3.628354 38,000 0 443 0
2021-07-25 19:41:15 GMT 38.923817 -3.628418 38,000 0 443 0
2021-07-25 19:41:11 GMT 38.906250 -3.628414 38,000 0 443 0
2021-07-25 19:41:07 GMT 38.906250 -3.628414 38,000 0 443 0
2021-07-25 19:41:03 GMT 38.899338 -3.628414 38,000 0 444 -64
2021-07-25 19:40:58 GMT 38.886665 -3.628479 38,000 2 445 -64
2021-07-25 19:40:55 GMT 38.870838 -3.629517 38,000 22 464 64
2021-07-25 19:40:50 GMT 38.870838 -3.629517 38,000 4 447 0
2021-07-25 19:40:47 GMT 38.865875 -3.630086 38,000 6 448 0
2021-07-25 19:40:44 GMT 38.860130 -3.630920 38,000 7 449 0
2021-07-25 19:40:37 GMT 38.839603 -3.635071 38,000 12 454 0
2021-07-25 19:40:34 GMT 38.839603 -3.635071 38,000 11 454 0
2021-07-25 19:40:30 GMT 38.830246 -3.637634 38,000 13 455 0
2021-07-25 19:40:27 GMT 38.823589 -3.639771 38,000 15 458 -64
2021-07-25 19:40:23 GMT 38.816189 -3.642456 38,000 16 458 -64
2021-07-25 19:40:20 GMT 38.807968 -3.645729 38,000 19 461 0
2021-07-25 19:40:17 GMT 38.802704 -3.648118 38,000 20 462 64
2021-07-25 19:40:14 GMT 38.797844 -3.650452 38,000 21 463 64
2021-07-25 19:40:11 GMT 38.791515 -3.653687 38,000 22 464 64
2021-07-25 19:40:06 GMT 38.781830 -3.658875 38,000 22 464 64
2021-07-25 19:40:03 GMT 38.768280 -3.666150 38,000 22 464 0
2021-07-25 19:40:00 GMT 38.768280 -3.666150 38,000 22 464 0
2021-07-25 19:39:56 GMT 38.761955 -3.669495 38,000 22 463 0
2021-07-25 19:39:53 GMT 38.756878 -3.672241 38,000 22 463 0
2021-07-25 19:39:50 GMT 38.750839 -3.675464 38,000 22 463 0
2021-07-25 19:39:45 GMT 38.738434 -3.682092 38,000 22 463 0
2021-07-25 19:39:41 GMT 38.732025 -3.685555 38,000 22 463 0
2021-07-25 19:39:37 GMT 38.724060 -3.689794 38,000 22 463 0
2021-07-25 19:39:34 GMT 38.718102 -3.692932 38,000 22 463 0
2021-07-25 19:39:30 GMT 38.710648 -3.696899 38,000 22 463 0
2021-07-25 19:39:24 GMT 38.698654 -3.703288 38,000 22 463 0
2021-07-25 19:39:20 GMT 38.690449 -3.707642 38,000 22 463 0
2021-07-25 19:39:15 GMT 38.680489 -3.712952 38,000 22 462 0
2021-07-25 19:39:10 GMT 38.670685 -3.718156 38,000 22 462 0
2021-07-25 19:39:04 GMT 38.657730 -3.725022 38,000 22 462 0
2021-07-25 19:39:01 GMT 38.652088 -3.728027 38,000 22 462 0
2021-07-25 19:38:53 GMT 38.637196 -3.735962 38,000 22 462 0
2021-07-25 19:38:49 GMT 38.629372 -3.740051 38,000 22 462 0
2021-07-25 19:38:45 GMT 38.621647 -3.744202 38,000 22 462 0
2021-07-25 19:38:42 GMT 38.614746 -3.747890 38,000 22 462 0
2021-07-25 19:38:39 GMT 38.610306 -3.750219 38,000 22 462 0
2021-07-25 19:38:36 GMT 38.597488 -3.757026 38,000 22 462 -64
2021-07-25 19:38:33 GMT 38.597488 -3.757026 38,000 22 462 -192
2021-07-25 19:38:29 GMT 38.590576 -3.760728 38,025 22 460 384
2021-07-25 19:38:23 GMT 38.575932 -3.768494 38,000 22 460 448
2021-07-25 19:38:19 GMT 38.571602 -3.770813 38,000 22 460 640
2021-07-25 19:38:15 GMT 38.562340 -3.775696 37,950 22 459 640
2021-07-25 19:38:12 GMT 38.557217 -3.778442 37,900 22 459 768
2021-07-25 19:38:09 GMT 38.550430 -3.782043 37,875 22 459 896
2021-07-25 19:38:03 GMT 38.529331 -3.793213 37,750 22 459 896
2021-07-25 19:37:58 GMT 38.529331 -3.793213 37,725 22 459 896
2021-07-25 19:37:55 GMT 38.523235 -3.796448 37,650 22 459 960
2021-07-25 19:37:50 GMT 38.512482 -3.802124 37,575 22 460 960
2021-07-25 19:37:44 GMT 38.501816 -3.807778 37,475 22 460 960
2021-07-25 19:37:40 GMT 38.494370 -3.811707 37,400 22 460 960
2021-07-25 19:37:37 GMT 38.488461 -3.814819 37,375 22 461 960
2021-07-25 19:37:31 GMT 38.476410 -3.821152 37,300 22 461 960
2021-07-25 19:37:27 GMT 38.468765 -3.825213 37,225 22 460 896
2021-07-25 19:37:24 GMT 38.462017 -3.828796 37,175 22 460 832
2021-07-25 19:37:20 GMT 38.455547 -3.832214 37,125 22 460 896
2021-07-25 19:37:17 GMT 38.448486 -3.835900 37,075 22 460 960
2021-07-25 19:37:14 GMT 38.443584 -3.838501 36,925 22 460 1152
2021-07-25 19:37:11 GMT 38.436180 -3.842407 36,950 22 460 1280
2021-07-25 19:37:08 GMT 38.431015 -3.845154 36,850 22 461 1408
2021-07-25 19:37:04 GMT 38.423798 -3.848938 36,800 22 461 1344
2021-07-25 19:37:01 GMT 38.416626 -3.852738 36,725 22 461 1280
2021-07-25 19:36:58 GMT 38.412506 -3.854947 36,700 22 461 1216
2021-07-25 19:36:54 GMT 38.401314 -3.860858 36,575 22 462 1344
2021-07-25 19:36:51 GMT 38.395248 -3.864090 36,450 22 462 1472
2021-07-25 19:36:46 GMT 38.387558 -3.868123 36,400 22 463 1344
2021-07-25 19:36:43 GMT 38.381699 -3.871220 36,325 22 463 1344
2021-07-25 19:36:39 GMT 38.371193 -3.876801 36,200 22 464 1344
2021-07-25 19:36:34 GMT 38.363434 -3.880862 36,100 22 464 1408
2021-07-25 19:36:31 GMT 38.357712 -3.883901 36,000 22 465 1408
2021-07-25 19:36:28 GMT 38.351212 -3.887290 35,975 22 465 1472
2021-07-25 19:36:21 GMT 38.331619 -3.897575 35,775 22 466 1408
2021-07-25 19:36:18 GMT 38.331619 -3.897575 35,725 22 466 1344
2021-07-25 19:36:14 GMT 38.323429 -3.901878 35,650 22 466 1280
2021-07-25 19:36:10 GMT 38.315239 -3.906177 35,550 22 466 1216
2021-07-25 19:36:07 GMT 38.310425 -3.908737 35,500 22 466 1216
2021-07-25 19:36:03 GMT 38.294678 -3.916977 35,400 22 466 1152
2021-07-25 19:36:00 GMT 38.294678 -3.916977 35,350 22 466 1152
2021-07-25 19:35:57 GMT 38.289734 -3.919606 35,300 22 466 1152
2021-07-25 19:35:53 GMT 38.282047 -3.923612 35,200 22 466 1152
2021-07-25 19:35:50 GMT 38.275864 -3.926853 35,175 22 465 1152
2021-07-25 19:35:47 GMT 38.271149 -3.929307 35,125 22 465 1152
2021-07-25 19:35:43 GMT 38.260345 -3.934975 35,000 22 465 1216
2021-07-25 19:35:38 GMT 38.250717 -3.940032 34,900 22 465 1280
2021-07-25 19:35:33 GMT 38.234890 -3.948331 34,775 22 465 1280
2021-07-25 19:35:30 GMT 38.234890 -3.948331 34,650 22 465 1472
2021-07-25 19:35:27 GMT 38.230793 -3.950481 34,650 22 465 1472
2021-07-25 19:35:23 GMT 38.221848 -3.955137 34,575 22 465 1472
2021-07-25 19:35:17 GMT 38.210495 -3.961109 34,450 22 465 1472
2021-07-25 19:35:12 GMT 38.200470 -3.966357 34,325 22 465 1472
2021-07-25 19:35:07 GMT 38.189873 -3.971856 34,175 22 465 1600
2021-07-25 19:35:01 GMT 38.178955 -3.977577 34,025 22 466 1664
2021-07-25 19:34:57 GMT 38.169937 -3.982310 33,900 22 466 1664
2021-07-25 19:34:52 GMT 38.159847 -3.987619 33,725 22 466 1600
2021-07-25 19:34:46 GMT 38.149521 -3.993004 33,650 22 467 1536
2021-07-25 19:34:43 GMT 38.143555 -3.996098 33,550 22 467 1536
2021-07-25 19:34:40 GMT 38.137920 -3.999023 33,500 22 467 1600
2021-07-25 19:34:36 GMT 38.126282 -4.005173 33,325 22 467 1600
2021-07-25 19:34:31 GMT 38.119217 -4.008841 33,250 22 467 1472
2021-07-25 19:34:28 GMT 38.110840 -4.013224 33,150 22 467 1600
2021-07-25 19:34:24 GMT 38.104729 -4.016458 33,050 22 467 1600
2021-07-25 19:34:21 GMT 38.098846 -4.019535 32,975 22 468 1664
2021-07-25 19:34:16 GMT 38.089691 -4.024327 32,675 22 468 1728
2021-07-25 19:34:11 GMT 38.078148 -4.030311 32,675 22 469 1792
2021-07-25 19:34:08 GMT 38.070885 -4.034132 32,575 22 469 1856
2021-07-25 19:34:05 GMT 38.066837 -4.036222 32,500 22 469 1856
2021-07-25 19:34:01 GMT 38.057106 -4.041357 32,350 22 470 1920
2021-07-25 19:33:56 GMT 38.047890 -4.046133 32,200 22 471 1920
2021-07-25 19:33:50 GMT 38.036671 -4.051985 32,025 22 472 1792
2021-07-25 19:33:46 GMT 38.028763 -4.056117 31,900 22 472 1728
2021-07-25 19:33:40 GMT 38.016678 -4.062370 31,750 22 472 1792
2021-07-25 19:33:37 GMT 37.995941 -4.073181 31,500 22 473 1856
2021-07-25 19:33:30 GMT 37.995941 -4.073181 31,425 22 473 1728
2021-07-25 19:33:25 GMT 37.986717 -4.077958 31,325 22 473 1344
2021-07-25 19:33:20 GMT 37.975662 -4.083700 31,200 22 472 1216
2021-07-25 19:33:16 GMT 37.967606 -4.087908 31,125 22 471 1344
2021-07-25 19:33:10 GMT 37.955246 -4.094336 31,000 22 470 1280
2021-07-25 19:33:05 GMT 37.946365 -4.098952 30,900 22 469 1344
2021-07-25 19:32:59 GMT 37.933510 -4.105662 30,750 22 468 1280
2021-07-25 19:32:55 GMT 37.926575 -4.109245 30,675 22 468 1344
2021-07-25 19:32:49 GMT 37.914413 -4.115549 30,550 22 467 1408
2021-07-25 19:32:45 GMT 37.905579 -4.120172 30,425 22 466 1408
2021-07-25 19:32:39 GMT 37.893055 -4.126680 30,300 22 465 1472
2021-07-25 19:32:35 GMT 37.885796 -4.130441 30,200 22 465 1472
2021-07-25 19:32:29 GMT 37.873444 -4.136878 30,050 22 464 1408
2021-07-25 19:32:25 GMT 37.865124 -4.141189 29,950 22 462 1472
2021-07-25 19:32:19 GMT 37.854034 -4.146930 29,825 22 461 1536
2021-07-25 19:32:14 GMT 37.843872 -4.152189 29,675 22 460 1536
2021-07-25 19:32:09 GMT 37.834122 -4.157215 29,550 22 459 1536
2021-07-25 19:32:05 GMT 37.824951 -4.162027 29,425 22 458 1664
2021-07-25 19:31:59 GMT 37.814117 -4.167617 29,275 22 457 1664
2021-07-25 19:31:54 GMT 37.805283 -4.172233 29,150 22 456 1600
2021-07-25 19:31:48 GMT 37.792374 -4.178895 29,000 22 456 1728
2021-07-25 19:31:44 GMT 37.784821 -4.182806 28,850 22 456 1728
2021-07-25 19:31:40 GMT 37.776348 -4.187164 28,725 22 455 1664
2021-07-25 19:31:38 GMT 37.773834 -4.188479 28,675 22 455 1728
2021-07-25 19:31:33 GMT 37.764633 -4.193271 28,550 22 454 1728
2021-07-25 19:31:30 GMT 37.756943 -4.197245 28,425 22 454 1728
2021-07-25 19:31:28 GMT 37.754333 -4.198589 28,025 22 452 1792
2021-07-25 19:31:24 GMT 37.745453 -4.203206 28,275 22 452 1792
2021-07-25 19:31:20 GMT 37.736874 -4.207644 28,125 22 452 1792
2021-07-25 19:31:18 GMT 37.734592 -4.208779 28,025 22 452 1792
2021-07-25 19:31:14 GMT 37.725632 -4.213432 27,975 22 452 1792
2021-07-25 19:31:09 GMT 37.717896 -4.217464 27,850 22 452 1792
2021-07-25 19:31:07 GMT 37.714108 -4.219407 27,800 22 451 1792
2021-07-25 19:31:03 GMT 37.705265 -4.223945 27,650 22 450 1792
2021-07-25 19:30:59 GMT 37.698349 -4.227516 27,550 22 450 1728
2021-07-25 19:30:57 GMT 37.694557 -4.229497 27,500 22 449 1728
2021-07-25 19:30:52 GMT 37.685291 -4.234274 27,350 22 448 1792
2021-07-25 19:30:47 GMT 37.674213 -4.239946 27,175 22 447 1856
2021-07-25 19:30:42 GMT 37.666252 -4.244066 27,050 22 447 1792
2021-07-25 19:30:39 GMT 37.660156 -4.247231 26,950 22 446 1792
2021-07-25 19:30:36 GMT 37.654102 -4.250336 26,850 22 445 1728
2021-07-25 19:30:33 GMT 37.646702 -4.254157 26,750 22 445 1792
2021-07-25 19:30:29 GMT 37.641163 -4.256963 26,650 22 444 1856
2021-07-25 19:30:27 GMT 37.636089 -4.259590 26,575 22 444 1920
2021-07-25 19:30:22 GMT 37.626499 -4.264546 26,400 22 443 1920
2021-07-25 19:30:19 GMT 37.621078 -4.267370 26,325 22 441 1792
2021-07-25 19:30:17 GMT 37.617188 -4.269299 26,250 22 441 1728
2021-07-25 19:30:12 GMT 37.607483 -4.274324 26,125 22 439 1664
2021-07-25 19:30:09 GMT 37.602898 -4.276667 26,050 22 438 1728
2021-07-25 19:30:07 GMT 37.598103 -4.279115 25,975 22 438 1856
2021-07-25 19:29:59 GMT 37.583763 -4.286519 25,725 22 437 1920
2021-07-25 19:29:56 GMT 37.579201 -4.288848 25,650 22 436 1792
2021-07-25 19:29:52 GMT 37.569099 -4.294042 25,500 22 435 1728
2021-07-25 19:29:49 GMT 37.565422 -4.295953 25,425 22 434 1728
2021-07-25 19:29:46 GMT 37.559555 -4.298938 25,325 22 433 1792
2021-07-25 19:29:41 GMT 37.549713 -4.304011 25,175 22 432 1984
2021-07-25 19:29:38 GMT 37.545822 -4.305984 25,100 22 432 1984
2021-07-25 19:29:36 GMT 37.541336 -4.308335 25,025 22 431 2048
2021-07-25 19:29:29 GMT 37.527435 -4.315418 24,775 22 430 1920
2021-07-25 19:29:26 GMT 37.521896 -4.318284 24,675 22 429 1920
2021-07-25 19:29:19 GMT 37.509247 -4.324815 24,450 22 427 2112
2021-07-25 19:29:15 GMT 37.503067 -4.327970 24,325 22 427 2048
2021-07-25 19:29:09 GMT 37.491348 -4.333990 24,100 22 425 2048
2021-07-25 19:29:06 GMT 37.485352 -4.337087 24,000 22 425 2048
2021-07-25 19:28:59 GMT 37.473083 -4.343340 23,750 22 423 2176
2021-07-25 19:28:55 GMT 37.465302 -4.347313 23,600 22 423 2176
2021-07-25 19:28:49 GMT 37.454956 -4.352631 23,400 22 422 1984
2021-07-25 19:28:45 GMT 37.448528 -4.355960 23,300 22 421 2048
2021-07-25 19:28:39 GMT 37.436703 -4.361990 23,050 22 419 2304
2021-07-25 19:28:35 GMT 37.429165 -4.365871 22,900 22 419 2240
2021-07-25 19:28:29 GMT 37.418335 -4.371390 22,675 22 418 2048
2021-07-25 19:28:24 GMT 37.410076 -4.375663 22,525 22 417 2112
2021-07-25 19:28:19 GMT 37.400574 -4.380506 22,325 22 414 2240
2021-07-25 19:28:15 GMT 37.393341 -4.384246 22,175 22 414 2240
2021-07-25 19:28:09 GMT 37.382309 -4.389915 21,950 22 413 2112
2021-07-25 19:28:05 GMT 37.375717 -4.393304 21,825 22 412 2176
2021-07-25 19:28:02 GMT 37.371460 -4.395466 21,725 22 412 2176
2021-07-25 19:27:59 GMT 37.364643 -4.398950 21,600 22 411 2176
2021-07-25 19:27:52 GMT 37.353470 -4.404682 21,375 22 410 2112
2021-07-25 19:27:49 GMT 37.347324 -4.407786 21,225 22 409 2240
2021-07-25 19:27:44 GMT 37.339783 -4.411668 21,075 22 408 2432
2021-07-25 19:27:39 GMT 37.329758 -4.416796 20,825 22 407 2496
2021-07-25 19:27:34 GMT 37.322067 -4.420711 20,650 22 407 2304
2021-07-25 19:27:29 GMT 37.312084 -4.425818 20,450 22 405 2176
2021-07-25 19:27:23 GMT 37.302818 -4.430595 20,250 22 404 2304
2021-07-25 19:27:19 GMT 37.294998 -4.434536 20,100 22 402 2112
2021-07-25 19:27:12 GMT 37.284477 -4.439910 19,875 22 400 1984
2021-07-25 19:27:09 GMT 37.277264 -4.443611 19,750 22 398 1856
2021-07-25 19:27:01 GMT 37.265625 -4.449523 19,525 22 395 2240
2021-07-25 19:26:58 GMT 37.259079 -4.452794 19,375 22 393 2304
2021-07-25 19:26:53 GMT 37.252033 -4.456389 19,225 22 392 1792
2021-07-25 19:26:47 GMT 37.242004 -4.461501 19,075 22 389 1728
2021-07-25 19:26:42 GMT 37.232346 -4.466410 18,875 22 387 2240
2021-07-25 19:26:36 GMT 37.223541 -4.470838 18,650 22 385 2432
2021-07-25 19:26:32 GMT 37.216965 -4.474182 18,500 22 384 2560
2021-07-25 19:26:27 GMT 37.207809 -4.478799 18,250 22 383 2432
2021-07-25 19:26:23 GMT 37.201012 -4.482243 18,075 22 382 2496
2021-07-25 19:26:18 GMT 37.191654 -4.487019 17,850 21 381 2688
2021-07-25 19:26:10 GMT 37.177593 -4.494125 17,450 22 378 2560
2021-07-25 19:26:07 GMT 37.175400 -4.495220 17,450 21 379 2496
2021-07-25 19:26:02 GMT 37.167866 -4.499021 17,200 21 378 2624
2021-07-25 19:25:56 GMT 37.157204 -4.504395 16,900 21 377 2688
2021-07-25 19:25:50 GMT 37.146732 -4.509649 16,625 21 375 2432
2021-07-25 19:25:47 GMT 37.142262 -4.511858 16,525 21 375 2496
2021-07-25 19:25:42 GMT 37.134811 -4.515620 16,325 22 373 2688
2021-07-25 19:25:38 GMT 37.127472 -4.519296 16,100 22 373 2880
2021-07-25 19:25:36 GMT 37.125874 -4.520158 16,050 22 373 2816
2021-07-25 19:25:32 GMT 37.118546 -4.523854 15,825 22 372 2688
2021-07-25 19:25:27 GMT 37.108704 -4.528822 15,525 22 371 3264
2021-07-25 19:25:17 GMT 37.095566 -4.535484 15,075 22 372 3328
2021-07-25 19:25:11 GMT 37.086090 -4.540334 14,775 22 373 2816
2021-07-25 19:25:06 GMT 37.077087 -4.544877 14,525 22 371 2752
2021-07-25 19:25:01 GMT 37.069611 -4.548690 14,275 22 371 3200
2021-07-25 19:24:56 GMT 37.061142 -4.553015 14,075 22 371 3072
2021-07-25 19:24:51 GMT 37.052742 -4.557296 13,800 22 369 2304
2021-07-25 19:24:47 GMT 37.047134 -4.560086 13,675 22 366 2048
2021-07-25 19:24:40 GMT 37.036587 -4.565476 13,475 22 361 1728
2021-07-25 19:24:37 GMT 37.027679 -4.570020 13,275 22 356 2304
2021-07-25 19:24:27 GMT 37.015594 -4.576224 12,925 22 352 2240
2021-07-25 19:24:25 GMT 37.011932 -4.578026 12,875 22 351 1792
2021-07-25 19:24:20 GMT 37.006374 -4.580881 12,775 22 345 1152
2021-07-25 19:24:17 GMT 37.000534 -4.583812 12,700 22 340 896
2021-07-25 19:24:15 GMT 36.998199 -4.584980 12,675 22 336 768
2021-07-25 19:24:10 GMT 36.991711 -4.588285 12,625 22 329 960
2021-07-25 19:24:05 GMT 36.984055 -4.592168 12,500 22 323 1920
2021-07-25 19:23:59 GMT 36.976395 -4.596106 12,275 22 320 2752
2021-07-25 19:23:56 GMT 36.971600 -4.598555 12,100 22 318 2816
2021-07-25 19:23:54 GMT 36.968948 -4.599882 12,000 22 318 2816
2021-07-25 19:23:48 GMT 36.960148 -4.604764 11,700 25 317 2880
2021-07-25 19:23:44 GMT 36.955727 -4.607451 11,550 27 317 2944
2021-07-25 19:23:40 GMT 36.950180 -4.611219 11,325 30 316 2816
2021-07-25 19:23:35 GMT 36.943222 -4.616420 11,100 33 316 2496
2021-07-25 19:23:29 GMT 36.937012 -4.621662 10,875 35 315 2304
2021-07-25 19:23:26 GMT 36.933193 -4.625125 10,750 36 313 2304
2021-07-25 19:23:24 GMT 36.930962 -4.627215 10,700 36 313 2240
2021-07-25 19:23:19 GMT 36.924725 -4.632887 10,475 33 310 2368
2021-07-25 19:23:16 GMT 36.921230 -4.635753 10,375 30 308 2496
2021-07-25 19:23:12 GMT 36.916672 -4.638743 10,200 26 306 2560
2021-07-25 19:23:09 GMT 36.912155 -4.641007 10,075 16 302 2112
2021-07-25 19:23:05 GMT 36.907032 -4.642560 9,950 9 298 1728
2021-07-25 19:23:03 GMT 36.905029 -4.642858 9,925 5 295 1600
2021-07-25 19:22:56 GMT 36.894371 -4.642380 9,675 349 282 1984
2021-07-25 19:22:53 GMT 36.891113 -4.641485 9,600 346 279 1856
2021-07-25 19:22:46 GMT 36.881790 -4.637925 9,275 343 272 3264
2021-07-25 19:22:43 GMT 36.878906 -4.636756 9,150 342 272 3712
2021-07-25 19:22:39 GMT 36.874168 -4.634797 8,900 341 274 3264
2021-07-25 19:22:35 GMT 36.870117 -4.633006 8,725 341 272 2624
2021-07-25 19:22:32 GMT 36.865883 -4.631155 8,575 341 272 2752
2021-07-25 19:22:25 GMT 36.857922 -4.627632 8,225 341 272 3264
2021-07-25 19:22:22 GMT 36.854416 -4.626062 8,075 341 272 3136
2021-07-25 19:22:16 GMT 36.846588 -4.622612 7,650 341 272 3072
2021-07-25 19:22:13 GMT 36.841736 -4.620495 7,525 342 273 3456
2021-07-25 19:22:08 GMT 36.837662 -4.618778 7,325 342 273 3520
2021-07-25 19:22:03 GMT 36.830502 -4.615719 7,000 341 274 3008
2021-07-25 19:21:56 GMT 36.821136 -4.611626 6,600 341 271 2944
2021-07-25 19:21:51 GMT 36.817142 -4.609875 6,450 341 271 2944

Making use of Plane Finder data

You are free to use the raw flight data, aircraft information and images provided in this report for your own purposes provided the data is correctly attributed to Plane Finder. We ask that you please credit Plane Finder and link to planefinder.net in close proximity to the content.

Optionally one of the following logos (no smaller then 150x24px) can be used and must link to planefinder.net

Embedding the Plane Finder map

You are welcome to embed the Plane Finder playback map on your website to offer visitors a more interactive experience. We suggest using the following HTML code:

<iframe src="//planefinder.net/data/report/FR3233-EI-EKX-7700-squawk-2021-07-25/map" width="800" height="600" seamless="seamless"></iframe>

Where our data comes from

Plane Finder has a global network of data feeds and antenna radars that receive data broadcast directly from aircraft. The primary technologies used are ADS-B and MLAT. We also show feeds from the FAA and a FLARM glider feed.

Click here to find out more about the Plane Finder network.

How we collect our data